<?xml version="1.0" encoding="UTF-8" standalone="no" ?>
<gpx xmlns="http://www.topografix.com/GPX/1/1" xmlns:xsi="http://www.w3.org/2001/XMLSchema-instance" xsi:schemaLocation="http://www.topografix.com/GPX/1/1 http://www.topografix.com/GPX/1/1/gpx.xsd" version="1.1" creator="VisuGPX - https://www.visugpx.com">
  <metadata>
    <name>blanqueta</name>
  </metadata>
  <trk>
    <name><![CDATA[blanqueta_2]]></name>
    <trkseg>
      <trkpt lat="43.08787" lon="2.24807">
        <ele>245.2734</ele>
        <time>2012-05-06T05:42:23Z</time>
      </trkpt>
      <trkpt lat="43.08787" lon="2.24807">
        <ele>245.2734</ele>
        <time>2012-05-06T05:42:23Z</time>
      </trkpt>
      <trkpt lat="43.08787" lon="2.24807">
        <ele>245.2734</ele>
        <time>2012-05-06T05:42:23Z</time>
      </trkpt>
      <trkpt lat="43.08781" lon="2.2484">
        <ele>245.2734</ele>
        <time>2012-05-06T05:42:32Z</time>
      </trkpt>
      <trkpt lat="43.08773" lon="2.24916">
        <ele>243.3508</ele>
        <time>2012-05-06T05:42:46Z</time>
      </trkpt>
      <trkpt lat="43.08748" lon="2.24961">
        <ele>242.3896</ele>
        <time>2012-05-06T05:43:02Z</time>
      </trkpt>
      <trkpt lat="43.08683" lon="2.25033">
        <ele>242.8702</ele>
        <time>2012-05-06T05:43:27Z</time>
      </trkpt>
      <trkpt lat="43.08612" lon="2.25127">
        <ele>244.7928</ele>
        <time>2012-05-06T05:43:54Z</time>
      </trkpt>
      <trkpt lat="43.08574" lon="2.25203">
        <ele>246.2349</ele>
        <time>2012-05-06T05:44:14Z</time>
      </trkpt>
      <trkpt lat="43.08525" lon="2.25276">
        <ele>245.7542</ele>
        <time>2012-05-06T05:44:33Z</time>
      </trkpt>
      <trkpt lat="43.08489" lon="2.25323">
        <ele>244.7928</ele>
        <time>2012-05-06T05:44:43Z</time>
      </trkpt>
      <trkpt lat="43.08462" lon="2.25338">
        <ele>244.7928</ele>
        <time>2012-05-06T05:44:50Z</time>
      </trkpt>
      <trkpt lat="43.08409" lon="2.25358">
        <ele>246.2349</ele>
        <time>2012-05-06T05:45:07Z</time>
      </trkpt>
      <trkpt lat="43.08424" lon="2.25416">
        <ele>245.2734</ele>
        <time>2012-05-06T05:45:19Z</time>
      </trkpt>
      <trkpt lat="43.08442" lon="2.25461">
        <ele>242.3896</ele>
        <time>2012-05-06T05:45:26Z</time>
      </trkpt>
      <trkpt lat="43.08461" lon="2.25476">
        <ele>240.9476</ele>
        <time>2012-05-06T05:45:31Z</time>
      </trkpt>
      <trkpt lat="43.08478" lon="2.25466">
        <ele>239.0249</ele>
        <time>2012-05-06T05:45:34Z</time>
      </trkpt>
      <trkpt lat="43.0849" lon="2.25455">
        <ele>238.5443</ele>
        <time>2012-05-06T05:45:36Z</time>
      </trkpt>
      <trkpt lat="43.08518" lon="2.25451">
        <ele>237.1023</ele>
        <time>2012-05-06T05:45:40Z</time>
      </trkpt>
      <trkpt lat="43.08529" lon="2.25457">
        <ele>235.6603</ele>
        <time>2012-05-06T05:45:42Z</time>
      </trkpt>
      <trkpt lat="43.08549" lon="2.25479">
        <ele>233.7377</ele>
        <time>2012-05-06T05:45:49Z</time>
      </trkpt>
      <trkpt lat="43.08552" lon="2.25508">
        <ele>229.4117</ele>
        <time>2012-05-06T05:45:54Z</time>
      </trkpt>
      <trkpt lat="43.08549" lon="2.25519">
        <ele>227.4891</ele>
        <time>2012-05-06T05:45:56Z</time>
      </trkpt>
      <trkpt lat="43.08545" lon="2.25529">
        <ele>226.5278</ele>
        <time>2012-05-06T05:45:58Z</time>
      </trkpt>
      <trkpt lat="43.08544" lon="2.25534">
        <ele>224.6052</ele>
        <time>2012-05-06T05:45:59Z</time>
      </trkpt>
      <trkpt lat="43.08542" lon="2.25544">
        <ele>222.6825</ele>
        <time>2012-05-06T05:46:01Z</time>
      </trkpt>
      <trkpt lat="43.0854" lon="2.25553">
        <ele>220.7599</ele>
        <time>2012-05-06T05:46:03Z</time>
      </trkpt>
      <trkpt lat="43.08537" lon="2.25562">
        <ele>219.318</ele>
        <time>2012-05-06T05:46:05Z</time>
      </trkpt>
      <trkpt lat="43.08539" lon="2.25576">
        <ele>217.876</ele>
        <time>2012-05-06T05:46:08Z</time>
      </trkpt>
      <trkpt lat="43.08539" lon="2.25589">
        <ele>216.9147</ele>
        <time>2012-05-06T05:46:10Z</time>
      </trkpt>
      <trkpt lat="43.08524" lon="2.25628">
        <ele>214.5112</ele>
        <time>2012-05-06T05:46:20Z</time>
      </trkpt>
      <trkpt lat="43.08508" lon="2.25645">
        <ele>212.108</ele>
        <time>2012-05-06T05:46:24Z</time>
      </trkpt>
      <trkpt lat="43.08498" lon="2.25653">
        <ele>210.666</ele>
        <time>2012-05-06T05:46:26Z</time>
      </trkpt>
      <trkpt lat="43.08492" lon="2.2566">
        <ele>209.2241</ele>
        <time>2012-05-06T05:46:28Z</time>
      </trkpt>
      <trkpt lat="43.08483" lon="2.2567">
        <ele>207.7821</ele>
        <time>2012-05-06T05:46:31Z</time>
      </trkpt>
      <trkpt lat="43.08475" lon="2.2568">
        <ele>206.3401</ele>
        <time>2012-05-06T05:46:34Z</time>
      </trkpt>
      <trkpt lat="43.08467" lon="2.25694">
        <ele>203.9369</ele>
        <time>2012-05-06T05:46:37Z</time>
      </trkpt>
      <trkpt lat="43.08452" lon="2.25724">
        <ele>203.4562</ele>
        <time>2012-05-06T05:46:50Z</time>
      </trkpt>
      <trkpt lat="43.08451" lon="2.25727">
        <ele>203.4562</ele>
        <time>2012-05-06T05:46:54Z</time>
      </trkpt>
      <trkpt lat="43.08457" lon="2.25733">
        <ele>200.5723</ele>
        <time>2012-05-06T05:46:59Z</time>
      </trkpt>
      <trkpt lat="43.08457" lon="2.25737">
        <ele>200.0917</ele>
        <time>2012-05-06T05:47:01Z</time>
      </trkpt>
      <trkpt lat="43.08461" lon="2.25745">
        <ele>197.2075</ele>
        <time>2012-05-06T05:47:05Z</time>
      </trkpt>
      <trkpt lat="43.08466" lon="2.25749">
        <ele>193.843</ele>
        <time>2012-05-06T05:47:07Z</time>
      </trkpt>
      <trkpt lat="43.08468" lon="2.25751">
        <ele>193.843</ele>
        <time>2012-05-06T05:47:08Z</time>
      </trkpt>
      <trkpt lat="43.08475" lon="2.25757">
        <ele>190.959</ele>
        <time>2012-05-06T05:47:10Z</time>
      </trkpt>
      <trkpt lat="43.08478" lon="2.25759">
        <ele>188.0751</ele>
        <time>2012-05-06T05:47:11Z</time>
      </trkpt>
      <trkpt lat="43.08493" lon="2.25771">
        <ele>183.2684</ele>
        <time>2012-05-06T05:47:14Z</time>
      </trkpt>
      <trkpt lat="43.08497" lon="2.25775">
        <ele>183.2684</ele>
        <time>2012-05-06T05:47:15Z</time>
      </trkpt>
      <trkpt lat="43.08503" lon="2.25781">
        <ele>180.3845</ele>
        <time>2012-05-06T05:47:17Z</time>
      </trkpt>
      <trkpt lat="43.08508" lon="2.25787">
        <ele>179.4232</ele>
        <time>2012-05-06T05:47:19Z</time>
      </trkpt>
      <trkpt lat="43.08515" lon="2.25797">
        <ele>177.02</ele>
        <time>2012-05-06T05:47:22Z</time>
      </trkpt>
      <trkpt lat="43.08517" lon="2.25803">
        <ele>175.0973</ele>
        <time>2012-05-06T05:47:24Z</time>
      </trkpt>
      <trkpt lat="43.08518" lon="2.25806">
        <ele>173.6553</ele>
        <time>2012-05-06T05:47:26Z</time>
      </trkpt>
      <trkpt lat="43.0852" lon="2.25808">
        <ele>172.2133</ele>
        <time>2012-05-06T05:47:33Z</time>
      </trkpt>
      <trkpt lat="43.08518" lon="2.25816">
        <ele>173.1747</ele>
        <time>2012-05-06T05:47:46Z</time>
      </trkpt>
      <trkpt lat="43.08516" lon="2.25816">
        <ele>173.1747</ele>
        <time>2012-05-06T05:47:48Z</time>
      </trkpt>
      <trkpt lat="43.08513" lon="2.25817">
        <ele>173.6553</ele>
        <time>2012-05-06T05:47:51Z</time>
      </trkpt>
      <trkpt lat="43.08506" lon="2.25826">
        <ele>174.1359</ele>
        <time>2012-05-06T05:47:56Z</time>
      </trkpt>
      <trkpt lat="43.08503" lon="2.25832">
        <ele>175.5779</ele>
        <time>2012-05-06T05:47:59Z</time>
      </trkpt>
      <trkpt lat="43.08503" lon="2.25844">
        <ele>177.9812</ele>
        <time>2012-05-06T05:48:06Z</time>
      </trkpt>
      <trkpt lat="43.08506" lon="2.25857">
        <ele>180.3845</ele>
        <time>2012-05-06T05:48:16Z</time>
      </trkpt>
      <trkpt lat="43.08511" lon="2.25862">
        <ele>181.8264</ele>
        <time>2012-05-06T05:48:19Z</time>
      </trkpt>
      <trkpt lat="43.08545" lon="2.25834">
        <ele>181.8264</ele>
        <time>2012-05-06T05:48:35Z</time>
      </trkpt>
      <trkpt lat="43.08578" lon="2.25816">
        <ele>183.2684</ele>
        <time>2012-05-06T05:48:50Z</time>
      </trkpt>
      <trkpt lat="43.08616" lon="2.25789">
        <ele>186.6332</ele>
        <time>2012-05-06T05:49:10Z</time>
      </trkpt>
      <trkpt lat="43.08639" lon="2.25803">
        <ele>188.5558</ele>
        <time>2012-05-06T05:49:24Z</time>
      </trkpt>
      <trkpt lat="43.08643" lon="2.25793">
        <ele>188.5558</ele>
        <time>2012-05-06T05:49:28Z</time>
      </trkpt>
      <trkpt lat="43.08646" lon="2.25779">
        <ele>189.9977</ele>
        <time>2012-05-06T05:49:33Z</time>
      </trkpt>
      <trkpt lat="43.08657" lon="2.25741">
        <ele>190.4784</ele>
        <time>2012-05-06T05:49:44Z</time>
      </trkpt>
      <trkpt lat="43.08665" lon="2.25725">
        <ele>187.1138</ele>
        <time>2012-05-06T05:49:47Z</time>
      </trkpt>
      <trkpt lat="43.08667" lon="2.2572">
        <ele>187.1138</ele>
        <time>2012-05-06T05:49:48Z</time>
      </trkpt>
      <trkpt lat="43.0867" lon="2.25716">
        <ele>186.6332</ele>
        <time>2012-05-06T05:49:49Z</time>
      </trkpt>
      <trkpt lat="43.0869" lon="2.25692">
        <ele>185.6718</ele>
        <time>2012-05-06T05:49:54Z</time>
      </trkpt>
      <trkpt lat="43.08711" lon="2.2567">
        <ele>184.2299</ele>
        <time>2012-05-06T05:50:01Z</time>
      </trkpt>
      <trkpt lat="43.08714" lon="2.25649">
        <ele>182.3071</ele>
        <time>2012-05-06T05:50:06Z</time>
      </trkpt>
      <trkpt lat="43.08722" lon="2.25638">
        <ele>181.3458</ele>
        <time>2012-05-06T05:50:09Z</time>
      </trkpt>
      <trkpt lat="43.08732" lon="2.25619">
        <ele>180.3845</ele>
        <time>2012-05-06T05:50:13Z</time>
      </trkpt>
      <trkpt lat="43.08766" lon="2.25591">
        <ele>180.3845</ele>
        <time>2012-05-06T05:50:25Z</time>
      </trkpt>
      <trkpt lat="43.08798" lon="2.25583">
        <ele>183.749</ele>
        <time>2012-05-06T05:50:42Z</time>
      </trkpt>
      <trkpt lat="43.08821" lon="2.25574">
        <ele>187.1138</ele>
        <time>2012-05-06T05:50:56Z</time>
      </trkpt>
      <trkpt lat="43.08854" lon="2.2554">
        <ele>189.0364</ele>
        <time>2012-05-06T05:51:14Z</time>
      </trkpt>
      <trkpt lat="43.0893" lon="2.25493">
        <ele>188.5558</ele>
        <time>2012-05-06T05:51:33Z</time>
      </trkpt>
      <trkpt lat="43.08965" lon="2.25498">
        <ele>190.4784</ele>
        <time>2012-05-06T05:51:48Z</time>
      </trkpt>
      <trkpt lat="43.08982" lon="2.2549">
        <ele>193.843</ele>
        <time>2012-05-06T05:51:58Z</time>
      </trkpt>
      <trkpt lat="43.08999" lon="2.25484">
        <ele>196.7269</ele>
        <time>2012-05-06T05:52:10Z</time>
      </trkpt>
      <trkpt lat="43.09029" lon="2.25474">
        <ele>200.0917</ele>
        <time>2012-05-06T05:52:28Z</time>
      </trkpt>
      <trkpt lat="43.09063" lon="2.25447">
        <ele>202.9755</ele>
        <time>2012-05-06T05:52:47Z</time>
      </trkpt>
      <trkpt lat="43.09088" lon="2.25427">
        <ele>203.9369</ele>
        <time>2012-05-06T05:52:58Z</time>
      </trkpt>
      <trkpt lat="43.09097" lon="2.25422">
        <ele>203.9369</ele>
        <time>2012-05-06T05:53:00Z</time>
      </trkpt>
      <trkpt lat="43.09128" lon="2.25411">
        <ele>201.5336</ele>
        <time>2012-05-06T05:53:05Z</time>
      </trkpt>
      <trkpt lat="43.09142" lon="2.25411">
        <ele>200.5723</ele>
        <time>2012-05-06T05:53:07Z</time>
      </trkpt>
      <trkpt lat="43.09167" lon="2.25411">
        <ele>199.1301</ele>
        <time>2012-05-06T05:53:14Z</time>
      </trkpt>
      <trkpt lat="43.09174" lon="2.25387">
        <ele>202.4949</ele>
        <time>2012-05-06T05:53:26Z</time>
      </trkpt>
      <trkpt lat="43.09194" lon="2.25397">
        <ele>205.3788</ele>
        <time>2012-05-06T05:53:41Z</time>
      </trkpt>
      <trkpt lat="43.0921" lon="2.254">
        <ele>208.2628</ele>
        <time>2012-05-06T05:53:52Z</time>
      </trkpt>
      <trkpt lat="43.09236" lon="2.25398">
        <ele>211.6274</ele>
        <time>2012-05-06T05:54:08Z</time>
      </trkpt>
      <trkpt lat="43.09266" lon="2.2539">
        <ele>214.5112</ele>
        <time>2012-05-06T05:54:26Z</time>
      </trkpt>
      <trkpt lat="43.0929" lon="2.25376">
        <ele>217.3954</ele>
        <time>2012-05-06T05:54:41Z</time>
      </trkpt>
      <trkpt lat="43.09293" lon="2.25372">
        <ele>216.9147</ele>
        <time>2012-05-06T05:54:47Z</time>
      </trkpt>
      <trkpt lat="43.09296" lon="2.2538">
        <ele>217.3954</ele>
        <time>2012-05-06T05:54:52Z</time>
      </trkpt>
      <trkpt lat="43.09296" lon="2.25385">
        <ele>217.876</ele>
        <time>2012-05-06T05:54:54Z</time>
      </trkpt>
      <trkpt lat="43.09298" lon="2.2539">
        <ele>218.3566</ele>
        <time>2012-05-06T05:54:57Z</time>
      </trkpt>
      <trkpt lat="43.09301" lon="2.25394">
        <ele>218.8373</ele>
        <time>2012-05-06T05:55:01Z</time>
      </trkpt>
      <trkpt lat="43.09301" lon="2.25399">
        <ele>218.8373</ele>
        <time>2012-05-06T05:55:04Z</time>
      </trkpt>
      <trkpt lat="43.09305" lon="2.25423">
        <ele>222.2018</ele>
        <time>2012-05-06T05:55:17Z</time>
      </trkpt>
      <trkpt lat="43.09305" lon="2.25425">
        <ele>222.6825</ele>
        <time>2012-05-06T05:55:18Z</time>
      </trkpt>
      <trkpt lat="43.09308" lon="2.25427">
        <ele>222.6825</ele>
        <time>2012-05-06T05:55:22Z</time>
      </trkpt>
      <trkpt lat="43.09312" lon="2.25442">
        <ele>225.0859</ele>
        <time>2012-05-06T05:55:31Z</time>
      </trkpt>
      <trkpt lat="43.09312" lon="2.25445">
        <ele>226.0471</ele>
        <time>2012-05-06T05:55:33Z</time>
      </trkpt>
      <trkpt lat="43.09311" lon="2.25448">
        <ele>227.0085</ele>
        <time>2012-05-06T05:55:35Z</time>
      </trkpt>
      <trkpt lat="43.09311" lon="2.25457">
        <ele>229.4117</ele>
        <time>2012-05-06T05:55:40Z</time>
      </trkpt>
      <trkpt lat="43.09317" lon="2.25464">
        <ele>229.8923</ele>
        <time>2012-05-06T05:55:44Z</time>
      </trkpt>
      <trkpt lat="43.09312" lon="2.25474">
        <ele>230.8538</ele>
        <time>2012-05-06T05:55:51Z</time>
      </trkpt>
      <trkpt lat="43.09294" lon="2.25491">
        <ele>234.6991</ele>
        <time>2012-05-06T05:56:06Z</time>
      </trkpt>
      <trkpt lat="43.09288" lon="2.25496">
        <ele>235.1797</ele>
        <time>2012-05-06T05:56:10Z</time>
      </trkpt>
      <trkpt lat="43.0929" lon="2.25518">
        <ele>235.6603</ele>
        <time>2012-05-06T05:56:20Z</time>
      </trkpt>
      <trkpt lat="43.09288" lon="2.25561">
        <ele>237.1023</ele>
        <time>2012-05-06T05:56:33Z</time>
      </trkpt>
      <trkpt lat="43.09294" lon="2.25567">
        <ele>237.5829</ele>
        <time>2012-05-06T05:56:37Z</time>
      </trkpt>
      <trkpt lat="43.09297" lon="2.25576">
        <ele>235.6603</ele>
        <time>2012-05-06T05:56:41Z</time>
      </trkpt>
      <trkpt lat="43.093" lon="2.2559">
        <ele>236.141</ele>
        <time>2012-05-06T05:56:49Z</time>
      </trkpt>
      <trkpt lat="43.09305" lon="2.25605">
        <ele>236.6217</ele>
        <time>2012-05-06T05:56:57Z</time>
      </trkpt>
      <trkpt lat="43.09306" lon="2.25613">
        <ele>238.0636</ele>
        <time>2012-05-06T05:57:01Z</time>
      </trkpt>
      <trkpt lat="43.09309" lon="2.25627">
        <ele>237.5829</ele>
        <time>2012-05-06T05:57:06Z</time>
      </trkpt>
      <trkpt lat="43.09312" lon="2.25633">
        <ele>237.1023</ele>
        <time>2012-05-06T05:57:08Z</time>
      </trkpt>
      <trkpt lat="43.09315" lon="2.25643">
        <ele>237.5829</ele>
        <time>2012-05-06T05:57:12Z</time>
      </trkpt>
      <trkpt lat="43.09319" lon="2.25649">
        <ele>237.5829</ele>
        <time>2012-05-06T05:57:14Z</time>
      </trkpt>
      <trkpt lat="43.09322" lon="2.25654">
        <ele>235.1797</ele>
        <time>2012-05-06T05:57:16Z</time>
      </trkpt>
      <trkpt lat="43.09327" lon="2.25666">
        <ele>234.2184</ele>
        <time>2012-05-06T05:57:20Z</time>
      </trkpt>
      <trkpt lat="43.09324" lon="2.25672">
        <ele>234.2184</ele>
        <time>2012-05-06T05:57:22Z</time>
      </trkpt>
      <trkpt lat="43.09333" lon="2.25697">
        <ele>233.7377</ele>
        <time>2012-05-06T05:57:28Z</time>
      </trkpt>
      <trkpt lat="43.09334" lon="2.25708">
        <ele>233.7377</ele>
        <time>2012-05-06T05:57:32Z</time>
      </trkpt>
      <trkpt lat="43.09316" lon="2.25724">
        <ele>236.6217</ele>
        <time>2012-05-06T05:57:43Z</time>
      </trkpt>
      <trkpt lat="43.09313" lon="2.25725">
        <ele>237.1023</ele>
        <time>2012-05-06T05:57:44Z</time>
      </trkpt>
      <trkpt lat="43.09306" lon="2.25738">
        <ele>239.0249</ele>
        <time>2012-05-06T05:57:50Z</time>
      </trkpt>
      <trkpt lat="43.09301" lon="2.25744">
        <ele>239.9862</ele>
        <time>2012-05-06T05:57:53Z</time>
      </trkpt>
      <trkpt lat="43.09296" lon="2.25751">
        <ele>240.467</ele>
        <time>2012-05-06T05:57:57Z</time>
      </trkpt>
      <trkpt lat="43.09275" lon="2.25782">
        <ele>243.8315</ele>
        <time>2012-05-06T05:58:11Z</time>
      </trkpt>
      <trkpt lat="43.09246" lon="2.25834">
        <ele>245.7542</ele>
        <time>2012-05-06T05:58:29Z</time>
      </trkpt>
      <trkpt lat="43.09225" lon="2.2587">
        <ele>246.7155</ele>
        <time>2012-05-06T05:58:43Z</time>
      </trkpt>
      <trkpt lat="43.09199" lon="2.25909">
        <ele>249.1188</ele>
        <time>2012-05-06T05:58:58Z</time>
      </trkpt>
      <trkpt lat="43.0918" lon="2.25932">
        <ele>251.0414</ele>
        <time>2012-05-06T05:59:10Z</time>
      </trkpt>
      <trkpt lat="43.09176" lon="2.25937">
        <ele>252.0028</ele>
        <time>2012-05-06T05:59:12Z</time>
      </trkpt>
      <trkpt lat="43.09152" lon="2.25972">
        <ele>254.406</ele>
        <time>2012-05-06T05:59:27Z</time>
      </trkpt>
      <trkpt lat="43.09137" lon="2.25986">
        <ele>256.8093</ele>
        <time>2012-05-06T05:59:36Z</time>
      </trkpt>
      <trkpt lat="43.0912" lon="2.26009">
        <ele>260.174</ele>
        <time>2012-05-06T05:59:48Z</time>
      </trkpt>
      <trkpt lat="43.09103" lon="2.26027">
        <ele>263.5386</ele>
        <time>2012-05-06T06:00:00Z</time>
      </trkpt>
      <trkpt lat="43.0909" lon="2.26043">
        <ele>267.3839</ele>
        <time>2012-05-06T06:00:12Z</time>
      </trkpt>
      <trkpt lat="43.09089" lon="2.26044">
        <ele>267.3839</ele>
        <time>2012-05-06T06:00:13Z</time>
      </trkpt>
      <trkpt lat="43.09073" lon="2.26051">
        <ele>270.2677</ele>
        <time>2012-05-06T06:00:25Z</time>
      </trkpt>
      <trkpt lat="43.09067" lon="2.26053">
        <ele>270.7484</ele>
        <time>2012-05-06T06:00:29Z</time>
      </trkpt>
      <trkpt lat="43.09065" lon="2.26054">
        <ele>271.2291</ele>
        <time>2012-05-06T06:00:31Z</time>
      </trkpt>
      <trkpt lat="43.09049" lon="2.26059">
        <ele>275.0745</ele>
        <time>2012-05-06T06:00:42Z</time>
      </trkpt>
      <trkpt lat="43.09034" lon="2.26066">
        <ele>277.9583</ele>
        <time>2012-05-06T06:00:56Z</time>
      </trkpt>
      <trkpt lat="43.09026" lon="2.26074">
        <ele>279.4003</ele>
        <time>2012-05-06T06:01:04Z</time>
      </trkpt>
      <trkpt lat="43.09015" lon="2.26107">
        <ele>283.2456</ele>
        <time>2012-05-06T06:01:21Z</time>
      </trkpt>
      <trkpt lat="43.09005" lon="2.26124">
        <ele>286.6102</ele>
        <time>2012-05-06T06:01:32Z</time>
      </trkpt>
      <trkpt lat="43.08994" lon="2.26143">
        <ele>289.4941</ele>
        <time>2012-05-06T06:01:44Z</time>
      </trkpt>
      <trkpt lat="43.08979" lon="2.26164">
        <ele>292.8588</ele>
        <time>2012-05-06T06:02:00Z</time>
      </trkpt>
      <trkpt lat="43.08964" lon="2.2618">
        <ele>296.2235</ele>
        <time>2012-05-06T06:02:12Z</time>
      </trkpt>
      <trkpt lat="43.08953" lon="2.26217">
        <ele>298.6267</ele>
        <time>2012-05-06T06:02:31Z</time>
      </trkpt>
      <trkpt lat="43.08936" lon="2.2624">
        <ele>301.9913</ele>
        <time>2012-05-06T06:02:45Z</time>
      </trkpt>
      <trkpt lat="43.08947" lon="2.26287">
        <ele>303.9139</ele>
        <time>2012-05-06T06:03:03Z</time>
      </trkpt>
      <trkpt lat="43.08954" lon="2.26309">
        <ele>304.3947</ele>
        <time>2012-05-06T06:03:11Z</time>
      </trkpt>
      <trkpt lat="43.08955" lon="2.2632">
        <ele>304.8752</ele>
        <time>2012-05-06T06:03:14Z</time>
      </trkpt>
      <trkpt lat="43.08968" lon="2.26377">
        <ele>307.7593</ele>
        <time>2012-05-06T06:03:34Z</time>
      </trkpt>
      <trkpt lat="43.08968" lon="2.2644">
        <ele>310.1625</ele>
        <time>2012-05-06T06:03:50Z</time>
      </trkpt>
      <trkpt lat="43.08961" lon="2.2649">
        <ele>312.5658</ele>
        <time>2012-05-06T06:04:03Z</time>
      </trkpt>
      <trkpt lat="43.08956" lon="2.26553">
        <ele>315.4498</ele>
        <time>2012-05-06T06:04:24Z</time>
      </trkpt>
      <trkpt lat="43.08954" lon="2.26583">
        <ele>318.8143</ele>
        <time>2012-05-06T06:04:36Z</time>
      </trkpt>
      <trkpt lat="43.0895" lon="2.26634">
        <ele>322.179</ele>
        <time>2012-05-06T06:04:56Z</time>
      </trkpt>
      <trkpt lat="43.08945" lon="2.26674">
        <ele>325.5436</ele>
        <time>2012-05-06T06:05:12Z</time>
      </trkpt>
      <trkpt lat="43.08941" lon="2.26699">
        <ele>328.9083</ele>
        <time>2012-05-06T06:05:24Z</time>
      </trkpt>
      <trkpt lat="43.08931" lon="2.26724">
        <ele>332.2728</ele>
        <time>2012-05-06T06:05:38Z</time>
      </trkpt>
      <trkpt lat="43.08903" lon="2.26779">
        <ele>332.2728</ele>
        <time>2012-05-06T06:05:54Z</time>
      </trkpt>
      <trkpt lat="43.08901" lon="2.26783">
        <ele>332.2728</ele>
        <time>2012-05-06T06:05:55Z</time>
      </trkpt>
      <trkpt lat="43.08897" lon="2.26807">
        <ele>331.7921</ele>
        <time>2012-05-06T06:06:01Z</time>
      </trkpt>
      <trkpt lat="43.08891" lon="2.26822">
        <ele>330.8309</ele>
        <time>2012-05-06T06:06:04Z</time>
      </trkpt>
      <trkpt lat="43.08882" lon="2.26841">
        <ele>330.3502</ele>
        <time>2012-05-06T06:06:08Z</time>
      </trkpt>
      <trkpt lat="43.0887" lon="2.26894">
        <ele>332.2728</ele>
        <time>2012-05-06T06:06:19Z</time>
      </trkpt>
      <trkpt lat="43.08876" lon="2.26967">
        <ele>333.7147</ele>
        <time>2012-05-06T06:06:36Z</time>
      </trkpt>
      <trkpt lat="43.08872" lon="2.26991">
        <ele>333.2341</ele>
        <time>2012-05-06T06:06:40Z</time>
      </trkpt>
      <trkpt lat="43.08869" lon="2.27015">
        <ele>332.7535</ele>
        <time>2012-05-06T06:06:44Z</time>
      </trkpt>
      <trkpt lat="43.0888" lon="2.27051">
        <ele>331.3115</ele>
        <time>2012-05-06T06:06:50Z</time>
      </trkpt>
      <trkpt lat="43.08884" lon="2.27087">
        <ele>330.3502</ele>
        <time>2012-05-06T06:06:54Z</time>
      </trkpt>
      <trkpt lat="43.08874" lon="2.27146">
        <ele>329.8695</ele>
        <time>2012-05-06T06:07:01Z</time>
      </trkpt>
      <trkpt lat="43.08865" lon="2.27208">
        <ele>331.3115</ele>
        <time>2012-05-06T06:07:13Z</time>
      </trkpt>
      <trkpt lat="43.08867" lon="2.2722">
        <ele>332.7535</ele>
        <time>2012-05-06T06:07:17Z</time>
      </trkpt>
      <trkpt lat="43.08872" lon="2.27255">
        <ele>336.1182</ele>
        <time>2012-05-06T06:07:29Z</time>
      </trkpt>
      <trkpt lat="43.08871" lon="2.27316">
        <ele>339.4827</ele>
        <time>2012-05-06T06:07:48Z</time>
      </trkpt>
      <trkpt lat="43.08862" lon="2.2737">
        <ele>342.8473</ele>
        <time>2012-05-06T06:08:04Z</time>
      </trkpt>
      <trkpt lat="43.08862" lon="2.27402">
        <ele>343.3279</ele>
        <time>2012-05-06T06:08:13Z</time>
      </trkpt>
      <trkpt lat="43.08858" lon="2.2743">
        <ele>342.3667</ele>
        <time>2012-05-06T06:08:17Z</time>
      </trkpt>
      <trkpt lat="43.08849" lon="2.27467">
        <ele>340.9247</ele>
        <time>2012-05-06T06:08:22Z</time>
      </trkpt>
      <trkpt lat="43.08829" lon="2.27502">
        <ele>339.9634</ele>
        <time>2012-05-06T06:08:28Z</time>
      </trkpt>
      <trkpt lat="43.08821" lon="2.27543">
        <ele>340.9247</ele>
        <time>2012-05-06T06:08:34Z</time>
      </trkpt>
      <trkpt lat="43.08824" lon="2.27601">
        <ele>343.3279</ele>
        <time>2012-05-06T06:08:46Z</time>
      </trkpt>
      <trkpt lat="43.08828" lon="2.27627">
        <ele>345.2506</ele>
        <time>2012-05-06T06:08:54Z</time>
      </trkpt>
      <trkpt lat="43.08835" lon="2.27654">
        <ele>348.1346</ele>
        <time>2012-05-06T06:09:05Z</time>
      </trkpt>
      <trkpt lat="43.08854" lon="2.27705">
        <ele>350.5378</ele>
        <time>2012-05-06T06:09:23Z</time>
      </trkpt>
      <trkpt lat="43.08869" lon="2.27745">
        <ele>352.4606</ele>
        <time>2012-05-06T06:09:36Z</time>
      </trkpt>
      <trkpt lat="43.08873" lon="2.27757">
        <ele>351.9799</ele>
        <time>2012-05-06T06:09:42Z</time>
      </trkpt>
      <trkpt lat="43.08882" lon="2.27778">
        <ele>350.0573</ele>
        <time>2012-05-06T06:09:48Z</time>
      </trkpt>
      <trkpt lat="43.08914" lon="2.27836">
        <ele>347.1732</ele>
        <time>2012-05-06T06:10:00Z</time>
      </trkpt>
      <trkpt lat="43.08924" lon="2.27851">
        <ele>346.6926</ele>
        <time>2012-05-06T06:10:02Z</time>
      </trkpt>
      <trkpt lat="43.08936" lon="2.2788">
        <ele>344.2894</ele>
        <time>2012-05-06T06:10:06Z</time>
      </trkpt>
      <trkpt lat="43.0894" lon="2.27891">
        <ele>342.3667</ele>
        <time>2012-05-06T06:10:08Z</time>
      </trkpt>
      <trkpt lat="43.08943" lon="2.27896">
        <ele>341.4053</ele>
        <time>2012-05-06T06:10:09Z</time>
      </trkpt>
      <trkpt lat="43.08957" lon="2.27901">
        <ele>339.0021</ele>
        <time>2012-05-06T06:10:21Z</time>
      </trkpt>
      <trkpt lat="43.08957" lon="2.27904">
        <ele>339.0021</ele>
        <time>2012-05-06T06:10:48Z</time>
      </trkpt>
      <trkpt lat="43.0895" lon="2.27898">
        <ele>340.4441</ele>
        <time>2012-05-06T06:11:00Z</time>
      </trkpt>
      <trkpt lat="43.0895" lon="2.27891">
        <ele>341.4053</ele>
        <time>2012-05-06T06:11:04Z</time>
      </trkpt>
      <trkpt lat="43.08947" lon="2.27889">
        <ele>340.9247</ele>
        <time>2012-05-06T06:11:16Z</time>
      </trkpt>
      <trkpt lat="43.08947" lon="2.27895">
        <ele>340.4441</ele>
        <time>2012-05-06T06:11:32Z</time>
      </trkpt>
      <trkpt lat="43.08947" lon="2.27896">
        <ele>340.9247</ele>
        <time>2012-05-06T06:11:48Z</time>
      </trkpt>
      <trkpt lat="43.08945" lon="2.27889">
        <ele>340.9247</ele>
        <time>2012-05-06T06:12:06Z</time>
      </trkpt>
      <trkpt lat="43.08948" lon="2.27896">
        <ele>340.4441</ele>
        <time>2012-05-06T06:12:18Z</time>
      </trkpt>
      <trkpt lat="43.08959" lon="2.27903">
        <ele>339.0021</ele>
        <time>2012-05-06T06:12:35Z</time>
      </trkpt>
      <trkpt lat="43.08981" lon="2.27926">
        <ele>338.5215</ele>
        <time>2012-05-06T06:12:45Z</time>
      </trkpt>
      <trkpt lat="43.08994" lon="2.27935">
        <ele>338.0408</ele>
        <time>2012-05-06T06:12:48Z</time>
      </trkpt>
      <trkpt lat="43.09029" lon="2.27967">
        <ele>335.6373</ele>
        <time>2012-05-06T06:12:56Z</time>
      </trkpt>
      <trkpt lat="43.09035" lon="2.27973">
        <ele>335.6373</ele>
        <time>2012-05-06T06:12:57Z</time>
      </trkpt>
      <trkpt lat="43.09045" lon="2.27985">
        <ele>334.1954</ele>
        <time>2012-05-06T06:12:59Z</time>
      </trkpt>
      <trkpt lat="43.09054" lon="2.28003">
        <ele>330.8309</ele>
        <time>2012-05-06T06:13:02Z</time>
      </trkpt>
      <trkpt lat="43.09057" lon="2.28017">
        <ele>329.8695</ele>
        <time>2012-05-06T06:13:04Z</time>
      </trkpt>
      <trkpt lat="43.0906" lon="2.2803">
        <ele>328.9083</ele>
        <time>2012-05-06T06:13:06Z</time>
      </trkpt>
      <trkpt lat="43.09099" lon="2.28078">
        <ele>327.4662</ele>
        <time>2012-05-06T06:13:20Z</time>
      </trkpt>
      <trkpt lat="43.0912" lon="2.28108">
        <ele>330.8309</ele>
        <time>2012-05-06T06:13:30Z</time>
      </trkpt>
      <trkpt lat="43.09123" lon="2.28113">
        <ele>331.3115</ele>
        <time>2012-05-06T06:13:32Z</time>
      </trkpt>
      <trkpt lat="43.0914" lon="2.28128">
        <ele>334.6761</ele>
        <time>2012-05-06T06:13:42Z</time>
      </trkpt>
      <trkpt lat="43.09143" lon="2.28135">
        <ele>336.1182</ele>
        <time>2012-05-06T06:13:46Z</time>
      </trkpt>
      <trkpt lat="43.09156" lon="2.28149">
        <ele>339.4827</ele>
        <time>2012-05-06T06:13:58Z</time>
      </trkpt>
      <trkpt lat="43.09167" lon="2.28148">
        <ele>342.8473</ele>
        <time>2012-05-06T06:14:07Z</time>
      </trkpt>
      <trkpt lat="43.09174" lon="2.28148">
        <ele>344.2894</ele>
        <time>2012-05-06T06:14:13Z</time>
      </trkpt>
      <trkpt lat="43.09198" lon="2.28182">
        <ele>346.6926</ele>
        <time>2012-05-06T06:14:32Z</time>
      </trkpt>
      <trkpt lat="43.09208" lon="2.28181">
        <ele>348.6152</ele>
        <time>2012-05-06T06:14:39Z</time>
      </trkpt>
      <trkpt lat="43.09211" lon="2.28177">
        <ele>349.0958</ele>
        <time>2012-05-06T06:14:41Z</time>
      </trkpt>
      <trkpt lat="43.09215" lon="2.2818">
        <ele>349.5765</ele>
        <time>2012-05-06T06:14:45Z</time>
      </trkpt>
      <trkpt lat="43.09222" lon="2.28205">
        <ele>350.0573</ele>
        <time>2012-05-06T06:14:56Z</time>
      </trkpt>
      <trkpt lat="43.09227" lon="2.28214">
        <ele>350.5378</ele>
        <time>2012-05-06T06:15:00Z</time>
      </trkpt>
      <trkpt lat="43.09222" lon="2.28234">
        <ele>349.0958</ele>
        <time>2012-05-06T06:15:05Z</time>
      </trkpt>
      <trkpt lat="43.09222" lon="2.28244">
        <ele>348.1346</ele>
        <time>2012-05-06T06:15:07Z</time>
      </trkpt>
      <trkpt lat="43.09226" lon="2.28266">
        <ele>346.212</ele>
        <time>2012-05-06T06:15:11Z</time>
      </trkpt>
      <trkpt lat="43.09239" lon="2.28305">
        <ele>345.2506</ele>
        <time>2012-05-06T06:15:19Z</time>
      </trkpt>
      <trkpt lat="43.09242" lon="2.28323">
        <ele>343.3279</ele>
        <time>2012-05-06T06:15:23Z</time>
      </trkpt>
      <trkpt lat="43.09234" lon="2.28334">
        <ele>341.4053</ele>
        <time>2012-05-06T06:15:26Z</time>
      </trkpt>
      <trkpt lat="43.09229" lon="2.28354">
        <ele>339.9634</ele>
        <time>2012-05-06T06:15:30Z</time>
      </trkpt>
      <trkpt lat="43.0923" lon="2.28367">
        <ele>338.0408</ele>
        <time>2012-05-06T06:15:32Z</time>
      </trkpt>
      <trkpt lat="43.09229" lon="2.28377">
        <ele>336.5989</ele>
        <time>2012-05-06T06:15:34Z</time>
      </trkpt>
      <trkpt lat="43.0922" lon="2.28389">
        <ele>333.7147</ele>
        <time>2012-05-06T06:15:37Z</time>
      </trkpt>
      <trkpt lat="43.09214" lon="2.28392">
        <ele>332.2728</ele>
        <time>2012-05-06T06:15:39Z</time>
      </trkpt>
      <trkpt lat="43.09207" lon="2.28413">
        <ele>329.3889</ele>
        <time>2012-05-06T06:15:43Z</time>
      </trkpt>
      <trkpt lat="43.092" lon="2.28423">
        <ele>328.4276</ele>
        <time>2012-05-06T06:15:46Z</time>
      </trkpt>
      <trkpt lat="43.09189" lon="2.28446">
        <ele>327.9468</ele>
        <time>2012-05-06T06:15:51Z</time>
      </trkpt>
      <trkpt lat="43.09189" lon="2.28464">
        <ele>329.3889</ele>
        <time>2012-05-06T06:15:55Z</time>
      </trkpt>
      <trkpt lat="43.09201" lon="2.2848">
        <ele>327.9468</ele>
        <time>2012-05-06T06:16:02Z</time>
      </trkpt>
      <trkpt lat="43.09198" lon="2.28501">
        <ele>329.3889</ele>
        <time>2012-05-06T06:16:09Z</time>
      </trkpt>
      <trkpt lat="43.09199" lon="2.28513">
        <ele>329.8695</ele>
        <time>2012-05-06T06:16:12Z</time>
      </trkpt>
      <trkpt lat="43.09184" lon="2.28545">
        <ele>325.063</ele>
        <time>2012-05-06T06:16:20Z</time>
      </trkpt>
      <trkpt lat="43.09185" lon="2.28549">
        <ele>325.063</ele>
        <time>2012-05-06T06:16:21Z</time>
      </trkpt>
      <trkpt lat="43.09191" lon="2.28557">
        <ele>324.5823</ele>
        <time>2012-05-06T06:16:23Z</time>
      </trkpt>
      <trkpt lat="43.09196" lon="2.28565">
        <ele>323.621</ele>
        <time>2012-05-06T06:16:25Z</time>
      </trkpt>
      <trkpt lat="43.09195" lon="2.28579">
        <ele>321.6984</ele>
        <time>2012-05-06T06:16:28Z</time>
      </trkpt>
      <trkpt lat="43.09195" lon="2.28588">
        <ele>320.2563</ele>
        <time>2012-05-06T06:16:30Z</time>
      </trkpt>
      <trkpt lat="43.09195" lon="2.28591">
        <ele>318.3336</ele>
        <time>2012-05-06T06:16:31Z</time>
      </trkpt>
      <trkpt lat="43.09204" lon="2.28601">
        <ele>316.411</ele>
        <time>2012-05-06T06:16:36Z</time>
      </trkpt>
      <trkpt lat="43.09208" lon="2.28607">
        <ele>314.4884</ele>
        <time>2012-05-06T06:16:39Z</time>
      </trkpt>
      <trkpt lat="43.09216" lon="2.28615">
        <ele>313.5272</ele>
        <time>2012-05-06T06:16:42Z</time>
      </trkpt>
      <trkpt lat="43.0922" lon="2.28622">
        <ele>311.1238</ele>
        <time>2012-05-06T06:16:44Z</time>
      </trkpt>
      <trkpt lat="43.09226" lon="2.28627">
        <ele>308.7205</ele>
        <time>2012-05-06T06:16:46Z</time>
      </trkpt>
      <trkpt lat="43.09232" lon="2.28629">
        <ele>307.2786</ele>
        <time>2012-05-06T06:16:48Z</time>
      </trkpt>
      <trkpt lat="43.09241" lon="2.28627">
        <ele>304.8752</ele>
        <time>2012-05-06T06:16:51Z</time>
      </trkpt>
      <trkpt lat="43.0925" lon="2.28637">
        <ele>301.9913</ele>
        <time>2012-05-06T06:16:55Z</time>
      </trkpt>
      <trkpt lat="43.09252" lon="2.2864">
        <ele>300.5493</ele>
        <time>2012-05-06T06:16:56Z</time>
      </trkpt>
      <trkpt lat="43.09259" lon="2.28645">
        <ele>298.1461</ele>
        <time>2012-05-06T06:16:58Z</time>
      </trkpt>
      <trkpt lat="43.09264" lon="2.28646">
        <ele>295.7427</ele>
        <time>2012-05-06T06:16:59Z</time>
      </trkpt>
      <trkpt lat="43.09277" lon="2.28653">
        <ele>292.8588</ele>
        <time>2012-05-06T06:17:02Z</time>
      </trkpt>
      <trkpt lat="43.09285" lon="2.28656">
        <ele>288.0522</ele>
        <time>2012-05-06T06:17:04Z</time>
      </trkpt>
      <trkpt lat="43.09288" lon="2.28657">
        <ele>288.0522</ele>
        <time>2012-05-06T06:17:05Z</time>
      </trkpt>
      <trkpt lat="43.09292" lon="2.2866">
        <ele>285.6488</ele>
        <time>2012-05-06T06:17:07Z</time>
      </trkpt>
      <trkpt lat="43.09294" lon="2.28668">
        <ele>284.6876</ele>
        <time>2012-05-06T06:17:09Z</time>
      </trkpt>
      <trkpt lat="43.09296" lon="2.28673">
        <ele>283.7262</ele>
        <time>2012-05-06T06:17:10Z</time>
      </trkpt>
      <trkpt lat="43.09302" lon="2.28679">
        <ele>282.765</ele>
        <time>2012-05-06T06:17:12Z</time>
      </trkpt>
      <trkpt lat="43.0931" lon="2.2868">
        <ele>281.323</ele>
        <time>2012-05-06T06:17:14Z</time>
      </trkpt>
      <trkpt lat="43.09319" lon="2.28681">
        <ele>279.4003</ele>
        <time>2012-05-06T06:17:19Z</time>
      </trkpt>
      <trkpt lat="43.09328" lon="2.2868">
        <ele>277.4777</ele>
        <time>2012-05-06T06:17:23Z</time>
      </trkpt>
      <trkpt lat="43.09336" lon="2.28678">
        <ele>275.5551</ele>
        <time>2012-05-06T06:17:26Z</time>
      </trkpt>
      <trkpt lat="43.09341" lon="2.28677">
        <ele>273.6324</ele>
        <time>2012-05-06T06:17:28Z</time>
      </trkpt>
      <trkpt lat="43.09344" lon="2.28678">
        <ele>271.2291</ele>
        <time>2012-05-06T06:17:29Z</time>
      </trkpt>
      <trkpt lat="43.09358" lon="2.28688">
        <ele>268.3451</ele>
        <time>2012-05-06T06:17:33Z</time>
      </trkpt>
      <trkpt lat="43.09359" lon="2.28693">
        <ele>267.3839</ele>
        <time>2012-05-06T06:17:35Z</time>
      </trkpt>
      <trkpt lat="43.0937" lon="2.28745">
        <ele>269.7871</ele>
        <time>2012-05-06T06:17:48Z</time>
      </trkpt>
      <trkpt lat="43.09381" lon="2.28784">
        <ele>273.1519</ele>
        <time>2012-05-06T06:18:01Z</time>
      </trkpt>
      <trkpt lat="43.09388" lon="2.28817">
        <ele>276.5164</ele>
        <time>2012-05-06T06:18:15Z</time>
      </trkpt>
      <trkpt lat="43.09392" lon="2.28836">
        <ele>278.439</ele>
        <time>2012-05-06T06:18:23Z</time>
      </trkpt>
      <trkpt lat="43.09393" lon="2.28848">
        <ele>279.4003</ele>
        <time>2012-05-06T06:18:28Z</time>
      </trkpt>
      <trkpt lat="43.09409" lon="2.28912">
        <ele>282.765</ele>
        <time>2012-05-06T06:18:51Z</time>
      </trkpt>
      <trkpt lat="43.09411" lon="2.28921">
        <ele>284.2069</ele>
        <time>2012-05-06T06:18:54Z</time>
      </trkpt>
      <trkpt lat="43.09412" lon="2.28923">
        <ele>284.2069</ele>
        <time>2012-05-06T06:18:55Z</time>
      </trkpt>
      <trkpt lat="43.09422" lon="2.28941">
        <ele>285.6488</ele>
        <time>2012-05-06T06:19:02Z</time>
      </trkpt>
      <trkpt lat="43.0944" lon="2.28995">
        <ele>285.1682</ele>
        <time>2012-05-06T06:19:15Z</time>
      </trkpt>
      <trkpt lat="43.09443" lon="2.2902">
        <ele>284.2069</ele>
        <time>2012-05-06T06:19:19Z</time>
      </trkpt>
      <trkpt lat="43.09438" lon="2.29078">
        <ele>282.2843</ele>
        <time>2012-05-06T06:19:27Z</time>
      </trkpt>
      <trkpt lat="43.09444" lon="2.29128">
        <ele>281.8036</ele>
        <time>2012-05-06T06:19:33Z</time>
      </trkpt>
      <trkpt lat="43.0945" lon="2.29153">
        <ele>282.2843</ele>
        <time>2012-05-06T06:19:37Z</time>
      </trkpt>
      <trkpt lat="43.09474" lon="2.29208">
        <ele>285.6488</ele>
        <time>2012-05-06T06:19:53Z</time>
      </trkpt>
      <trkpt lat="43.0949" lon="2.29241">
        <ele>289.0135</ele>
        <time>2012-05-06T06:20:06Z</time>
      </trkpt>
      <trkpt lat="43.09502" lon="2.29257">
        <ele>291.8975</ele>
        <time>2012-05-06T06:20:15Z</time>
      </trkpt>
      <trkpt lat="43.09508" lon="2.29269">
        <ele>293.8201</ele>
        <time>2012-05-06T06:20:21Z</time>
      </trkpt>
      <trkpt lat="43.09523" lon="2.2929">
        <ele>296.2235</ele>
        <time>2012-05-06T06:20:45Z</time>
      </trkpt>
      <trkpt lat="43.09538" lon="2.29315">
        <ele>296.2235</ele>
        <time>2012-05-06T06:21:39Z</time>
      </trkpt>
      <trkpt lat="43.09548" lon="2.29325">
        <ele>295.262</ele>
        <time>2012-05-06T06:21:42Z</time>
      </trkpt>
      <trkpt lat="43.09584" lon="2.29372">
        <ele>292.3782</ele>
        <time>2012-05-06T06:21:49Z</time>
      </trkpt>
      <trkpt lat="43.09607" lon="2.29391">
        <ele>289.4941</ele>
        <time>2012-05-06T06:21:52Z</time>
      </trkpt>
      <trkpt lat="43.09614" lon="2.29395">
        <ele>289.0135</ele>
        <time>2012-05-06T06:21:53Z</time>
      </trkpt>
      <trkpt lat="43.09628" lon="2.29401">
        <ele>288.533</ele>
        <time>2012-05-06T06:21:55Z</time>
      </trkpt>
      <trkpt lat="43.09652" lon="2.29429">
        <ele>285.6488</ele>
        <time>2012-05-06T06:21:59Z</time>
      </trkpt>
      <trkpt lat="43.0966" lon="2.29435">
        <ele>285.1682</ele>
        <time>2012-05-06T06:22:00Z</time>
      </trkpt>
      <trkpt lat="43.09732" lon="2.2951">
        <ele>284.2069</ele>
        <time>2012-05-06T06:22:14Z</time>
      </trkpt>
      <trkpt lat="43.09735" lon="2.29514">
        <ele>284.2069</ele>
        <time>2012-05-06T06:22:15Z</time>
      </trkpt>
      <trkpt lat="43.09772" lon="2.29567">
        <ele>287.5714</ele>
        <time>2012-05-06T06:22:30Z</time>
      </trkpt>
      <trkpt lat="43.09831" lon="2.29632">
        <ele>287.0908</ele>
        <time>2012-05-06T06:22:46Z</time>
      </trkpt>
      <trkpt lat="43.09874" lon="2.29675">
        <ele>286.6102</ele>
        <time>2012-05-06T06:23:00Z</time>
      </trkpt>
      <trkpt lat="43.0989" lon="2.29679">
        <ele>286.1295</ele>
        <time>2012-05-06T06:23:04Z</time>
      </trkpt>
      <trkpt lat="43.09893" lon="2.29685">
        <ele>285.1682</ele>
        <time>2012-05-06T06:23:20Z</time>
      </trkpt>
      <trkpt lat="43.09907" lon="2.29683">
        <ele>285.6488</ele>
        <time>2012-05-06T06:23:26Z</time>
      </trkpt>
      <trkpt lat="43.09915" lon="2.29679">
        <ele>286.1295</ele>
        <time>2012-05-06T06:23:28Z</time>
      </trkpt>
      <trkpt lat="43.09923" lon="2.29702">
        <ele>285.6488</ele>
        <time>2012-05-06T06:23:38Z</time>
      </trkpt>
      <trkpt lat="43.09924" lon="2.29704">
        <ele>285.6488</ele>
        <time>2012-05-06T06:23:39Z</time>
      </trkpt>
      <trkpt lat="43.09932" lon="2.29698">
        <ele>286.6102</ele>
        <time>2012-05-06T06:23:47Z</time>
      </trkpt>
      <trkpt lat="43.09939" lon="2.29689">
        <ele>288.533</ele>
        <time>2012-05-06T06:23:53Z</time>
      </trkpt>
      <trkpt lat="43.09942" lon="2.29694">
        <ele>289.4941</ele>
        <time>2012-05-06T06:23:57Z</time>
      </trkpt>
      <trkpt lat="43.09948" lon="2.29708">
        <ele>291.4167</ele>
        <time>2012-05-06T06:24:04Z</time>
      </trkpt>
      <trkpt lat="43.0997" lon="2.29718">
        <ele>292.8588</ele>
        <time>2012-05-06T06:24:24Z</time>
      </trkpt>
      <trkpt lat="43.09998" lon="2.29736">
        <ele>291.8975</ele>
        <time>2012-05-06T06:24:33Z</time>
      </trkpt>
      <trkpt lat="43.10012" lon="2.29746">
        <ele>290.9362</ele>
        <time>2012-05-06T06:24:36Z</time>
      </trkpt>
      <trkpt lat="43.10025" lon="2.2975">
        <ele>287.0908</ele>
        <time>2012-05-06T06:24:39Z</time>
      </trkpt>
      <trkpt lat="43.10042" lon="2.29762">
        <ele>285.1682</ele>
        <time>2012-05-06T06:24:42Z</time>
      </trkpt>
      <trkpt lat="43.1006" lon="2.29792">
        <ele>284.2069</ele>
        <time>2012-05-06T06:24:47Z</time>
      </trkpt>
      <trkpt lat="43.1006" lon="2.298">
        <ele>284.2069</ele>
        <time>2012-05-06T06:25:03Z</time>
      </trkpt>
      <trkpt lat="43.10063" lon="2.29801">
        <ele>284.2069</ele>
        <time>2012-05-06T06:25:24Z</time>
      </trkpt>
      <trkpt lat="43.10075" lon="2.29825">
        <ele>284.2069</ele>
        <time>2012-05-06T06:25:38Z</time>
      </trkpt>
      <trkpt lat="43.10088" lon="2.29868">
        <ele>285.6488</ele>
        <time>2012-05-06T06:25:51Z</time>
      </trkpt>
      <trkpt lat="43.10122" lon="2.29914">
        <ele>288.533</ele>
        <time>2012-05-06T06:26:03Z</time>
      </trkpt>
      <trkpt lat="43.10124" lon="2.29916">
        <ele>288.533</ele>
        <time>2012-05-06T06:26:04Z</time>
      </trkpt>
      <trkpt lat="43.10133" lon="2.29935">
        <ele>291.8975</ele>
        <time>2012-05-06T06:26:12Z</time>
      </trkpt>
      <trkpt lat="43.10148" lon="2.29987">
        <ele>293.8201</ele>
        <time>2012-05-06T06:26:31Z</time>
      </trkpt>
      <trkpt lat="43.10159" lon="2.30003">
        <ele>293.3394</ele>
        <time>2012-05-06T06:26:49Z</time>
      </trkpt>
      <trkpt lat="43.10159" lon="2.30004">
        <ele>293.3394</ele>
        <time>2012-05-06T06:27:12Z</time>
      </trkpt>
      <trkpt lat="43.10169" lon="2.30007">
        <ele>292.3782</ele>
        <time>2012-05-06T06:27:15Z</time>
      </trkpt>
      <trkpt lat="43.10187" lon="2.30015">
        <ele>291.4167</ele>
        <time>2012-05-06T06:27:18Z</time>
      </trkpt>
      <trkpt lat="43.10201" lon="2.30024">
        <ele>286.6102</ele>
        <time>2012-05-06T06:27:20Z</time>
      </trkpt>
      <trkpt lat="43.10209" lon="2.30029">
        <ele>286.6102</ele>
        <time>2012-05-06T06:27:21Z</time>
      </trkpt>
      <trkpt lat="43.10224" lon="2.30028">
        <ele>284.6876</ele>
        <time>2012-05-06T06:27:23Z</time>
      </trkpt>
      <trkpt lat="43.1024" lon="2.30023">
        <ele>283.2456</ele>
        <time>2012-05-06T06:27:25Z</time>
      </trkpt>
      <trkpt lat="43.10257" lon="2.30023">
        <ele>284.6876</ele>
        <time>2012-05-06T06:27:28Z</time>
      </trkpt>
      <trkpt lat="43.10315" lon="2.30047">
        <ele>284.6876</ele>
        <time>2012-05-06T06:27:41Z</time>
      </trkpt>
      <trkpt lat="43.10352" lon="2.30062">
        <ele>286.6102</ele>
        <time>2012-05-06T06:27:48Z</time>
      </trkpt>
      <trkpt lat="43.10387" lon="2.30094">
        <ele>286.1295</ele>
        <time>2012-05-06T06:27:55Z</time>
      </trkpt>
      <trkpt lat="43.10399" lon="2.30118">
        <ele>281.8036</ele>
        <time>2012-05-06T06:27:58Z</time>
      </trkpt>
      <trkpt lat="43.10413" lon="2.30161">
        <ele>279.8809</ele>
        <time>2012-05-06T06:28:02Z</time>
      </trkpt>
      <trkpt lat="43.10417" lon="2.30182">
        <ele>278.439</ele>
        <time>2012-05-06T06:28:04Z</time>
      </trkpt>
      <trkpt lat="43.10419" lon="2.3019">
        <ele>278.439</ele>
        <time>2012-05-06T06:28:05Z</time>
      </trkpt>
      <trkpt lat="43.10436" lon="2.30224">
        <ele>276.5164</ele>
        <time>2012-05-06T06:28:11Z</time>
      </trkpt>
      <trkpt lat="43.10454" lon="2.30248">
        <ele>274.5938</ele>
        <time>2012-05-06T06:28:16Z</time>
      </trkpt>
      <trkpt lat="43.10471" lon="2.30262">
        <ele>273.1519</ele>
        <time>2012-05-06T06:28:19Z</time>
      </trkpt>
      <trkpt lat="43.10482" lon="2.30272">
        <ele>272.1904</ele>
        <time>2012-05-06T06:28:21Z</time>
      </trkpt>
      <trkpt lat="43.10518" lon="2.3034">
        <ele>273.1519</ele>
        <time>2012-05-06T06:28:36Z</time>
      </trkpt>
      <trkpt lat="43.10517" lon="2.30344">
        <ele>273.1519</ele>
        <time>2012-05-06T06:28:37Z</time>
      </trkpt>
      <trkpt lat="43.10524" lon="2.30375">
        <ele>277.4777</ele>
        <time>2012-05-06T06:28:47Z</time>
      </trkpt>
      <trkpt lat="43.10525" lon="2.30378">
        <ele>278.439</ele>
        <time>2012-05-06T06:28:48Z</time>
      </trkpt>
      <trkpt lat="43.10533" lon="2.30389">
        <ele>278.439</ele>
        <time>2012-05-06T06:28:53Z</time>
      </trkpt>
      <trkpt lat="43.10535" lon="2.30398">
        <ele>279.8809</ele>
        <time>2012-05-06T06:28:56Z</time>
      </trkpt>
      <trkpt lat="43.10538" lon="2.30422">
        <ele>280.8424</ele>
        <time>2012-05-06T06:29:04Z</time>
      </trkpt>
      <trkpt lat="43.10556" lon="2.30466">
        <ele>282.2843</ele>
        <time>2012-05-06T06:29:16Z</time>
      </trkpt>
      <trkpt lat="43.10574" lon="2.30485">
        <ele>281.8036</ele>
        <time>2012-05-06T06:29:21Z</time>
      </trkpt>
      <trkpt lat="43.10597" lon="2.30496">
        <ele>279.4003</ele>
        <time>2012-05-06T06:29:25Z</time>
      </trkpt>
      <trkpt lat="43.10616" lon="2.30503">
        <ele>277.4777</ele>
        <time>2012-05-06T06:29:28Z</time>
      </trkpt>
      <trkpt lat="43.10624" lon="2.30512">
        <ele>275.0745</ele>
        <time>2012-05-06T06:29:30Z</time>
      </trkpt>
      <trkpt lat="43.10634" lon="2.30521">
        <ele>271.7097</ele>
        <time>2012-05-06T06:29:32Z</time>
      </trkpt>
      <trkpt lat="43.10637" lon="2.30524">
        <ele>271.7097</ele>
        <time>2012-05-06T06:29:33Z</time>
      </trkpt>
      <trkpt lat="43.10641" lon="2.3053">
        <ele>270.2677</ele>
        <time>2012-05-06T06:29:34Z</time>
      </trkpt>
      <trkpt lat="43.10649" lon="2.30542">
        <ele>268.3451</ele>
        <time>2012-05-06T06:29:36Z</time>
      </trkpt>
      <trkpt lat="43.10654" lon="2.30556">
        <ele>267.3839</ele>
        <time>2012-05-06T06:29:38Z</time>
      </trkpt>
      <trkpt lat="43.10671" lon="2.30582">
        <ele>270.7484</ele>
        <time>2012-05-06T06:29:46Z</time>
      </trkpt>
      <trkpt lat="43.10679" lon="2.306">
        <ele>272.1904</ele>
        <time>2012-05-06T06:29:52Z</time>
      </trkpt>
      <trkpt lat="43.10704" lon="2.30624">
        <ele>274.113</ele>
        <time>2012-05-06T06:30:04Z</time>
      </trkpt>
      <trkpt lat="43.10707" lon="2.30636">
        <ele>276.9971</ele>
        <time>2012-05-06T06:30:09Z</time>
      </trkpt>
      <trkpt lat="43.1071" lon="2.30639">
        <ele>277.4777</ele>
        <time>2012-05-06T06:30:11Z</time>
      </trkpt>
      <trkpt lat="43.1071" lon="2.30647">
        <ele>278.9197</ele>
        <time>2012-05-06T06:30:15Z</time>
      </trkpt>
      <trkpt lat="43.10714" lon="2.30656">
        <ele>279.8809</ele>
        <time>2012-05-06T06:30:19Z</time>
      </trkpt>
      <trkpt lat="43.10732" lon="2.3068">
        <ele>279.8809</ele>
        <time>2012-05-06T06:30:29Z</time>
      </trkpt>
      <trkpt lat="43.1075" lon="2.30694">
        <ele>278.439</ele>
        <time>2012-05-06T06:30:33Z</time>
      </trkpt>
      <trkpt lat="43.10759" lon="2.30705">
        <ele>277.9583</ele>
        <time>2012-05-06T06:30:35Z</time>
      </trkpt>
      <trkpt lat="43.10779" lon="2.30717">
        <ele>275.0745</ele>
        <time>2012-05-06T06:30:39Z</time>
      </trkpt>
      <trkpt lat="43.10787" lon="2.30723">
        <ele>274.113</ele>
        <time>2012-05-06T06:30:41Z</time>
      </trkpt>
      <trkpt lat="43.10801" lon="2.30719">
        <ele>273.6324</ele>
        <time>2012-05-06T06:30:44Z</time>
      </trkpt>
      <trkpt lat="43.10819" lon="2.30696">
        <ele>271.7097</ele>
        <time>2012-05-06T06:30:48Z</time>
      </trkpt>
      <trkpt lat="43.10835" lon="2.30692">
        <ele>269.7871</ele>
        <time>2012-05-06T06:30:51Z</time>
      </trkpt>
      <trkpt lat="43.1084" lon="2.30694">
        <ele>269.3065</ele>
        <time>2012-05-06T06:30:52Z</time>
      </trkpt>
      <trkpt lat="43.10853" lon="2.30704">
        <ele>273.1519</ele>
        <time>2012-05-06T06:31:00Z</time>
      </trkpt>
      <trkpt lat="43.10855" lon="2.30706">
        <ele>273.1519</ele>
        <time>2012-05-06T06:31:01Z</time>
      </trkpt>
      <trkpt lat="43.10858" lon="2.30712">
        <ele>273.6324</ele>
        <time>2012-05-06T06:31:03Z</time>
      </trkpt>
      <trkpt lat="43.10877" lon="2.30724">
        <ele>271.7097</ele>
        <time>2012-05-06T06:31:07Z</time>
      </trkpt>
      <trkpt lat="43.10883" lon="2.30738">
        <ele>269.3065</ele>
        <time>2012-05-06T06:31:10Z</time>
      </trkpt>
      <trkpt lat="43.10888" lon="2.30743">
        <ele>267.8645</ele>
        <time>2012-05-06T06:31:11Z</time>
      </trkpt>
      <trkpt lat="43.10901" lon="2.30762">
        <ele>264.0193</ele>
        <time>2012-05-06T06:31:14Z</time>
      </trkpt>
      <trkpt lat="43.10919" lon="2.3077">
        <ele>262.0966</ele>
        <time>2012-05-06T06:31:17Z</time>
      </trkpt>
      <trkpt lat="43.10931" lon="2.30771">
        <ele>260.174</ele>
        <time>2012-05-06T06:31:19Z</time>
      </trkpt>
      <trkpt lat="43.10943" lon="2.30787">
        <ele>253.9254</ele>
        <time>2012-05-06T06:31:23Z</time>
      </trkpt>
      <trkpt lat="43.10945" lon="2.30792">
        <ele>253.9254</ele>
        <time>2012-05-06T06:31:24Z</time>
      </trkpt>
      <trkpt lat="43.10951" lon="2.30801">
        <ele>252.4834</ele>
        <time>2012-05-06T06:31:26Z</time>
      </trkpt>
      <trkpt lat="43.10963" lon="2.30808">
        <ele>250.5608</ele>
        <time>2012-05-06T06:31:28Z</time>
      </trkpt>
      <trkpt lat="43.10967" lon="2.30813">
        <ele>247.196</ele>
        <time>2012-05-06T06:31:29Z</time>
      </trkpt>
      <trkpt lat="43.10975" lon="2.30817">
        <ele>245.7542</ele>
        <time>2012-05-06T06:31:31Z</time>
      </trkpt>
      <trkpt lat="43.11013" lon="2.30824">
        <ele>242.3896</ele>
        <time>2012-05-06T06:31:37Z</time>
      </trkpt>
      <trkpt lat="43.11043" lon="2.30855">
        <ele>242.3896</ele>
        <time>2012-05-06T06:31:43Z</time>
      </trkpt>
      <trkpt lat="43.11082" lon="2.30898">
        <ele>241.9089</ele>
        <time>2012-05-06T06:31:51Z</time>
      </trkpt>
      <trkpt lat="43.11108" lon="2.30907">
        <ele>240.467</ele>
        <time>2012-05-06T06:31:55Z</time>
      </trkpt>
      <trkpt lat="43.11123" lon="2.30907">
        <ele>239.0249</ele>
        <time>2012-05-06T06:31:57Z</time>
      </trkpt>
      <trkpt lat="43.11139" lon="2.30913">
        <ele>238.0636</ele>
        <time>2012-05-06T06:31:59Z</time>
      </trkpt>
      <trkpt lat="43.11154" lon="2.30921">
        <ele>237.1023</ele>
        <time>2012-05-06T06:32:01Z</time>
      </trkpt>
      <trkpt lat="43.11188" lon="2.30923">
        <ele>233.7377</ele>
        <time>2012-05-06T06:32:05Z</time>
      </trkpt>
      <trkpt lat="43.11196" lon="2.30921">
        <ele>232.2958</ele>
        <time>2012-05-06T06:32:06Z</time>
      </trkpt>
      <trkpt lat="43.11213" lon="2.30922">
        <ele>230.8538</ele>
        <time>2012-05-06T06:32:08Z</time>
      </trkpt>
      <trkpt lat="43.11226" lon="2.30929">
        <ele>229.4117</ele>
        <time>2012-05-06T06:32:10Z</time>
      </trkpt>
      <trkpt lat="43.11237" lon="2.30941">
        <ele>227.4891</ele>
        <time>2012-05-06T06:32:12Z</time>
      </trkpt>
      <trkpt lat="43.11256" lon="2.30958">
        <ele>226.0471</ele>
        <time>2012-05-06T06:32:15Z</time>
      </trkpt>
      <trkpt lat="43.11277" lon="2.30961">
        <ele>225.0859</ele>
        <time>2012-05-06T06:32:18Z</time>
      </trkpt>
      <trkpt lat="43.11294" lon="2.30978">
        <ele>221.2406</ele>
        <time>2012-05-06T06:32:21Z</time>
      </trkpt>
      <trkpt lat="43.11301" lon="2.30985">
        <ele>221.2406</ele>
        <time>2012-05-06T06:32:22Z</time>
      </trkpt>
      <trkpt lat="43.11314" lon="2.31">
        <ele>219.7986</ele>
        <time>2012-05-06T06:32:24Z</time>
      </trkpt>
      <trkpt lat="43.11376" lon="2.31041">
        <ele>218.8373</ele>
        <time>2012-05-06T06:32:33Z</time>
      </trkpt>
      <trkpt lat="43.11407" lon="2.31053">
        <ele>215.9532</ele>
        <time>2012-05-06T06:32:37Z</time>
      </trkpt>
      <trkpt lat="43.11416" lon="2.31057">
        <ele>215.9532</ele>
        <time>2012-05-06T06:32:38Z</time>
      </trkpt>
      <trkpt lat="43.11433" lon="2.31062">
        <ele>214.5112</ele>
        <time>2012-05-06T06:32:40Z</time>
      </trkpt>
      <trkpt lat="43.11446" lon="2.31059">
        <ele>213.0693</ele>
        <time>2012-05-06T06:32:42Z</time>
      </trkpt>
      <trkpt lat="43.11455" lon="2.3105">
        <ele>212.108</ele>
        <time>2012-05-06T06:32:44Z</time>
      </trkpt>
      <trkpt lat="43.11467" lon="2.3105">
        <ele>210.666</ele>
        <time>2012-05-06T06:32:47Z</time>
      </trkpt>
      <trkpt lat="43.11511" lon="2.3108">
        <ele>212.5886</ele>
        <time>2012-05-06T06:33:03Z</time>
      </trkpt>
      <trkpt lat="43.11514" lon="2.31083">
        <ele>212.108</ele>
        <time>2012-05-06T06:33:04Z</time>
      </trkpt>
      <trkpt lat="43.11526" lon="2.31091">
        <ele>211.1467</ele>
        <time>2012-05-06T06:33:07Z</time>
      </trkpt>
      <trkpt lat="43.11539" lon="2.31112">
        <ele>212.5886</ele>
        <time>2012-05-06T06:33:13Z</time>
      </trkpt>
      <trkpt lat="43.11547" lon="2.31129">
        <ele>215.4727</ele>
        <time>2012-05-06T06:33:21Z</time>
      </trkpt>
      <trkpt lat="43.11548" lon="2.31131">
        <ele>215.4727</ele>
        <time>2012-05-06T06:33:22Z</time>
      </trkpt>
      <trkpt lat="43.11556" lon="2.3115">
        <ele>218.8373</ele>
        <time>2012-05-06T06:33:32Z</time>
      </trkpt>
      <trkpt lat="43.11572" lon="2.31211">
        <ele>217.876</ele>
        <time>2012-05-06T06:33:48Z</time>
      </trkpt>
      <trkpt lat="43.11575" lon="2.31221">
        <ele>214.9919</ele>
        <time>2012-05-06T06:33:50Z</time>
      </trkpt>
      <trkpt lat="43.1159" lon="2.31222">
        <ele>212.108</ele>
        <time>2012-05-06T06:33:54Z</time>
      </trkpt>
      <trkpt lat="43.11597" lon="2.31216">
        <ele>211.6274</ele>
        <time>2012-05-06T06:33:56Z</time>
      </trkpt>
      <trkpt lat="43.11688" lon="2.31148">
        <ele>209.7048</ele>
        <time>2012-05-06T06:34:13Z</time>
      </trkpt>
      <trkpt lat="43.11699" lon="2.31132">
        <ele>208.2628</ele>
        <time>2012-05-06T06:34:15Z</time>
      </trkpt>
      <trkpt lat="43.11712" lon="2.31112">
        <ele>206.8207</ele>
        <time>2012-05-06T06:34:17Z</time>
      </trkpt>
      <trkpt lat="43.11724" lon="2.31088">
        <ele>203.4562</ele>
        <time>2012-05-06T06:34:20Z</time>
      </trkpt>
      <trkpt lat="43.11763" lon="2.31073">
        <ele>199.1301</ele>
        <time>2012-05-06T06:34:26Z</time>
      </trkpt>
      <trkpt lat="43.1178" lon="2.31079">
        <ele>197.2075</ele>
        <time>2012-05-06T06:34:28Z</time>
      </trkpt>
      <trkpt lat="43.11825" lon="2.31064">
        <ele>193.843</ele>
        <time>2012-05-06T06:34:33Z</time>
      </trkpt>
      <trkpt lat="43.11833" lon="2.3106">
        <ele>193.843</ele>
        <time>2012-05-06T06:34:34Z</time>
      </trkpt>
      <trkpt lat="43.11841" lon="2.31055">
        <ele>192.4011</ele>
        <time>2012-05-06T06:34:35Z</time>
      </trkpt>
      <trkpt lat="43.11864" lon="2.31038">
        <ele>190.959</ele>
        <time>2012-05-06T06:34:38Z</time>
      </trkpt>
      <trkpt lat="43.11881" lon="2.31025">
        <ele>188.0751</ele>
        <time>2012-05-06T06:34:40Z</time>
      </trkpt>
      <trkpt lat="43.1189" lon="2.31019">
        <ele>188.0751</ele>
        <time>2012-05-06T06:34:41Z</time>
      </trkpt>
      <trkpt lat="43.11907" lon="2.31008">
        <ele>186.6332</ele>
        <time>2012-05-06T06:34:43Z</time>
      </trkpt>
      <trkpt lat="43.11931" lon="2.31">
        <ele>184.7106</ele>
        <time>2012-05-06T06:34:46Z</time>
      </trkpt>
      <trkpt lat="43.11946" lon="2.30992">
        <ele>183.2684</ele>
        <time>2012-05-06T06:34:48Z</time>
      </trkpt>
      <trkpt lat="43.11959" lon="2.30966">
        <ele>182.7878</ele>
        <time>2012-05-06T06:34:51Z</time>
      </trkpt>
      <trkpt lat="43.11993" lon="2.30929">
        <ele>179.9038</ele>
        <time>2012-05-06T06:34:57Z</time>
      </trkpt>
      <trkpt lat="43.12025" lon="2.30902">
        <ele>177.02</ele>
        <time>2012-05-06T06:35:03Z</time>
      </trkpt>
      <trkpt lat="43.1203" lon="2.30899">
        <ele>177.02</ele>
        <time>2012-05-06T06:35:04Z</time>
      </trkpt>
      <trkpt lat="43.12037" lon="2.30893">
        <ele>174.6166</ele>
        <time>2012-05-06T06:35:06Z</time>
      </trkpt>
      <trkpt lat="43.12043" lon="2.30889">
        <ele>173.1747</ele>
        <time>2012-05-06T06:35:08Z</time>
      </trkpt>
      <trkpt lat="43.1205" lon="2.30883">
        <ele>170.7714</ele>
        <time>2012-05-06T06:35:11Z</time>
      </trkpt>
      <trkpt lat="43.12054" lon="2.30881">
        <ele>169.3295</ele>
        <time>2012-05-06T06:35:13Z</time>
      </trkpt>
      <trkpt lat="43.12058" lon="2.30882">
        <ele>168.368</ele>
        <time>2012-05-06T06:35:15Z</time>
      </trkpt>
      <trkpt lat="43.12061" lon="2.30887">
        <ele>167.4067</ele>
        <time>2012-05-06T06:35:17Z</time>
      </trkpt>
      <trkpt lat="43.12117" lon="2.30985">
        <ele>167.4067</ele>
        <time>2012-05-06T06:35:39Z</time>
      </trkpt>
      <trkpt lat="43.1215" lon="2.31034">
        <ele>164.0421</ele>
        <time>2012-05-06T06:35:47Z</time>
      </trkpt>
      <trkpt lat="43.12151" lon="2.31035">
        <ele>164.0421</ele>
        <time>2012-05-06T06:35:48Z</time>
      </trkpt>
      <trkpt lat="43.12151" lon="2.31039">
        <ele>163.5615</ele>
        <time>2012-05-06T06:35:51Z</time>
      </trkpt>
      <trkpt lat="43.12145" lon="2.31036">
        <ele>164.0421</ele>
        <time>2012-05-06T06:35:55Z</time>
      </trkpt>
      <trkpt lat="43.12126" lon="2.31017">
        <ele>162.1195</ele>
        <time>2012-05-06T06:36:02Z</time>
      </trkpt>
      <trkpt lat="43.12124" lon="2.31016">
        <ele>161.1582</ele>
        <time>2012-05-06T06:36:03Z</time>
      </trkpt>
      <trkpt lat="43.12114" lon="2.31028">
        <ele>159.7162</ele>
        <time>2012-05-06T06:36:07Z</time>
      </trkpt>
      <trkpt lat="43.12103" lon="2.31037">
        <ele>158.7548</ele>
        <time>2012-05-06T06:36:09Z</time>
      </trkpt>
      <trkpt lat="43.12042" lon="2.3109">
        <ele>155.871</ele>
        <time>2012-05-06T06:36:19Z</time>
      </trkpt>
      <trkpt lat="43.11965" lon="2.31136">
        <ele>154.429</ele>
        <time>2012-05-06T06:36:34Z</time>
      </trkpt>
      <trkpt lat="43.11919" lon="2.31139">
        <ele>154.9095</ele>
        <time>2012-05-06T06:36:44Z</time>
      </trkpt>
      <trkpt lat="43.11893" lon="2.31146">
        <ele>155.871</ele>
        <time>2012-05-06T06:36:50Z</time>
      </trkpt>
      <trkpt lat="43.11871" lon="2.31166">
        <ele>156.3516</ele>
        <time>2012-05-06T06:36:56Z</time>
      </trkpt>
      <trkpt lat="43.11842" lon="2.31208">
        <ele>156.8322</ele>
        <time>2012-05-06T06:37:05Z</time>
      </trkpt>
      <trkpt lat="43.11834" lon="2.31241">
        <ele>155.3903</ele>
        <time>2012-05-06T06:37:10Z</time>
      </trkpt>
      <trkpt lat="43.11806" lon="2.31317">
        <ele>153.9484</ele>
        <time>2012-05-06T06:37:20Z</time>
      </trkpt>
      <trkpt lat="43.11733" lon="2.31399">
        <ele>153.4677</ele>
        <time>2012-05-06T06:37:44Z</time>
      </trkpt>
      <trkpt lat="43.11679" lon="2.31453">
        <ele>155.871</ele>
        <time>2012-05-06T06:38:04Z</time>
      </trkpt>
      <trkpt lat="43.11657" lon="2.31489">
        <ele>158.7548</ele>
        <time>2012-05-06T06:38:19Z</time>
      </trkpt>
      <trkpt lat="43.11639" lon="2.31515">
        <ele>162.1195</ele>
        <time>2012-05-06T06:38:31Z</time>
      </trkpt>
      <trkpt lat="43.11596" lon="2.3154">
        <ele>163.0808</ele>
        <time>2012-05-06T06:38:48Z</time>
      </trkpt>
      <trkpt lat="43.11579" lon="2.31523">
        <ele>160.1969</ele>
        <time>2012-05-06T06:38:52Z</time>
      </trkpt>
      <trkpt lat="43.11549" lon="2.31485">
        <ele>159.2355</ele>
        <time>2012-05-06T06:38:58Z</time>
      </trkpt>
      <trkpt lat="43.11502" lon="2.31472">
        <ele>156.3516</ele>
        <time>2012-05-06T06:39:05Z</time>
      </trkpt>
      <trkpt lat="43.11451" lon="2.3148">
        <ele>155.3903</ele>
        <time>2012-05-06T06:39:13Z</time>
      </trkpt>
      <trkpt lat="43.11335" lon="2.31521">
        <ele>155.871</ele>
        <time>2012-05-06T06:39:35Z</time>
      </trkpt>
      <trkpt lat="43.11317" lon="2.31535">
        <ele>156.3516</ele>
        <time>2012-05-06T06:39:39Z</time>
      </trkpt>
      <trkpt lat="43.11257" lon="2.31548">
        <ele>155.871</ele>
        <time>2012-05-06T06:39:51Z</time>
      </trkpt>
      <trkpt lat="43.11233" lon="2.31537">
        <ele>155.871</ele>
        <time>2012-05-06T06:39:56Z</time>
      </trkpt>
      <trkpt lat="43.11217" lon="2.31524">
        <ele>156.3516</ele>
        <time>2012-05-06T06:40:00Z</time>
      </trkpt>
      <trkpt lat="43.11188" lon="2.31518">
        <ele>155.3903</ele>
        <time>2012-05-06T06:40:06Z</time>
      </trkpt>
      <trkpt lat="43.11173" lon="2.3152">
        <ele>155.3903</ele>
        <time>2012-05-06T06:40:09Z</time>
      </trkpt>
      <trkpt lat="43.11072" lon="2.31525">
        <ele>156.8322</ele>
        <time>2012-05-06T06:40:29Z</time>
      </trkpt>
      <trkpt lat="43.1103" lon="2.31523">
        <ele>156.8322</ele>
        <time>2012-05-06T06:40:38Z</time>
      </trkpt>
      <trkpt lat="43.10968" lon="2.31543">
        <ele>157.7936</ele>
        <time>2012-05-06T06:40:52Z</time>
      </trkpt>
      <trkpt lat="43.10948" lon="2.31557">
        <ele>158.2742</ele>
        <time>2012-05-06T06:40:57Z</time>
      </trkpt>
      <trkpt lat="43.10936" lon="2.31567">
        <ele>158.2742</ele>
        <time>2012-05-06T06:41:00Z</time>
      </trkpt>
      <trkpt lat="43.10827" lon="2.31608">
        <ele>158.2742</ele>
        <time>2012-05-06T06:41:23Z</time>
      </trkpt>
      <trkpt lat="43.10798" lon="2.31616">
        <ele>158.2742</ele>
        <time>2012-05-06T06:41:29Z</time>
      </trkpt>
      <trkpt lat="43.10723" lon="2.31599">
        <ele>158.7548</ele>
        <time>2012-05-06T06:41:44Z</time>
      </trkpt>
      <trkpt lat="43.10701" lon="2.31592">
        <ele>159.2355</ele>
        <time>2012-05-06T06:41:49Z</time>
      </trkpt>
      <trkpt lat="43.10687" lon="2.31579">
        <ele>159.7162</ele>
        <time>2012-05-06T06:41:53Z</time>
      </trkpt>
      <trkpt lat="43.10612" lon="2.31575">
        <ele>159.7162</ele>
        <time>2012-05-06T06:42:09Z</time>
      </trkpt>
      <trkpt lat="43.10589" lon="2.31565">
        <ele>159.7162</ele>
        <time>2012-05-06T06:42:14Z</time>
      </trkpt>
      <trkpt lat="43.10483" lon="2.31479">
        <ele>160.6775</ele>
        <time>2012-05-06T06:42:40Z</time>
      </trkpt>
      <trkpt lat="43.10475" lon="2.31449">
        <ele>160.6775</ele>
        <time>2012-05-06T06:42:45Z</time>
      </trkpt>
      <trkpt lat="43.10466" lon="2.31377">
        <ele>162.1195</ele>
        <time>2012-05-06T06:42:57Z</time>
      </trkpt>
      <trkpt lat="43.10453" lon="2.31353">
        <ele>162.6001</ele>
        <time>2012-05-06T06:43:02Z</time>
      </trkpt>
      <trkpt lat="43.10437" lon="2.31336">
        <ele>162.1195</ele>
        <time>2012-05-06T06:43:06Z</time>
      </trkpt>
      <trkpt lat="43.10416" lon="2.31322">
        <ele>161.1582</ele>
        <time>2012-05-06T06:43:10Z</time>
      </trkpt>
      <trkpt lat="43.10299" lon="2.31315">
        <ele>160.1969</ele>
        <time>2012-05-06T06:43:32Z</time>
      </trkpt>
      <trkpt lat="43.10256" lon="2.31317">
        <ele>160.6775</ele>
        <time>2012-05-06T06:43:41Z</time>
      </trkpt>
      <trkpt lat="43.10238" lon="2.31312">
        <ele>160.6775</ele>
        <time>2012-05-06T06:43:45Z</time>
      </trkpt>
      <trkpt lat="43.102" lon="2.31285">
        <ele>161.1582</ele>
        <time>2012-05-06T06:43:54Z</time>
      </trkpt>
      <trkpt lat="43.10171" lon="2.3123">
        <ele>159.7162</ele>
        <time>2012-05-06T06:44:04Z</time>
      </trkpt>
      <trkpt lat="43.10151" lon="2.31197">
        <ele>160.1969</ele>
        <time>2012-05-06T06:44:10Z</time>
      </trkpt>
      <trkpt lat="43.10135" lon="2.31159">
        <ele>159.7162</ele>
        <time>2012-05-06T06:44:16Z</time>
      </trkpt>
      <trkpt lat="43.10132" lon="2.31121">
        <ele>158.7548</ele>
        <time>2012-05-06T06:44:21Z</time>
      </trkpt>
      <trkpt lat="43.10106" lon="2.31004">
        <ele>160.6775</ele>
        <time>2012-05-06T06:44:40Z</time>
      </trkpt>
      <trkpt lat="43.10102" lon="2.30871">
        <ele>161.1582</ele>
        <time>2012-05-06T06:45:04Z</time>
      </trkpt>
      <trkpt lat="43.10104" lon="2.30757">
        <ele>163.5615</ele>
        <time>2012-05-06T06:45:27Z</time>
      </trkpt>
      <trkpt lat="43.10089" lon="2.30669">
        <ele>165.4841</ele>
        <time>2012-05-06T06:45:47Z</time>
      </trkpt>
      <trkpt lat="43.10081" lon="2.30645">
        <ele>165.4841</ele>
        <time>2012-05-06T06:45:53Z</time>
      </trkpt>
      <trkpt lat="43.10098" lon="2.30614">
        <ele>168.8488</ele>
        <time>2012-05-06T06:46:03Z</time>
      </trkpt>
      <trkpt lat="43.10107" lon="2.30596">
        <ele>171.2521</ele>
        <time>2012-05-06T06:46:10Z</time>
      </trkpt>
      <trkpt lat="43.10101" lon="2.30586">
        <ele>172.2133</ele>
        <time>2012-05-06T06:46:15Z</time>
      </trkpt>
      <trkpt lat="43.10082" lon="2.30561">
        <ele>173.1747</ele>
        <time>2012-05-06T06:46:30Z</time>
      </trkpt>
      <trkpt lat="43.10043" lon="2.30521">
        <ele>175.0973</ele>
        <time>2012-05-06T06:46:47Z</time>
      </trkpt>
      <trkpt lat="43.09987" lon="2.30475">
        <ele>177.02</ele>
        <time>2012-05-06T06:47:04Z</time>
      </trkpt>
      <trkpt lat="43.09938" lon="2.30446">
        <ele>178.4619</ele>
        <time>2012-05-06T06:47:20Z</time>
      </trkpt>
      <trkpt lat="43.09932" lon="2.30446">
        <ele>177.02</ele>
        <time>2012-05-06T06:47:21Z</time>
      </trkpt>
      <trkpt lat="43.09913" lon="2.30459">
        <ele>173.1747</ele>
        <time>2012-05-06T06:47:24Z</time>
      </trkpt>
      <trkpt lat="43.09909" lon="2.30467">
        <ele>173.1747</ele>
        <time>2012-05-06T06:47:25Z</time>
      </trkpt>
      <trkpt lat="43.099" lon="2.30481">
        <ele>171.2521</ele>
        <time>2012-05-06T06:47:27Z</time>
      </trkpt>
      <trkpt lat="43.09896" lon="2.30486">
        <ele>167.8873</ele>
        <time>2012-05-06T06:47:28Z</time>
      </trkpt>
      <trkpt lat="43.09894" lon="2.30511">
        <ele>165.0034</ele>
        <time>2012-05-06T06:47:31Z</time>
      </trkpt>
      <trkpt lat="43.09896" lon="2.3052">
        <ele>165.0034</ele>
        <time>2012-05-06T06:47:32Z</time>
      </trkpt>
      <trkpt lat="43.09895" lon="2.30535">
        <ele>163.0808</ele>
        <time>2012-05-06T06:47:34Z</time>
      </trkpt>
      <trkpt lat="43.09881" lon="2.30542">
        <ele>162.1195</ele>
        <time>2012-05-06T06:47:37Z</time>
      </trkpt>
      <trkpt lat="43.09787" lon="2.30543">
        <ele>162.1195</ele>
        <time>2012-05-06T06:47:58Z</time>
      </trkpt>
      <trkpt lat="43.09744" lon="2.30536">
        <ele>164.5227</ele>
        <time>2012-05-06T06:48:09Z</time>
      </trkpt>
      <trkpt lat="43.09702" lon="2.30527">
        <ele>168.368</ele>
        <time>2012-05-06T06:48:22Z</time>
      </trkpt>
      <trkpt lat="43.09653" lon="2.30522">
        <ele>170.7714</ele>
        <time>2012-05-06T06:48:41Z</time>
      </trkpt>
      <trkpt lat="43.0964" lon="2.30524">
        <ele>170.7714</ele>
        <time>2012-05-06T06:48:47Z</time>
      </trkpt>
      <trkpt lat="43.0962" lon="2.30532">
        <ele>170.7714</ele>
        <time>2012-05-06T06:48:53Z</time>
      </trkpt>
      <trkpt lat="43.09565" lon="2.30586">
        <ele>167.8873</ele>
        <time>2012-05-06T06:49:05Z</time>
      </trkpt>
      <trkpt lat="43.09547" lon="2.30616">
        <ele>165.9647</ele>
        <time>2012-05-06T06:49:09Z</time>
      </trkpt>
      <trkpt lat="43.09538" lon="2.30632">
        <ele>165.4841</ele>
        <time>2012-05-06T06:49:11Z</time>
      </trkpt>
      <trkpt lat="43.09496" lon="2.30741">
        <ele>164.5227</ele>
        <time>2012-05-06T06:49:25Z</time>
      </trkpt>
      <trkpt lat="43.09489" lon="2.30763">
        <ele>165.0034</ele>
        <time>2012-05-06T06:49:29Z</time>
      </trkpt>
      <trkpt lat="43.09486" lon="2.30775">
        <ele>165.4841</ele>
        <time>2012-05-06T06:49:31Z</time>
      </trkpt>
      <trkpt lat="43.09472" lon="2.30798">
        <ele>165.9647</ele>
        <time>2012-05-06T06:49:36Z</time>
      </trkpt>
      <trkpt lat="43.09464" lon="2.30804">
        <ele>165.9647</ele>
        <time>2012-05-06T06:49:38Z</time>
      </trkpt>
      <trkpt lat="43.09455" lon="2.30824">
        <ele>165.4841</ele>
        <time>2012-05-06T06:49:42Z</time>
      </trkpt>
      <trkpt lat="43.09445" lon="2.30828">
        <ele>165.4841</ele>
        <time>2012-05-06T06:49:46Z</time>
      </trkpt>
      <trkpt lat="43.09415" lon="2.30815">
        <ele>166.926</ele>
        <time>2012-05-06T06:49:55Z</time>
      </trkpt>
      <trkpt lat="43.09392" lon="2.30808">
        <ele>167.8873</ele>
        <time>2012-05-06T06:50:01Z</time>
      </trkpt>
      <trkpt lat="43.09369" lon="2.30774">
        <ele>168.368</ele>
        <time>2012-05-06T06:50:11Z</time>
      </trkpt>
      <trkpt lat="43.09377" lon="2.30767">
        <ele>167.4067</ele>
        <time>2012-05-06T06:50:22Z</time>
      </trkpt>
      <trkpt lat="43.09372" lon="2.30771">
        <ele>167.8873</ele>
        <time>2012-05-06T06:50:39Z</time>
      </trkpt>
      <trkpt lat="43.0937" lon="2.30771">
        <ele>168.8488</ele>
        <time>2012-05-06T06:51:11Z</time>
      </trkpt>
      <trkpt lat="43.09371" lon="2.30772">
        <ele>168.368</ele>
        <time>2012-05-06T06:51:29Z</time>
      </trkpt>
      <trkpt lat="43.09372" lon="2.30769">
        <ele>168.368</ele>
        <time>2012-05-06T06:51:45Z</time>
      </trkpt>
      <trkpt lat="43.09371" lon="2.3077">
        <ele>168.368</ele>
        <time>2012-05-06T06:52:05Z</time>
      </trkpt>
      <trkpt lat="43.09376" lon="2.30766">
        <ele>167.8873</ele>
        <time>2012-05-06T06:52:25Z</time>
      </trkpt>
      <trkpt lat="43.09374" lon="2.30766">
        <ele>168.368</ele>
        <time>2012-05-06T06:52:49Z</time>
      </trkpt>
      <trkpt lat="43.09372" lon="2.30771">
        <ele>168.368</ele>
        <time>2012-05-06T06:53:15Z</time>
      </trkpt>
      <trkpt lat="43.09373" lon="2.30771">
        <ele>168.368</ele>
        <time>2012-05-06T06:53:30Z</time>
      </trkpt>
      <trkpt lat="43.09372" lon="2.30769">
        <ele>168.368</ele>
        <time>2012-05-06T06:53:56Z</time>
      </trkpt>
      <trkpt lat="43.09375" lon="2.30771">
        <ele>168.8488</ele>
        <time>2012-05-06T06:54:15Z</time>
      </trkpt>
      <trkpt lat="43.09374" lon="2.30769">
        <ele>168.368</ele>
        <time>2012-05-06T06:54:31Z</time>
      </trkpt>
      <trkpt lat="43.09373" lon="2.30765">
        <ele>168.8488</ele>
        <time>2012-05-06T06:55:13Z</time>
      </trkpt>
      <trkpt lat="43.09374" lon="2.30765">
        <ele>168.8488</ele>
        <time>2012-05-06T06:55:23Z</time>
      </trkpt>
      <trkpt lat="43.09374" lon="2.30764">
        <ele>168.368</ele>
        <time>2012-05-06T06:55:38Z</time>
      </trkpt>
      <trkpt lat="43.09376" lon="2.30765">
        <ele>168.8488</ele>
        <time>2012-05-06T06:56:26Z</time>
      </trkpt>
      <trkpt lat="43.09375" lon="2.30767">
        <ele>168.8488</ele>
        <time>2012-05-06T06:56:40Z</time>
      </trkpt>
      <trkpt lat="43.09373" lon="2.30766">
        <ele>167.8873</ele>
        <time>2012-05-06T06:57:01Z</time>
      </trkpt>
      <trkpt lat="43.09372" lon="2.30766">
        <ele>167.8873</ele>
        <time>2012-05-06T06:57:59Z</time>
      </trkpt>
      <trkpt lat="43.0937" lon="2.30765">
        <ele>169.8101</ele>
        <time>2012-05-06T07:00:34Z</time>
      </trkpt>
      <trkpt lat="43.0937" lon="2.30763">
        <ele>169.8101</ele>
        <time>2012-05-06T07:01:12Z</time>
      </trkpt>
      <trkpt lat="43.0937" lon="2.30768">
        <ele>170.2906</ele>
        <time>2012-05-06T07:01:33Z</time>
      </trkpt>
      <trkpt lat="43.09373" lon="2.30767">
        <ele>170.2906</ele>
        <time>2012-05-06T07:01:55Z</time>
      </trkpt>
      <trkpt lat="43.09373" lon="2.30767">
        <ele>170.2906</ele>
        <time>2012-05-06T07:02:28Z</time>
      </trkpt>
      <trkpt lat="43.09373" lon="2.3077">
        <ele>170.2906</ele>
        <time>2012-05-06T07:02:39Z</time>
      </trkpt>
      <trkpt lat="43.09373" lon="2.30769">
        <ele>170.2906</ele>
        <time>2012-05-06T07:03:13Z</time>
      </trkpt>
      <trkpt lat="43.09373" lon="2.30766">
        <ele>170.2906</ele>
        <time>2012-05-06T07:03:51Z</time>
      </trkpt>
      <trkpt lat="43.09375" lon="2.30766">
        <ele>170.7714</ele>
        <time>2012-05-06T07:04:15Z</time>
      </trkpt>
      <trkpt lat="43.09375" lon="2.30766">
        <ele>170.2906</ele>
        <time>2012-05-06T07:04:18Z</time>
      </trkpt>
      <trkpt lat="43.0937" lon="2.30767">
        <ele>171.2521</ele>
        <time>2012-05-06T07:04:22Z</time>
      </trkpt>
      <trkpt lat="43.09366" lon="2.30767">
        <ele>171.2521</ele>
        <time>2012-05-06T07:04:25Z</time>
      </trkpt>
      <trkpt lat="43.09354" lon="2.30803">
        <ele>173.1747</ele>
        <time>2012-05-06T07:04:36Z</time>
      </trkpt>
      <trkpt lat="43.09337" lon="2.30879">
        <ele>174.1359</ele>
        <time>2012-05-06T07:04:57Z</time>
      </trkpt>
      <trkpt lat="43.09336" lon="2.30881">
        <ele>174.1359</ele>
        <time>2012-05-06T07:05:05Z</time>
      </trkpt>
      <trkpt lat="43.09336" lon="2.30942">
        <ele>171.7327</ele>
        <time>2012-05-06T07:05:19Z</time>
      </trkpt>
      <trkpt lat="43.0932" lon="2.30979">
        <ele>172.2133</ele>
        <time>2012-05-06T07:05:31Z</time>
      </trkpt>
      <trkpt lat="43.09318" lon="2.31011">
        <ele>171.7327</ele>
        <time>2012-05-06T07:05:36Z</time>
      </trkpt>
      <trkpt lat="43.09314" lon="2.31025">
        <ele>171.2521</ele>
        <time>2012-05-06T07:05:38Z</time>
      </trkpt>
      <trkpt lat="43.09302" lon="2.3105">
        <ele>171.2521</ele>
        <time>2012-05-06T07:05:42Z</time>
      </trkpt>
      <trkpt lat="43.09283" lon="2.31082">
        <ele>171.2521</ele>
        <time>2012-05-06T07:05:49Z</time>
      </trkpt>
      <trkpt lat="43.09269" lon="2.3111">
        <ele>171.7327</ele>
        <time>2012-05-06T07:05:56Z</time>
      </trkpt>
      <trkpt lat="43.09258" lon="2.3113">
        <ele>171.7327</ele>
        <time>2012-05-06T07:06:01Z</time>
      </trkpt>
      <trkpt lat="43.0923" lon="2.31145">
        <ele>172.2133</ele>
        <time>2012-05-06T07:06:06Z</time>
      </trkpt>
      <trkpt lat="43.09181" lon="2.31167">
        <ele>172.694</ele>
        <time>2012-05-06T07:06:18Z</time>
      </trkpt>
      <trkpt lat="43.09174" lon="2.31174">
        <ele>172.694</ele>
        <time>2012-05-06T07:06:21Z</time>
      </trkpt>
      <trkpt lat="43.09129" lon="2.31188">
        <ele>173.1747</ele>
        <time>2012-05-06T07:06:30Z</time>
      </trkpt>
      <trkpt lat="43.09108" lon="2.31201">
        <ele>173.6553</ele>
        <time>2012-05-06T07:06:35Z</time>
      </trkpt>
      <trkpt lat="43.08992" lon="2.31267">
        <ele>173.6553</ele>
        <time>2012-05-06T07:07:00Z</time>
      </trkpt>
      <trkpt lat="43.08879" lon="2.31313">
        <ele>174.6166</ele>
        <time>2012-05-06T07:07:25Z</time>
      </trkpt>
      <trkpt lat="43.08864" lon="2.31324">
        <ele>175.0973</ele>
        <time>2012-05-06T07:07:29Z</time>
      </trkpt>
      <trkpt lat="43.08828" lon="2.31361">
        <ele>174.1359</ele>
        <time>2012-05-06T07:07:38Z</time>
      </trkpt>
      <trkpt lat="43.08806" lon="2.31393">
        <ele>173.1747</ele>
        <time>2012-05-06T07:07:44Z</time>
      </trkpt>
      <trkpt lat="43.08796" lon="2.31416">
        <ele>172.694</ele>
        <time>2012-05-06T07:07:48Z</time>
      </trkpt>
      <trkpt lat="43.08793" lon="2.31429">
        <ele>172.2133</ele>
        <time>2012-05-06T07:07:50Z</time>
      </trkpt>
      <trkpt lat="43.08779" lon="2.3147">
        <ele>173.1747</ele>
        <time>2012-05-06T07:07:57Z</time>
      </trkpt>
      <trkpt lat="43.08717" lon="2.31599">
        <ele>175.0973</ele>
        <time>2012-05-06T07:08:21Z</time>
      </trkpt>
      <trkpt lat="43.08656" lon="2.31706">
        <ele>177.02</ele>
        <time>2012-05-06T07:08:45Z</time>
      </trkpt>
      <trkpt lat="43.0864" lon="2.31782">
        <ele>179.4232</ele>
        <time>2012-05-06T07:09:03Z</time>
      </trkpt>
      <trkpt lat="43.08628" lon="2.31838">
        <ele>182.3071</ele>
        <time>2012-05-06T07:09:17Z</time>
      </trkpt>
      <trkpt lat="43.0861" lon="2.31879">
        <ele>185.6718</ele>
        <time>2012-05-06T07:09:38Z</time>
      </trkpt>
      <trkpt lat="43.08602" lon="2.3189">
        <ele>187.1138</ele>
        <time>2012-05-06T07:09:48Z</time>
      </trkpt>
      <trkpt lat="43.08601" lon="2.31895">
        <ele>187.1138</ele>
        <time>2012-05-06T07:09:52Z</time>
      </trkpt>
      <trkpt lat="43.08595" lon="2.31924">
        <ele>190.4784</ele>
        <time>2012-05-06T07:10:08Z</time>
      </trkpt>
      <trkpt lat="43.0859" lon="2.31951">
        <ele>193.3623</ele>
        <time>2012-05-06T07:10:24Z</time>
      </trkpt>
      <trkpt lat="43.08585" lon="2.31975">
        <ele>195.7656</ele>
        <time>2012-05-06T07:10:39Z</time>
      </trkpt>
      <trkpt lat="43.08579" lon="2.32008">
        <ele>199.1301</ele>
        <time>2012-05-06T07:10:56Z</time>
      </trkpt>
      <trkpt lat="43.08574" lon="2.32037">
        <ele>202.0143</ele>
        <time>2012-05-06T07:11:12Z</time>
      </trkpt>
      <trkpt lat="43.08568" lon="2.32068">
        <ele>205.3788</ele>
        <time>2012-05-06T07:11:28Z</time>
      </trkpt>
      <trkpt lat="43.08561" lon="2.32093">
        <ele>208.7434</ele>
        <time>2012-05-06T07:11:42Z</time>
      </trkpt>
      <trkpt lat="43.0856" lon="2.32097">
        <ele>209.2241</ele>
        <time>2012-05-06T07:11:44Z</time>
      </trkpt>
      <trkpt lat="43.08549" lon="2.32132">
        <ele>212.5886</ele>
        <time>2012-05-06T07:12:03Z</time>
      </trkpt>
      <trkpt lat="43.08533" lon="2.32167">
        <ele>215.4727</ele>
        <time>2012-05-06T07:12:22Z</time>
      </trkpt>
      <trkpt lat="43.08508" lon="2.322">
        <ele>218.8373</ele>
        <time>2012-05-06T07:12:45Z</time>
      </trkpt>
      <trkpt lat="43.0847" lon="2.32234">
        <ele>219.318</ele>
        <time>2012-05-06T07:13:07Z</time>
      </trkpt>
      <trkpt lat="43.08426" lon="2.323">
        <ele>221.2406</ele>
        <time>2012-05-06T07:13:34Z</time>
      </trkpt>
      <trkpt lat="43.08379" lon="2.32386">
        <ele>223.1632</ele>
        <time>2012-05-06T07:14:05Z</time>
      </trkpt>
      <trkpt lat="43.08365" lon="2.32414">
        <ele>223.1632</ele>
        <time>2012-05-06T07:14:14Z</time>
      </trkpt>
      <trkpt lat="43.08358" lon="2.32443">
        <ele>222.2018</ele>
        <time>2012-05-06T07:14:19Z</time>
      </trkpt>
      <trkpt lat="43.08358" lon="2.32557">
        <ele>220.2792</ele>
        <time>2012-05-06T07:14:35Z</time>
      </trkpt>
      <trkpt lat="43.08353" lon="2.3266">
        <ele>221.2406</ele>
        <time>2012-05-06T07:14:55Z</time>
      </trkpt>
      <trkpt lat="43.0833" lon="2.32779">
        <ele>219.7986</ele>
        <time>2012-05-06T07:15:16Z</time>
      </trkpt>
      <trkpt lat="43.08328" lon="2.32788">
        <ele>219.7986</ele>
        <time>2012-05-06T07:15:17Z</time>
      </trkpt>
      <trkpt lat="43.08301" lon="2.32839">
        <ele>218.3566</ele>
        <time>2012-05-06T07:15:25Z</time>
      </trkpt>
      <trkpt lat="43.08222" lon="2.32911">
        <ele>218.3566</ele>
        <time>2012-05-06T07:15:45Z</time>
      </trkpt>
      <trkpt lat="43.08219" lon="2.32914">
        <ele>217.876</ele>
        <time>2012-05-06T07:15:46Z</time>
      </trkpt>
      <trkpt lat="43.08169" lon="2.32987">
        <ele>220.2792</ele>
        <time>2012-05-06T07:16:07Z</time>
      </trkpt>
      <trkpt lat="43.08167" lon="2.33018">
        <ele>223.6438</ele>
        <time>2012-05-06T07:16:18Z</time>
      </trkpt>
      <trkpt lat="43.08151" lon="2.33073">
        <ele>226.5278</ele>
        <time>2012-05-06T07:16:36Z</time>
      </trkpt>
      <trkpt lat="43.08118" lon="2.33105">
        <ele>229.8923</ele>
        <time>2012-05-06T07:16:55Z</time>
      </trkpt>
      <trkpt lat="43.08081" lon="2.3312">
        <ele>232.2958</ele>
        <time>2012-05-06T07:17:14Z</time>
      </trkpt>
      <trkpt lat="43.08049" lon="2.33129">
        <ele>233.7377</ele>
        <time>2012-05-06T07:17:30Z</time>
      </trkpt>
      <trkpt lat="43.08023" lon="2.33145">
        <ele>235.6603</ele>
        <time>2012-05-06T07:17:43Z</time>
      </trkpt>
      <trkpt lat="43.0802" lon="2.33148">
        <ele>235.6603</ele>
        <time>2012-05-06T07:17:45Z</time>
      </trkpt>
      <trkpt lat="43.07997" lon="2.33184">
        <ele>237.5829</ele>
        <time>2012-05-06T07:18:01Z</time>
      </trkpt>
      <trkpt lat="43.07992" lon="2.33195">
        <ele>237.5829</ele>
        <time>2012-05-06T07:18:05Z</time>
      </trkpt>
      <trkpt lat="43.07968" lon="2.33222">
        <ele>240.467</ele>
        <time>2012-05-06T07:18:20Z</time>
      </trkpt>
      <trkpt lat="43.07939" lon="2.33251">
        <ele>244.3123</ele>
        <time>2012-05-06T07:18:39Z</time>
      </trkpt>
      <trkpt lat="43.07906" lon="2.33276">
        <ele>247.6768</ele>
        <time>2012-05-06T07:18:58Z</time>
      </trkpt>
      <trkpt lat="43.07905" lon="2.33277">
        <ele>247.6768</ele>
        <time>2012-05-06T07:18:59Z</time>
      </trkpt>
      <trkpt lat="43.07888" lon="2.33292">
        <ele>250.0802</ele>
        <time>2012-05-06T07:19:10Z</time>
      </trkpt>
      <trkpt lat="43.07878" lon="2.33298">
        <ele>251.0414</ele>
        <time>2012-05-06T07:19:16Z</time>
      </trkpt>
      <trkpt lat="43.0785" lon="2.333">
        <ele>252.964</ele>
        <time>2012-05-06T07:19:28Z</time>
      </trkpt>
      <trkpt lat="43.07846" lon="2.33299">
        <ele>252.964</ele>
        <time>2012-05-06T07:19:31Z</time>
      </trkpt>
      <trkpt lat="43.07827" lon="2.33303">
        <ele>255.848</ele>
        <time>2012-05-06T07:19:44Z</time>
      </trkpt>
      <trkpt lat="43.07802" lon="2.33299">
        <ele>258.2513</ele>
        <time>2012-05-06T07:19:54Z</time>
      </trkpt>
      <trkpt lat="43.07797" lon="2.33295">
        <ele>259.2126</ele>
        <time>2012-05-06T07:19:57Z</time>
      </trkpt>
      <trkpt lat="43.07787" lon="2.33292">
        <ele>259.6934</ele>
        <time>2012-05-06T07:20:01Z</time>
      </trkpt>
      <trkpt lat="43.07782" lon="2.33292">
        <ele>261.1353</ele>
        <time>2012-05-06T07:20:04Z</time>
      </trkpt>
      <trkpt lat="43.07753" lon="2.33298">
        <ele>264.0193</ele>
        <time>2012-05-06T07:20:19Z</time>
      </trkpt>
      <trkpt lat="43.07724" lon="2.33298">
        <ele>267.3839</ele>
        <time>2012-05-06T07:20:35Z</time>
      </trkpt>
      <trkpt lat="43.07698" lon="2.33304">
        <ele>270.7484</ele>
        <time>2012-05-06T07:20:51Z</time>
      </trkpt>
      <trkpt lat="43.07677" lon="2.3333">
        <ele>273.6324</ele>
        <time>2012-05-06T07:21:08Z</time>
      </trkpt>
      <trkpt lat="43.0765" lon="2.33351">
        <ele>276.9971</ele>
        <time>2012-05-06T07:21:26Z</time>
      </trkpt>
      <trkpt lat="43.07615" lon="2.33351">
        <ele>279.8809</ele>
        <time>2012-05-06T07:21:44Z</time>
      </trkpt>
      <trkpt lat="43.07584" lon="2.33352">
        <ele>283.2456</ele>
        <time>2012-05-06T07:22:01Z</time>
      </trkpt>
      <trkpt lat="43.07557" lon="2.33365">
        <ele>286.1295</ele>
        <time>2012-05-06T07:22:18Z</time>
      </trkpt>
      <trkpt lat="43.07529" lon="2.33373">
        <ele>288.533</ele>
        <time>2012-05-06T07:22:34Z</time>
      </trkpt>
      <trkpt lat="43.07501" lon="2.33382">
        <ele>291.4167</ele>
        <time>2012-05-06T07:22:49Z</time>
      </trkpt>
      <trkpt lat="43.07476" lon="2.33381">
        <ele>294.3008</ele>
        <time>2012-05-06T07:23:03Z</time>
      </trkpt>
      <trkpt lat="43.07452" lon="2.33378">
        <ele>296.2235</ele>
        <time>2012-05-06T07:23:14Z</time>
      </trkpt>
      <trkpt lat="43.07423" lon="2.33379">
        <ele>298.1461</ele>
        <time>2012-05-06T07:23:29Z</time>
      </trkpt>
      <trkpt lat="43.07389" lon="2.33379">
        <ele>301.5106</ele>
        <time>2012-05-06T07:23:47Z</time>
      </trkpt>
      <trkpt lat="43.07368" lon="2.33396">
        <ele>302.4719</ele>
        <time>2012-05-06T07:24:00Z</time>
      </trkpt>
      <trkpt lat="43.07367" lon="2.33399">
        <ele>302.4719</ele>
        <time>2012-05-06T07:24:02Z</time>
      </trkpt>
      <trkpt lat="43.07364" lon="2.33405">
        <ele>302.9525</ele>
        <time>2012-05-06T07:24:05Z</time>
      </trkpt>
      <trkpt lat="43.07344" lon="2.3345">
        <ele>305.8367</ele>
        <time>2012-05-06T07:24:23Z</time>
      </trkpt>
      <trkpt lat="43.0732" lon="2.33478">
        <ele>308.7205</ele>
        <time>2012-05-06T07:24:41Z</time>
      </trkpt>
      <trkpt lat="43.07295" lon="2.33499">
        <ele>312.0852</ele>
        <time>2012-05-06T07:24:57Z</time>
      </trkpt>
      <trkpt lat="43.07274" lon="2.33518">
        <ele>314.9691</ele>
        <time>2012-05-06T07:25:11Z</time>
      </trkpt>
      <trkpt lat="43.07231" lon="2.33536">
        <ele>317.853</ele>
        <time>2012-05-06T07:25:35Z</time>
      </trkpt>
      <trkpt lat="43.07183" lon="2.33569">
        <ele>320.7371</ele>
        <time>2012-05-06T07:26:01Z</time>
      </trkpt>
      <trkpt lat="43.07175" lon="2.33582">
        <ele>321.2178</ele>
        <time>2012-05-06T07:26:07Z</time>
      </trkpt>
      <trkpt lat="43.07147" lon="2.33622">
        <ele>321.6984</ele>
        <time>2012-05-06T07:26:25Z</time>
      </trkpt>
      <trkpt lat="43.07126" lon="2.33661">
        <ele>324.1016</ele>
        <time>2012-05-06T07:26:42Z</time>
      </trkpt>
      <trkpt lat="43.07116" lon="2.33673">
        <ele>324.5823</ele>
        <time>2012-05-06T07:26:48Z</time>
      </trkpt>
      <trkpt lat="43.07108" lon="2.33684">
        <ele>324.5823</ele>
        <time>2012-05-06T07:26:54Z</time>
      </trkpt>
      <trkpt lat="43.07067" lon="2.33706">
        <ele>326.0242</ele>
        <time>2012-05-06T07:27:13Z</time>
      </trkpt>
      <trkpt lat="43.07035" lon="2.33719">
        <ele>328.4276</ele>
        <time>2012-05-06T07:27:28Z</time>
      </trkpt>
      <trkpt lat="43.07009" lon="2.33738">
        <ele>331.7921</ele>
        <time>2012-05-06T07:27:43Z</time>
      </trkpt>
      <trkpt lat="43.06982" lon="2.33735">
        <ele>335.1567</ele>
        <time>2012-05-06T07:27:57Z</time>
      </trkpt>
      <trkpt lat="43.06974" lon="2.33737">
        <ele>335.6373</ele>
        <time>2012-05-06T07:28:03Z</time>
      </trkpt>
      <trkpt lat="43.06957" lon="2.33735">
        <ele>337.5601</ele>
        <time>2012-05-06T07:28:14Z</time>
      </trkpt>
      <trkpt lat="43.0694" lon="2.33737">
        <ele>339.0021</ele>
        <time>2012-05-06T07:28:24Z</time>
      </trkpt>
      <trkpt lat="43.06937" lon="2.33743">
        <ele>339.9634</ele>
        <time>2012-05-06T07:28:29Z</time>
      </trkpt>
      <trkpt lat="43.06923" lon="2.33747">
        <ele>341.4053</ele>
        <time>2012-05-06T07:28:36Z</time>
      </trkpt>
      <trkpt lat="43.06894" lon="2.33769">
        <ele>345.2506</ele>
        <time>2012-05-06T07:28:53Z</time>
      </trkpt>
      <trkpt lat="43.06861" lon="2.33788">
        <ele>348.1346</ele>
        <time>2012-05-06T07:29:13Z</time>
      </trkpt>
      <trkpt lat="43.06837" lon="2.33804">
        <ele>351.4991</ele>
        <time>2012-05-06T07:29:28Z</time>
      </trkpt>
      <trkpt lat="43.06807" lon="2.33822">
        <ele>354.3832</ele>
        <time>2012-05-06T07:29:46Z</time>
      </trkpt>
      <trkpt lat="43.06774" lon="2.33818">
        <ele>357.7478</ele>
        <time>2012-05-06T07:30:04Z</time>
      </trkpt>
      <trkpt lat="43.0675" lon="2.3381">
        <ele>360.1511</ele>
        <time>2012-05-06T07:30:18Z</time>
      </trkpt>
      <trkpt lat="43.06748" lon="2.33811">
        <ele>360.1511</ele>
        <time>2012-05-06T07:30:20Z</time>
      </trkpt>
      <trkpt lat="43.06724" lon="2.33808">
        <ele>362.0737</ele>
        <time>2012-05-06T07:30:32Z</time>
      </trkpt>
      <trkpt lat="43.06709" lon="2.33812">
        <ele>364.4769</ele>
        <time>2012-05-06T07:30:41Z</time>
      </trkpt>
      <trkpt lat="43.0668" lon="2.33825">
        <ele>367.8416</ele>
        <time>2012-05-06T07:30:58Z</time>
      </trkpt>
      <trkpt lat="43.06675" lon="2.33828">
        <ele>367.8416</ele>
        <time>2012-05-06T07:31:01Z</time>
      </trkpt>
      <trkpt lat="43.0665" lon="2.33843">
        <ele>371.2063</ele>
        <time>2012-05-06T07:31:17Z</time>
      </trkpt>
      <trkpt lat="43.06648" lon="2.33844">
        <ele>371.2063</ele>
        <time>2012-05-06T07:31:18Z</time>
      </trkpt>
      <trkpt lat="43.06618" lon="2.33863">
        <ele>374.0901</ele>
        <time>2012-05-06T07:31:37Z</time>
      </trkpt>
      <trkpt lat="43.06595" lon="2.33876">
        <ele>377.4548</ele>
        <time>2012-05-06T07:31:53Z</time>
      </trkpt>
      <trkpt lat="43.06574" lon="2.33902">
        <ele>379.858</ele>
        <time>2012-05-06T07:32:09Z</time>
      </trkpt>
      <trkpt lat="43.0657" lon="2.33908">
        <ele>380.3387</ele>
        <time>2012-05-06T07:32:12Z</time>
      </trkpt>
      <trkpt lat="43.06557" lon="2.33925">
        <ele>382.2614</ele>
        <time>2012-05-06T07:32:22Z</time>
      </trkpt>
      <trkpt lat="43.06552" lon="2.33935">
        <ele>383.7032</ele>
        <time>2012-05-06T07:32:28Z</time>
      </trkpt>
      <trkpt lat="43.06548" lon="2.33938">
        <ele>383.7032</ele>
        <time>2012-05-06T07:32:30Z</time>
      </trkpt>
      <trkpt lat="43.06509" lon="2.33954">
        <ele>387.068</ele>
        <time>2012-05-06T07:32:50Z</time>
      </trkpt>
      <trkpt lat="43.06499" lon="2.33957">
        <ele>388.0293</ele>
        <time>2012-05-06T07:32:55Z</time>
      </trkpt>
      <trkpt lat="43.06474" lon="2.33976">
        <ele>391.3938</ele>
        <time>2012-05-06T07:33:10Z</time>
      </trkpt>
      <trkpt lat="43.06449" lon="2.33995">
        <ele>393.7972</ele>
        <time>2012-05-06T07:33:26Z</time>
      </trkpt>
      <trkpt lat="43.06436" lon="2.34006">
        <ele>394.278</ele>
        <time>2012-05-06T07:33:32Z</time>
      </trkpt>
      <trkpt lat="43.0641" lon="2.34038">
        <ele>397.1617</ele>
        <time>2012-05-06T07:33:48Z</time>
      </trkpt>
      <trkpt lat="43.06382" lon="2.34067">
        <ele>399.0844</ele>
        <time>2012-05-06T07:34:03Z</time>
      </trkpt>
      <trkpt lat="43.06354" lon="2.34102">
        <ele>402.4491</ele>
        <time>2012-05-06T07:34:21Z</time>
      </trkpt>
      <trkpt lat="43.06352" lon="2.34104">
        <ele>403.4104</ele>
        <time>2012-05-06T07:34:22Z</time>
      </trkpt>
      <trkpt lat="43.06349" lon="2.34108">
        <ele>402.9297</ele>
        <time>2012-05-06T07:34:24Z</time>
      </trkpt>
      <trkpt lat="43.06321" lon="2.34134">
        <ele>406.2943</ele>
        <time>2012-05-06T07:34:40Z</time>
      </trkpt>
      <trkpt lat="43.06294" lon="2.34148">
        <ele>409.1783</ele>
        <time>2012-05-06T07:34:55Z</time>
      </trkpt>
      <trkpt lat="43.0628" lon="2.34181">
        <ele>411.101</ele>
        <time>2012-05-06T07:35:10Z</time>
      </trkpt>
      <trkpt lat="43.06278" lon="2.34183">
        <ele>411.5817</ele>
        <time>2012-05-06T07:35:12Z</time>
      </trkpt>
      <trkpt lat="43.0625" lon="2.34208">
        <ele>413.5043</ele>
        <time>2012-05-06T07:35:29Z</time>
      </trkpt>
      <trkpt lat="43.06214" lon="2.34242">
        <ele>414.9462</ele>
        <time>2012-05-06T07:35:48Z</time>
      </trkpt>
      <trkpt lat="43.06188" lon="2.34283">
        <ele>414.9462</ele>
        <time>2012-05-06T07:36:03Z</time>
      </trkpt>
      <trkpt lat="43.0618" lon="2.3429">
        <ele>414.4655</ele>
        <time>2012-05-06T07:36:06Z</time>
      </trkpt>
      <trkpt lat="43.0617" lon="2.34314">
        <ele>413.5043</ele>
        <time>2012-05-06T07:36:12Z</time>
      </trkpt>
      <trkpt lat="43.0616" lon="2.34341">
        <ele>413.0236</ele>
        <time>2012-05-06T07:36:18Z</time>
      </trkpt>
      <trkpt lat="43.06157" lon="2.34358">
        <ele>413.0236</ele>
        <time>2012-05-06T07:36:21Z</time>
      </trkpt>
      <trkpt lat="43.06154" lon="2.34382">
        <ele>413.0236</ele>
        <time>2012-05-06T07:36:26Z</time>
      </trkpt>
      <trkpt lat="43.06121" lon="2.3443">
        <ele>413.9849</ele>
        <time>2012-05-06T07:36:39Z</time>
      </trkpt>
      <trkpt lat="43.06115" lon="2.34443">
        <ele>414.4655</ele>
        <time>2012-05-06T07:36:43Z</time>
      </trkpt>
      <trkpt lat="43.06096" lon="2.34485">
        <ele>415.4269</ele>
        <time>2012-05-06T07:36:56Z</time>
      </trkpt>
      <trkpt lat="43.06087" lon="2.34497">
        <ele>414.9462</ele>
        <time>2012-05-06T07:37:00Z</time>
      </trkpt>
      <trkpt lat="43.06082" lon="2.34509">
        <ele>415.9075</ele>
        <time>2012-05-06T07:37:04Z</time>
      </trkpt>
      <trkpt lat="43.06077" lon="2.34513">
        <ele>415.4269</ele>
        <time>2012-05-06T07:37:06Z</time>
      </trkpt>
      <trkpt lat="43.06067" lon="2.34527">
        <ele>416.3882</ele>
        <time>2012-05-06T07:37:11Z</time>
      </trkpt>
      <trkpt lat="43.06057" lon="2.34541">
        <ele>416.8689</ele>
        <time>2012-05-06T07:37:16Z</time>
      </trkpt>
      <trkpt lat="43.06032" lon="2.34563">
        <ele>417.8302</ele>
        <time>2012-05-06T07:37:26Z</time>
      </trkpt>
      <trkpt lat="43.06025" lon="2.34572">
        <ele>417.8302</ele>
        <time>2012-05-06T07:37:31Z</time>
      </trkpt>
      <trkpt lat="43.0601" lon="2.34589">
        <ele>418.3108</ele>
        <time>2012-05-06T07:37:37Z</time>
      </trkpt>
      <trkpt lat="43.05978" lon="2.34623">
        <ele>419.7528</ele>
        <time>2012-05-06T07:37:51Z</time>
      </trkpt>
      <trkpt lat="43.05945" lon="2.34648">
        <ele>421.6754</ele>
        <time>2012-05-06T07:38:04Z</time>
      </trkpt>
      <trkpt lat="43.0594" lon="2.3466">
        <ele>421.6754</ele>
        <time>2012-05-06T07:38:08Z</time>
      </trkpt>
      <trkpt lat="43.05931" lon="2.34677">
        <ele>422.156</ele>
        <time>2012-05-06T07:38:15Z</time>
      </trkpt>
      <trkpt lat="43.05921" lon="2.34687">
        <ele>422.6367</ele>
        <time>2012-05-06T07:38:21Z</time>
      </trkpt>
      <trkpt lat="43.05901" lon="2.34704">
        <ele>423.1174</ele>
        <time>2012-05-06T07:38:29Z</time>
      </trkpt>
      <trkpt lat="43.05881" lon="2.34738">
        <ele>425.5208</ele>
        <time>2012-05-06T07:38:42Z</time>
      </trkpt>
      <trkpt lat="43.05878" lon="2.34742">
        <ele>426.0013</ele>
        <time>2012-05-06T07:38:44Z</time>
      </trkpt>
      <trkpt lat="43.05877" lon="2.34753">
        <ele>426.4821</ele>
        <time>2012-05-06T07:38:48Z</time>
      </trkpt>
      <trkpt lat="43.05875" lon="2.34776">
        <ele>426.4821</ele>
        <time>2012-05-06T07:38:54Z</time>
      </trkpt>
      <trkpt lat="43.05878" lon="2.34791">
        <ele>426.0013</ele>
        <time>2012-05-06T07:38:57Z</time>
      </trkpt>
      <trkpt lat="43.05878" lon="2.34803">
        <ele>426.0013</ele>
        <time>2012-05-06T07:39:00Z</time>
      </trkpt>
      <trkpt lat="43.05876" lon="2.34808">
        <ele>425.5208</ele>
        <time>2012-05-06T07:39:02Z</time>
      </trkpt>
      <trkpt lat="43.0587" lon="2.34846">
        <ele>426.4821</ele>
        <time>2012-05-06T07:39:14Z</time>
      </trkpt>
      <trkpt lat="43.05866" lon="2.34869">
        <ele>426.9628</ele>
        <time>2012-05-06T07:39:22Z</time>
      </trkpt>
      <trkpt lat="43.05861" lon="2.34892">
        <ele>427.924</ele>
        <time>2012-05-06T07:39:29Z</time>
      </trkpt>
      <trkpt lat="43.05861" lon="2.34899">
        <ele>427.4434</ele>
        <time>2012-05-06T07:39:31Z</time>
      </trkpt>
      <trkpt lat="43.05858" lon="2.34909">
        <ele>428.4047</ele>
        <time>2012-05-06T07:39:34Z</time>
      </trkpt>
      <trkpt lat="43.05858" lon="2.34923">
        <ele>428.4047</ele>
        <time>2012-05-06T07:39:38Z</time>
      </trkpt>
      <trkpt lat="43.05843" lon="2.3498">
        <ele>427.4434</ele>
        <time>2012-05-06T07:39:51Z</time>
      </trkpt>
      <trkpt lat="43.05843" lon="2.34985">
        <ele>427.4434</ele>
        <time>2012-05-06T07:39:52Z</time>
      </trkpt>
      <trkpt lat="43.05837" lon="2.35021">
        <ele>427.4434</ele>
        <time>2012-05-06T07:40:00Z</time>
      </trkpt>
      <trkpt lat="43.05848" lon="2.35048">
        <ele>427.924</ele>
        <time>2012-05-06T07:40:06Z</time>
      </trkpt>
      <trkpt lat="43.05859" lon="2.35072">
        <ele>430.3273</ele>
        <time>2012-05-06T07:40:18Z</time>
      </trkpt>
      <trkpt lat="43.05859" lon="2.35075">
        <ele>430.3273</ele>
        <time>2012-05-06T07:40:19Z</time>
      </trkpt>
      <trkpt lat="43.0587" lon="2.35106">
        <ele>432.7307</ele>
        <time>2012-05-06T07:40:28Z</time>
      </trkpt>
      <trkpt lat="43.05884" lon="2.35143">
        <ele>433.6919</ele>
        <time>2012-05-06T07:40:43Z</time>
      </trkpt>
      <trkpt lat="43.05888" lon="2.35143">
        <ele>433.2113</ele>
        <time>2012-05-06T07:40:49Z</time>
      </trkpt>
      <trkpt lat="43.05882" lon="2.35138">
        <ele>434.6533</ele>
        <time>2012-05-06T07:40:57Z</time>
      </trkpt>
      <trkpt lat="43.05895" lon="2.3511">
        <ele>438.0178</ele>
        <time>2012-05-06T07:41:14Z</time>
      </trkpt>
      <trkpt lat="43.05896" lon="2.35103">
        <ele>438.4985</ele>
        <time>2012-05-06T07:41:18Z</time>
      </trkpt>
      <trkpt lat="43.05899" lon="2.35094">
        <ele>438.9791</ele>
        <time>2012-05-06T07:41:21Z</time>
      </trkpt>
      <trkpt lat="43.05907" lon="2.35084">
        <ele>440.4213</ele>
        <time>2012-05-06T07:41:26Z</time>
      </trkpt>
      <trkpt lat="43.05911" lon="2.35093">
        <ele>440.4213</ele>
        <time>2012-05-06T07:41:31Z</time>
      </trkpt>
      <trkpt lat="43.05909" lon="2.35119">
        <ele>440.4213</ele>
        <time>2012-05-06T07:41:42Z</time>
      </trkpt>
      <trkpt lat="43.05895" lon="2.35173">
        <ele>442.8245</ele>
        <time>2012-05-06T07:42:06Z</time>
      </trkpt>
      <trkpt lat="43.05874" lon="2.35214">
        <ele>445.7084</ele>
        <time>2012-05-06T07:42:26Z</time>
      </trkpt>
      <trkpt lat="43.05848" lon="2.35253">
        <ele>449.073</ele>
        <time>2012-05-06T07:42:47Z</time>
      </trkpt>
      <trkpt lat="43.05833" lon="2.3527">
        <ele>451.4763</ele>
        <time>2012-05-06T07:42:58Z</time>
      </trkpt>
      <trkpt lat="43.05812" lon="2.35301">
        <ele>454.3602</ele>
        <time>2012-05-06T07:43:17Z</time>
      </trkpt>
      <trkpt lat="43.05791" lon="2.35326">
        <ele>457.725</ele>
        <time>2012-05-06T07:43:33Z</time>
      </trkpt>
      <trkpt lat="43.05785" lon="2.35337">
        <ele>459.6476</ele>
        <time>2012-05-06T07:43:40Z</time>
      </trkpt>
      <trkpt lat="43.05786" lon="2.35343">
        <ele>460.6088</ele>
        <time>2012-05-06T07:43:44Z</time>
      </trkpt>
      <trkpt lat="43.0581" lon="2.35343">
        <ele>463.4928</ele>
        <time>2012-05-06T07:44:01Z</time>
      </trkpt>
      <trkpt lat="43.05838" lon="2.35346">
        <ele>466.3767</ele>
        <time>2012-05-06T07:44:18Z</time>
      </trkpt>
      <trkpt lat="43.05841" lon="2.35346">
        <ele>466.8574</ele>
        <time>2012-05-06T07:44:20Z</time>
      </trkpt>
      <trkpt lat="43.05842" lon="2.35348">
        <ele>467.8187</ele>
        <time>2012-05-06T07:44:22Z</time>
      </trkpt>
      <trkpt lat="43.05839" lon="2.35351">
        <ele>468.78</ele>
        <time>2012-05-06T07:44:26Z</time>
      </trkpt>
      <trkpt lat="43.05807" lon="2.35367">
        <ele>471.1833</ele>
        <time>2012-05-06T07:44:45Z</time>
      </trkpt>
      <trkpt lat="43.05779" lon="2.35408">
        <ele>474.548</ele>
        <time>2012-05-06T07:45:06Z</time>
      </trkpt>
      <trkpt lat="43.05743" lon="2.35451">
        <ele>477.4319</ele>
        <time>2012-05-06T07:45:30Z</time>
      </trkpt>
      <trkpt lat="43.05713" lon="2.35472">
        <ele>478.8739</ele>
        <time>2012-05-06T07:45:49Z</time>
      </trkpt>
      <trkpt lat="43.05687" lon="2.35416">
        <ele>482.2385</ele>
        <time>2012-05-06T07:46:12Z</time>
      </trkpt>
      <trkpt lat="43.0568" lon="2.35365">
        <ele>485.603</ele>
        <time>2012-05-06T07:46:31Z</time>
      </trkpt>
      <trkpt lat="43.05664" lon="2.35304">
        <ele>488.4872</ele>
        <time>2012-05-06T07:46:54Z</time>
      </trkpt>
      <trkpt lat="43.05644" lon="2.35273">
        <ele>491.371</ele>
        <time>2012-05-06T07:47:10Z</time>
      </trkpt>
      <trkpt lat="43.05633" lon="2.35241">
        <ele>494.7356</ele>
        <time>2012-05-06T07:47:24Z</time>
      </trkpt>
      <trkpt lat="43.0563" lon="2.35229">
        <ele>495.6969</ele>
        <time>2012-05-06T07:47:29Z</time>
      </trkpt>
      <trkpt lat="43.05625" lon="2.35231">
        <ele>496.6583</ele>
        <time>2012-05-06T07:47:34Z</time>
      </trkpt>
      <trkpt lat="43.05635" lon="2.35284">
        <ele>497.6196</ele>
        <time>2012-05-06T07:47:50Z</time>
      </trkpt>
      <trkpt lat="43.05651" lon="2.35329">
        <ele>500.0229</ele>
        <time>2012-05-06T07:48:06Z</time>
      </trkpt>
      <trkpt lat="43.05647" lon="2.3537">
        <ele>502.4261</ele>
        <time>2012-05-06T07:48:19Z</time>
      </trkpt>
      <trkpt lat="43.05633" lon="2.35399">
        <ele>505.7909</ele>
        <time>2012-05-06T07:48:32Z</time>
      </trkpt>
      <trkpt lat="43.05614" lon="2.35452">
        <ele>509.1554</ele>
        <time>2012-05-06T07:48:52Z</time>
      </trkpt>
      <trkpt lat="43.05598" lon="2.35503">
        <ele>512.0394</ele>
        <time>2012-05-06T07:49:09Z</time>
      </trkpt>
      <trkpt lat="43.05583" lon="2.35566">
        <ele>515.4041</ele>
        <time>2012-05-06T07:49:29Z</time>
      </trkpt>
      <trkpt lat="43.05576" lon="2.35618">
        <ele>518.7686</ele>
        <time>2012-05-06T07:49:46Z</time>
      </trkpt>
      <trkpt lat="43.05567" lon="2.35664">
        <ele>521.6526</ele>
        <time>2012-05-06T07:50:02Z</time>
      </trkpt>
      <trkpt lat="43.05575" lon="2.35675">
        <ele>523.0946</ele>
        <time>2012-05-06T07:50:11Z</time>
      </trkpt>
      <trkpt lat="43.056" lon="2.35714">
        <ele>525.4978</ele>
        <time>2012-05-06T07:50:28Z</time>
      </trkpt>
      <trkpt lat="43.05635" lon="2.35735">
        <ele>528.3818</ele>
        <time>2012-05-06T07:50:43Z</time>
      </trkpt>
      <trkpt lat="43.0568" lon="2.35733">
        <ele>531.2657</ele>
        <time>2012-05-06T07:51:02Z</time>
      </trkpt>
      <trkpt lat="43.05719" lon="2.35703">
        <ele>534.6304</ele>
        <time>2012-05-06T07:51:21Z</time>
      </trkpt>
      <trkpt lat="43.05758" lon="2.35682">
        <ele>537.5143</ele>
        <time>2012-05-06T07:51:41Z</time>
      </trkpt>
      <trkpt lat="43.05796" lon="2.3567">
        <ele>540.8789</ele>
        <time>2012-05-06T07:52:00Z</time>
      </trkpt>
      <trkpt lat="43.0581" lon="2.35706">
        <ele>543.2821</ele>
        <time>2012-05-06T07:52:15Z</time>
      </trkpt>
      <trkpt lat="43.0581" lon="2.35711">
        <ele>544.7242</ele>
        <time>2012-05-06T07:52:17Z</time>
      </trkpt>
      <trkpt lat="43.05819" lon="2.35774">
        <ele>547.1274</ele>
        <time>2012-05-06T07:52:36Z</time>
      </trkpt>
      <trkpt lat="43.05826" lon="2.3582">
        <ele>549.05</ele>
        <time>2012-05-06T07:52:50Z</time>
      </trkpt>
      <trkpt lat="43.05841" lon="2.35859">
        <ele>550.4922</ele>
        <time>2012-05-06T07:53:02Z</time>
      </trkpt>
      <trkpt lat="43.05851" lon="2.35884">
        <ele>552.4146</ele>
        <time>2012-05-06T07:53:09Z</time>
      </trkpt>
      <trkpt lat="43.05859" lon="2.35933">
        <ele>553.8567</ele>
        <time>2012-05-06T07:53:22Z</time>
      </trkpt>
      <trkpt lat="43.05865" lon="2.35946">
        <ele>554.3374</ele>
        <time>2012-05-06T07:53:26Z</time>
      </trkpt>
      <trkpt lat="43.05884" lon="2.3594">
        <ele>555.2986</ele>
        <time>2012-05-06T07:53:33Z</time>
      </trkpt>
      <trkpt lat="43.05909" lon="2.35915">
        <ele>558.1829</ele>
        <time>2012-05-06T07:53:47Z</time>
      </trkpt>
      <trkpt lat="43.05934" lon="2.35888">
        <ele>561.5474</ele>
        <time>2012-05-06T07:54:00Z</time>
      </trkpt>
      <trkpt lat="43.05966" lon="2.35872">
        <ele>564.4312</ele>
        <time>2012-05-06T07:54:14Z</time>
      </trkpt>
      <trkpt lat="43.05985" lon="2.3591">
        <ele>566.3538</ele>
        <time>2012-05-06T07:54:27Z</time>
      </trkpt>
      <trkpt lat="43.05998" lon="2.35948">
        <ele>567.7957</ele>
        <time>2012-05-06T07:54:40Z</time>
      </trkpt>
      <trkpt lat="43.06017" lon="2.35989">
        <ele>570.6797</ele>
        <time>2012-05-06T07:54:56Z</time>
      </trkpt>
      <trkpt lat="43.06037" lon="2.36025">
        <ele>573.0833</ele>
        <time>2012-05-06T07:55:10Z</time>
      </trkpt>
      <trkpt lat="43.0605" lon="2.36064">
        <ele>575.0059</ele>
        <time>2012-05-06T07:55:22Z</time>
      </trkpt>
      <trkpt lat="43.06041" lon="2.36121">
        <ele>576.4478</ele>
        <time>2012-05-06T07:55:38Z</time>
      </trkpt>
      <trkpt lat="43.06007" lon="2.36183">
        <ele>577.4092</ele>
        <time>2012-05-06T07:55:58Z</time>
      </trkpt>
      <trkpt lat="43.05999" lon="2.36195">
        <ele>577.4092</ele>
        <time>2012-05-06T07:56:01Z</time>
      </trkpt>
      <trkpt lat="43.05942" lon="2.36284">
        <ele>576.9285</ele>
        <time>2012-05-06T07:56:20Z</time>
      </trkpt>
      <trkpt lat="43.05924" lon="2.36357">
        <ele>579.3315</ele>
        <time>2012-05-06T07:56:35Z</time>
      </trkpt>
      <trkpt lat="43.05938" lon="2.3642">
        <ele>579.3315</ele>
        <time>2012-05-06T07:56:48Z</time>
      </trkpt>
      <trkpt lat="43.05945" lon="2.3644">
        <ele>578.8511</ele>
        <time>2012-05-06T07:56:51Z</time>
      </trkpt>
      <trkpt lat="43.05949" lon="2.36457">
        <ele>577.4092</ele>
        <time>2012-05-06T07:56:53Z</time>
      </trkpt>
      <trkpt lat="43.05954" lon="2.36503">
        <ele>575.4863</ele>
        <time>2012-05-06T07:56:58Z</time>
      </trkpt>
      <trkpt lat="43.05967" lon="2.36538">
        <ele>574.0444</ele>
        <time>2012-05-06T07:57:02Z</time>
      </trkpt>
      <trkpt lat="43.05979" lon="2.36553">
        <ele>572.6025</ele>
        <time>2012-05-06T07:57:04Z</time>
      </trkpt>
      <trkpt lat="43.05988" lon="2.36651">
        <ele>571.6409</ele>
        <time>2012-05-06T07:57:15Z</time>
      </trkpt>
      <trkpt lat="43.05988" lon="2.36659">
        <ele>571.6409</ele>
        <time>2012-05-06T07:57:16Z</time>
      </trkpt>
      <trkpt lat="43.05979" lon="2.36702">
        <ele>570.6797</ele>
        <time>2012-05-06T07:57:22Z</time>
      </trkpt>
      <trkpt lat="43.05943" lon="2.36791">
        <ele>573.0833</ele>
        <time>2012-05-06T07:57:41Z</time>
      </trkpt>
      <trkpt lat="43.05943" lon="2.36805">
        <ele>574.5251</ele>
        <time>2012-05-06T07:57:44Z</time>
      </trkpt>
      <trkpt lat="43.05953" lon="2.3686">
        <ele>575.967</ele>
        <time>2012-05-06T07:57:56Z</time>
      </trkpt>
      <trkpt lat="43.05971" lon="2.36971">
        <ele>573.0833</ele>
        <time>2012-05-06T07:58:10Z</time>
      </trkpt>
      <trkpt lat="43.05975" lon="2.36996">
        <ele>571.6409</ele>
        <time>2012-05-06T07:58:12Z</time>
      </trkpt>
      <trkpt lat="43.05985" lon="2.37083">
        <ele>569.2378</ele>
        <time>2012-05-06T07:58:19Z</time>
      </trkpt>
      <trkpt lat="43.05978" lon="2.37121">
        <ele>570.199</ele>
        <time>2012-05-06T07:58:23Z</time>
      </trkpt>
      <trkpt lat="43.05933" lon="2.37168">
        <ele>571.1604</ele>
        <time>2012-05-06T07:58:32Z</time>
      </trkpt>
      <trkpt lat="43.05917" lon="2.37209">
        <ele>570.6797</ele>
        <time>2012-05-06T07:58:37Z</time>
      </trkpt>
      <trkpt lat="43.05915" lon="2.37279">
        <ele>569.2378</ele>
        <time>2012-05-06T07:58:44Z</time>
      </trkpt>
      <trkpt lat="43.05923" lon="2.37319">
        <ele>568.7571</ele>
        <time>2012-05-06T07:58:48Z</time>
      </trkpt>
      <trkpt lat="43.05953" lon="2.37388">
        <ele>567.3152</ele>
        <time>2012-05-06T07:58:56Z</time>
      </trkpt>
      <trkpt lat="43.05961" lon="2.37465">
        <ele>565.3926</ele>
        <time>2012-05-06T07:59:04Z</time>
      </trkpt>
      <trkpt lat="43.05951" lon="2.375">
        <ele>565.3926</ele>
        <time>2012-05-06T07:59:08Z</time>
      </trkpt>
      <trkpt lat="43.05945" lon="2.37517">
        <ele>564.9119</ele>
        <time>2012-05-06T07:59:10Z</time>
      </trkpt>
      <trkpt lat="43.05947" lon="2.37573">
        <ele>563.47</ele>
        <time>2012-05-06T07:59:16Z</time>
      </trkpt>
      <trkpt lat="43.05981" lon="2.37628">
        <ele>561.0667</ele>
        <time>2012-05-06T07:59:25Z</time>
      </trkpt>
      <trkpt lat="43.05982" lon="2.3763">
        <ele>561.0667</ele>
        <time>2012-05-06T07:59:26Z</time>
      </trkpt>
      <trkpt lat="43.05988" lon="2.37655">
        <ele>560.1052</ele>
        <time>2012-05-06T07:59:32Z</time>
      </trkpt>
      <trkpt lat="43.05989" lon="2.37676">
        <ele>559.6248</ele>
        <time>2012-05-06T07:59:41Z</time>
      </trkpt>
      <trkpt lat="43.05998" lon="2.37692">
        <ele>562.9893</ele>
        <time>2012-05-06T07:59:52Z</time>
      </trkpt>
      <trkpt lat="43.06002" lon="2.37696">
        <ele>563.9504</ele>
        <time>2012-05-06T07:59:55Z</time>
      </trkpt>
      <trkpt lat="43.0601" lon="2.37711">
        <ele>567.3152</ele>
        <time>2012-05-06T08:00:08Z</time>
      </trkpt>
      <trkpt lat="43.06016" lon="2.37734">
        <ele>569.2378</ele>
        <time>2012-05-06T08:00:21Z</time>
      </trkpt>
      <trkpt lat="43.06014" lon="2.37741">
        <ele>569.7185</ele>
        <time>2012-05-06T08:00:24Z</time>
      </trkpt>
      <trkpt lat="43.06015" lon="2.37763">
        <ele>569.2378</ele>
        <time>2012-05-06T08:00:33Z</time>
      </trkpt>
      <trkpt lat="43.06017" lon="2.37782">
        <ele>569.7185</ele>
        <time>2012-05-06T08:00:38Z</time>
      </trkpt>
      <trkpt lat="43.06011" lon="2.37817">
        <ele>572.1218</ele>
        <time>2012-05-06T08:00:49Z</time>
      </trkpt>
      <trkpt lat="43.0601" lon="2.37821">
        <ele>572.1218</ele>
        <time>2012-05-06T08:00:51Z</time>
      </trkpt>
      <trkpt lat="43.05998" lon="2.37859">
        <ele>575.4863</ele>
        <time>2012-05-06T08:01:08Z</time>
      </trkpt>
      <trkpt lat="43.05996" lon="2.3787">
        <ele>576.9285</ele>
        <time>2012-05-06T08:01:14Z</time>
      </trkpt>
      <trkpt lat="43.05992" lon="2.37874">
        <ele>577.4092</ele>
        <time>2012-05-06T08:01:17Z</time>
      </trkpt>
      <trkpt lat="43.05995" lon="2.37889">
        <ele>576.9285</ele>
        <time>2012-05-06T08:01:27Z</time>
      </trkpt>
      <trkpt lat="43.06017" lon="2.37905">
        <ele>576.9285</ele>
        <time>2012-05-06T08:01:39Z</time>
      </trkpt>
      <trkpt lat="43.06029" lon="2.37897">
        <ele>575.967</ele>
        <time>2012-05-06T08:01:47Z</time>
      </trkpt>
      <trkpt lat="43.06034" lon="2.37892">
        <ele>575.967</ele>
        <time>2012-05-06T08:01:50Z</time>
      </trkpt>
      <trkpt lat="43.06041" lon="2.37888">
        <ele>575.967</ele>
        <time>2012-05-06T08:01:54Z</time>
      </trkpt>
      <trkpt lat="43.0606" lon="2.37866">
        <ele>577.4092</ele>
        <time>2012-05-06T08:02:07Z</time>
      </trkpt>
      <trkpt lat="43.06066" lon="2.37845">
        <ele>577.4092</ele>
        <time>2012-05-06T08:02:14Z</time>
      </trkpt>
      <trkpt lat="43.0607" lon="2.37833">
        <ele>578.8511</ele>
        <time>2012-05-06T08:02:18Z</time>
      </trkpt>
      <trkpt lat="43.06071" lon="2.37826">
        <ele>579.3315</ele>
        <time>2012-05-06T08:02:22Z</time>
      </trkpt>
      <trkpt lat="43.06077" lon="2.37802">
        <ele>582.6963</ele>
        <time>2012-05-06T08:02:32Z</time>
      </trkpt>
      <trkpt lat="43.06074" lon="2.37791">
        <ele>586.0608</ele>
        <time>2012-05-06T08:02:41Z</time>
      </trkpt>
      <trkpt lat="43.06074" lon="2.3778">
        <ele>587.022</ele>
        <time>2012-05-06T08:02:55Z</time>
      </trkpt>
      <trkpt lat="43.06077" lon="2.37768">
        <ele>589.9063</ele>
        <time>2012-05-06T08:03:10Z</time>
      </trkpt>
      <trkpt lat="43.06078" lon="2.37758">
        <ele>593.2708</ele>
        <time>2012-05-06T08:03:23Z</time>
      </trkpt>
      <trkpt lat="43.06081" lon="2.37752">
        <ele>595.1934</ele>
        <time>2012-05-06T08:03:41Z</time>
      </trkpt>
      <trkpt lat="43.0608" lon="2.37747">
        <ele>595.1934</ele>
        <time>2012-05-06T08:04:19Z</time>
      </trkpt>
      <trkpt lat="43.06081" lon="2.37746">
        <ele>595.1934</ele>
        <time>2012-05-06T08:04:23Z</time>
      </trkpt>
      <trkpt lat="43.0609" lon="2.37708">
        <ele>595.6741</ele>
        <time>2012-05-06T08:04:39Z</time>
      </trkpt>
      <trkpt lat="43.06111" lon="2.37673">
        <ele>596.1548</ele>
        <time>2012-05-06T08:04:51Z</time>
      </trkpt>
      <trkpt lat="43.06114" lon="2.37667">
        <ele>597.116</ele>
        <time>2012-05-06T08:04:55Z</time>
      </trkpt>
      <trkpt lat="43.06119" lon="2.37657">
        <ele>595.1934</ele>
        <time>2012-05-06T08:05:00Z</time>
      </trkpt>
      <trkpt lat="43.0613" lon="2.37631">
        <ele>593.2708</ele>
        <time>2012-05-06T08:05:04Z</time>
      </trkpt>
      <trkpt lat="43.06138" lon="2.37598">
        <ele>591.8289</ele>
        <time>2012-05-06T08:05:11Z</time>
      </trkpt>
      <trkpt lat="43.06162" lon="2.37576">
        <ele>591.3481</ele>
        <time>2012-05-06T08:05:23Z</time>
      </trkpt>
      <trkpt lat="43.06165" lon="2.37573">
        <ele>591.8289</ele>
        <time>2012-05-06T08:05:25Z</time>
      </trkpt>
      <trkpt lat="43.06175" lon="2.37559">
        <ele>591.3481</ele>
        <time>2012-05-06T08:05:32Z</time>
      </trkpt>
      <trkpt lat="43.06185" lon="2.37551">
        <ele>591.8289</ele>
        <time>2012-05-06T08:05:37Z</time>
      </trkpt>
      <trkpt lat="43.06194" lon="2.37539">
        <ele>592.3096</ele>
        <time>2012-05-06T08:05:42Z</time>
      </trkpt>
      <trkpt lat="43.06228" lon="2.37506">
        <ele>590.8674</ele>
        <time>2012-05-06T08:05:54Z</time>
      </trkpt>
      <trkpt lat="43.06254" lon="2.37474">
        <ele>590.8674</ele>
        <time>2012-05-06T08:06:09Z</time>
      </trkpt>
      <trkpt lat="43.06268" lon="2.37446">
        <ele>588.4644</ele>
        <time>2012-05-06T08:06:18Z</time>
      </trkpt>
      <trkpt lat="43.06273" lon="2.37439">
        <ele>587.022</ele>
        <time>2012-05-06T08:06:20Z</time>
      </trkpt>
      <trkpt lat="43.06295" lon="2.37421">
        <ele>584.6189</ele>
        <time>2012-05-06T08:06:25Z</time>
      </trkpt>
      <trkpt lat="43.063" lon="2.37416">
        <ele>583.1768</ele>
        <time>2012-05-06T08:06:27Z</time>
      </trkpt>
      <trkpt lat="43.06303" lon="2.37415">
        <ele>583.1768</ele>
        <time>2012-05-06T08:06:28Z</time>
      </trkpt>
      <trkpt lat="43.06328" lon="2.37381">
        <ele>583.1768</ele>
        <time>2012-05-06T08:06:41Z</time>
      </trkpt>
      <trkpt lat="43.06334" lon="2.37375">
        <ele>584.1382</ele>
        <time>2012-05-06T08:06:43Z</time>
      </trkpt>
      <trkpt lat="43.06354" lon="2.37358">
        <ele>586.0608</ele>
        <time>2012-05-06T08:06:58Z</time>
      </trkpt>
      <trkpt lat="43.0636" lon="2.37347">
        <ele>586.0608</ele>
        <time>2012-05-06T08:07:04Z</time>
      </trkpt>
      <trkpt lat="43.06366" lon="2.37308">
        <ele>583.6575</ele>
        <time>2012-05-06T08:07:13Z</time>
      </trkpt>
      <trkpt lat="43.06367" lon="2.37293">
        <ele>581.7349</ele>
        <time>2012-05-06T08:07:15Z</time>
      </trkpt>
      <trkpt lat="43.06372" lon="2.37263">
        <ele>580.7737</ele>
        <time>2012-05-06T08:07:19Z</time>
      </trkpt>
      <trkpt lat="43.06373" lon="2.37245">
        <ele>580.293</ele>
        <time>2012-05-06T08:07:22Z</time>
      </trkpt>
      <trkpt lat="43.06375" lon="2.37225">
        <ele>578.8511</ele>
        <time>2012-05-06T08:07:29Z</time>
      </trkpt>
      <trkpt lat="43.06375" lon="2.37216">
        <ele>578.3704</ele>
        <time>2012-05-06T08:07:31Z</time>
      </trkpt>
      <trkpt lat="43.06392" lon="2.37176">
        <ele>576.4478</ele>
        <time>2012-05-06T08:07:41Z</time>
      </trkpt>
      <trkpt lat="43.06399" lon="2.37152">
        <ele>574.0444</ele>
        <time>2012-05-06T08:07:46Z</time>
      </trkpt>
      <trkpt lat="43.06404" lon="2.37145">
        <ele>574.0444</ele>
        <time>2012-05-06T08:07:48Z</time>
      </trkpt>
      <trkpt lat="43.06416" lon="2.37118">
        <ele>570.199</ele>
        <time>2012-05-06T08:07:53Z</time>
      </trkpt>
      <trkpt lat="43.06417" lon="2.37112">
        <ele>569.7185</ele>
        <time>2012-05-06T08:07:55Z</time>
      </trkpt>
      <trkpt lat="43.06424" lon="2.37104">
        <ele>567.7957</ele>
        <time>2012-05-06T08:08:00Z</time>
      </trkpt>
      <trkpt lat="43.06426" lon="2.37102">
        <ele>567.7957</ele>
        <time>2012-05-06T08:08:01Z</time>
      </trkpt>
      <trkpt lat="43.06447" lon="2.3709">
        <ele>565.8733</ele>
        <time>2012-05-06T08:08:15Z</time>
      </trkpt>
      <trkpt lat="43.06457" lon="2.37081">
        <ele>564.4312</ele>
        <time>2012-05-06T08:08:20Z</time>
      </trkpt>
      <trkpt lat="43.06462" lon="2.37075">
        <ele>560.5859</ele>
        <time>2012-05-06T08:08:22Z</time>
      </trkpt>
      <trkpt lat="43.06464" lon="2.37072">
        <ele>560.5859</ele>
        <time>2012-05-06T08:08:23Z</time>
      </trkpt>
      <trkpt lat="43.06466" lon="2.37069">
        <ele>559.144</ele>
        <time>2012-05-06T08:08:24Z</time>
      </trkpt>
      <trkpt lat="43.06476" lon="2.37061">
        <ele>558.6633</ele>
        <time>2012-05-06T08:08:28Z</time>
      </trkpt>
      <trkpt lat="43.06485" lon="2.37051">
        <ele>558.1829</ele>
        <time>2012-05-06T08:08:35Z</time>
      </trkpt>
      <trkpt lat="43.06491" lon="2.3704">
        <ele>556.7407</ele>
        <time>2012-05-06T08:08:48Z</time>
      </trkpt>
      <trkpt lat="43.06496" lon="2.37036">
        <ele>554.3374</ele>
        <time>2012-05-06T08:09:03Z</time>
      </trkpt>
      <trkpt lat="43.065" lon="2.37034">
        <ele>552.4146</ele>
        <time>2012-05-06T08:09:26Z</time>
      </trkpt>
      <trkpt lat="43.065" lon="2.37034">
        <ele>551.9341</ele>
        <time>2012-05-06T08:09:27Z</time>
      </trkpt>
      <trkpt lat="43.06502" lon="2.37029">
        <ele>551.9341</ele>
        <time>2012-05-06T08:09:33Z</time>
      </trkpt>
      <trkpt lat="43.06503" lon="2.37023">
        <ele>550.4922</ele>
        <time>2012-05-06T08:09:35Z</time>
      </trkpt>
      <trkpt lat="43.06504" lon="2.3702">
        <ele>547.6082</ele>
        <time>2012-05-06T08:09:36Z</time>
      </trkpt>
      <trkpt lat="43.06522" lon="2.37007">
        <ele>544.2437</ele>
        <time>2012-05-06T08:09:43Z</time>
      </trkpt>
      <trkpt lat="43.06527" lon="2.36999">
        <ele>542.8015</ele>
        <time>2012-05-06T08:09:46Z</time>
      </trkpt>
      <trkpt lat="43.06531" lon="2.36986">
        <ele>540.8789</ele>
        <time>2012-05-06T08:09:48Z</time>
      </trkpt>
      <trkpt lat="43.06532" lon="2.36981">
        <ele>537.5143</ele>
        <time>2012-05-06T08:09:50Z</time>
      </trkpt>
      <trkpt lat="43.06533" lon="2.36979">
        <ele>537.5143</ele>
        <time>2012-05-06T08:09:51Z</time>
      </trkpt>
      <trkpt lat="43.06547" lon="2.36965">
        <ele>534.6304</ele>
        <time>2012-05-06T08:09:59Z</time>
      </trkpt>
      <trkpt lat="43.0655" lon="2.3696">
        <ele>533.1884</ele>
        <time>2012-05-06T08:10:02Z</time>
      </trkpt>
      <trkpt lat="43.06556" lon="2.36954">
        <ele>529.3431</ele>
        <time>2012-05-06T08:10:05Z</time>
      </trkpt>
      <trkpt lat="43.06558" lon="2.36952">
        <ele>527.4204</ele>
        <time>2012-05-06T08:10:06Z</time>
      </trkpt>
      <trkpt lat="43.06569" lon="2.36953">
        <ele>524.0558</ele>
        <time>2012-05-06T08:10:10Z</time>
      </trkpt>
      <trkpt lat="43.06574" lon="2.36951">
        <ele>522.6139</ele>
        <time>2012-05-06T08:10:12Z</time>
      </trkpt>
      <trkpt lat="43.06579" lon="2.36954">
        <ele>520.6913</ele>
        <time>2012-05-06T08:10:19Z</time>
      </trkpt>
      <trkpt lat="43.06579" lon="2.36957">
        <ele>520.2106</ele>
        <time>2012-05-06T08:10:24Z</time>
      </trkpt>
      <trkpt lat="43.06578" lon="2.3696">
        <ele>518.7686</ele>
        <time>2012-05-06T08:10:26Z</time>
      </trkpt>
      <trkpt lat="43.06577" lon="2.36963">
        <ele>517.8073</ele>
        <time>2012-05-06T08:10:30Z</time>
      </trkpt>
      <trkpt lat="43.06578" lon="2.36981">
        <ele>514.4426</ele>
        <time>2012-05-06T08:10:40Z</time>
      </trkpt>
      <trkpt lat="43.06578" lon="2.36987">
        <ele>513.4814</ele>
        <time>2012-05-06T08:10:42Z</time>
      </trkpt>
      <trkpt lat="43.06577" lon="2.36993">
        <ele>513.962</ele>
        <time>2012-05-06T08:10:44Z</time>
      </trkpt>
      <trkpt lat="43.06577" lon="2.36999">
        <ele>513.4814</ele>
        <time>2012-05-06T08:10:46Z</time>
      </trkpt>
      <trkpt lat="43.06576" lon="2.37007">
        <ele>512.0394</ele>
        <time>2012-05-06T08:10:49Z</time>
      </trkpt>
      <trkpt lat="43.06576" lon="2.3701">
        <ele>512.52</ele>
        <time>2012-05-06T08:10:50Z</time>
      </trkpt>
      <trkpt lat="43.06573" lon="2.37014">
        <ele>513.0007</ele>
        <time>2012-05-06T08:10:52Z</time>
      </trkpt>
      <trkpt lat="43.06573" lon="2.37022">
        <ele>512.52</ele>
        <time>2012-05-06T08:10:55Z</time>
      </trkpt>
      <trkpt lat="43.0657" lon="2.37027">
        <ele>511.5587</ele>
        <time>2012-05-06T08:10:57Z</time>
      </trkpt>
      <trkpt lat="43.06566" lon="2.37041">
        <ele>511.5587</ele>
        <time>2012-05-06T08:11:02Z</time>
      </trkpt>
      <trkpt lat="43.0656" lon="2.37051">
        <ele>511.5587</ele>
        <time>2012-05-06T08:11:06Z</time>
      </trkpt>
      <trkpt lat="43.06558" lon="2.37063">
        <ele>512.52</ele>
        <time>2012-05-06T08:11:14Z</time>
      </trkpt>
      <trkpt lat="43.06564" lon="2.3707">
        <ele>513.4814</ele>
        <time>2012-05-06T08:11:20Z</time>
      </trkpt>
      <trkpt lat="43.0656" lon="2.37092">
        <ele>515.4041</ele>
        <time>2012-05-06T08:11:32Z</time>
      </trkpt>
      <trkpt lat="43.06559" lon="2.37098">
        <ele>515.8846</ele>
        <time>2012-05-06T08:11:36Z</time>
      </trkpt>
      <trkpt lat="43.0653" lon="2.37114">
        <ele>514.4426</ele>
        <time>2012-05-06T08:11:47Z</time>
      </trkpt>
      <trkpt lat="43.06511" lon="2.37119">
        <ele>512.0394</ele>
        <time>2012-05-06T08:11:54Z</time>
      </trkpt>
      <trkpt lat="43.06496" lon="2.37143">
        <ele>512.52</ele>
        <time>2012-05-06T08:12:07Z</time>
      </trkpt>
      <trkpt lat="43.06485" lon="2.37156">
        <ele>511.078</ele>
        <time>2012-05-06T08:12:13Z</time>
      </trkpt>
      <trkpt lat="43.0647" lon="2.37181">
        <ele>510.5973</ele>
        <time>2012-05-06T08:12:26Z</time>
      </trkpt>
      <trkpt lat="43.06468" lon="2.37188">
        <ele>511.078</ele>
        <time>2012-05-06T08:12:37Z</time>
      </trkpt>
      <trkpt lat="43.06467" lon="2.37195">
        <ele>511.5587</ele>
        <time>2012-05-06T08:12:41Z</time>
      </trkpt>
      <trkpt lat="43.06463" lon="2.37202">
        <ele>512.0394</ele>
        <time>2012-05-06T08:12:45Z</time>
      </trkpt>
      <trkpt lat="43.06459" lon="2.37207">
        <ele>512.0394</ele>
        <time>2012-05-06T08:12:47Z</time>
      </trkpt>
      <trkpt lat="43.06455" lon="2.37221">
        <ele>510.5973</ele>
        <time>2012-05-06T08:12:52Z</time>
      </trkpt>
      <trkpt lat="43.06452" lon="2.37226">
        <ele>510.1167</ele>
        <time>2012-05-06T08:12:55Z</time>
      </trkpt>
      <trkpt lat="43.06451" lon="2.37236">
        <ele>507.2328</ele>
        <time>2012-05-06T08:13:00Z</time>
      </trkpt>
      <trkpt lat="43.06451" lon="2.37237">
        <ele>507.2328</ele>
        <time>2012-05-06T08:13:01Z</time>
      </trkpt>
      <trkpt lat="43.06449" lon="2.3724">
        <ele>506.2715</ele>
        <time>2012-05-06T08:13:13Z</time>
      </trkpt>
      <trkpt lat="43.06454" lon="2.37256">
        <ele>506.2715</ele>
        <time>2012-05-06T08:13:29Z</time>
      </trkpt>
      <trkpt lat="43.0645" lon="2.37276">
        <ele>506.2715</ele>
        <time>2012-05-06T08:13:45Z</time>
      </trkpt>
      <trkpt lat="43.06451" lon="2.37283">
        <ele>506.7521</ele>
        <time>2012-05-06T08:13:49Z</time>
      </trkpt>
      <trkpt lat="43.06456" lon="2.373">
        <ele>504.8295</ele>
        <time>2012-05-06T08:13:55Z</time>
      </trkpt>
      <trkpt lat="43.06458" lon="2.37318">
        <ele>506.2715</ele>
        <time>2012-05-06T08:14:13Z</time>
      </trkpt>
      <trkpt lat="43.06459" lon="2.37332">
        <ele>507.2328</ele>
        <time>2012-05-06T08:14:25Z</time>
      </trkpt>
      <trkpt lat="43.06459" lon="2.37342">
        <ele>509.1554</ele>
        <time>2012-05-06T08:14:39Z</time>
      </trkpt>
      <trkpt lat="43.0646" lon="2.37351">
        <ele>510.1167</ele>
        <time>2012-05-06T08:14:56Z</time>
      </trkpt>
      <trkpt lat="43.06462" lon="2.37358">
        <ele>511.078</ele>
        <time>2012-05-06T08:15:01Z</time>
      </trkpt>
      <trkpt lat="43.06463" lon="2.3736">
        <ele>511.078</ele>
        <time>2012-05-06T08:15:03Z</time>
      </trkpt>
      <trkpt lat="43.06464" lon="2.37368">
        <ele>512.0394</ele>
        <time>2012-05-06T08:15:20Z</time>
      </trkpt>
      <trkpt lat="43.06464" lon="2.3737">
        <ele>512.52</ele>
        <time>2012-05-06T08:15:21Z</time>
      </trkpt>
      <trkpt lat="43.06463" lon="2.37379">
        <ele>512.52</ele>
        <time>2012-05-06T08:15:25Z</time>
      </trkpt>
      <trkpt lat="43.06463" lon="2.37391">
        <ele>511.5587</ele>
        <time>2012-05-06T08:15:31Z</time>
      </trkpt>
      <trkpt lat="43.06456" lon="2.37399">
        <ele>510.5973</ele>
        <time>2012-05-06T08:15:35Z</time>
      </trkpt>
      <trkpt lat="43.06448" lon="2.37407">
        <ele>510.5973</ele>
        <time>2012-05-06T08:15:38Z</time>
      </trkpt>
      <trkpt lat="43.06444" lon="2.3743">
        <ele>507.7135</ele>
        <time>2012-05-06T08:15:48Z</time>
      </trkpt>
      <trkpt lat="43.06433" lon="2.37449">
        <ele>507.2328</ele>
        <time>2012-05-06T08:16:02Z</time>
      </trkpt>
      <trkpt lat="43.06425" lon="2.3745">
        <ele>508.6747</ele>
        <time>2012-05-06T08:16:22Z</time>
      </trkpt>
      <trkpt lat="43.06419" lon="2.37458">
        <ele>508.6747</ele>
        <time>2012-05-06T08:16:32Z</time>
      </trkpt>
      <trkpt lat="43.06416" lon="2.37467">
        <ele>507.7135</ele>
        <time>2012-05-06T08:16:38Z</time>
      </trkpt>
      <trkpt lat="43.06421" lon="2.37483">
        <ele>508.6747</ele>
        <time>2012-05-06T08:16:50Z</time>
      </trkpt>
      <trkpt lat="43.06418" lon="2.37485">
        <ele>508.6747</ele>
        <time>2012-05-06T08:16:54Z</time>
      </trkpt>
      <trkpt lat="43.06406" lon="2.37498">
        <ele>508.1941</ele>
        <time>2012-05-06T08:17:13Z</time>
      </trkpt>
      <trkpt lat="43.06398" lon="2.37506">
        <ele>509.1554</ele>
        <time>2012-05-06T08:17:26Z</time>
      </trkpt>
      <trkpt lat="43.06385" lon="2.37511">
        <ele>508.1941</ele>
        <time>2012-05-06T08:17:31Z</time>
      </trkpt>
      <trkpt lat="43.06372" lon="2.37523">
        <ele>505.7909</ele>
        <time>2012-05-06T08:17:45Z</time>
      </trkpt>
      <trkpt lat="43.06356" lon="2.37532">
        <ele>506.2715</ele>
        <time>2012-05-06T08:17:55Z</time>
      </trkpt>
      <trkpt lat="43.06348" lon="2.3756">
        <ele>506.2715</ele>
        <time>2012-05-06T08:18:06Z</time>
      </trkpt>
      <trkpt lat="43.06345" lon="2.37571">
        <ele>504.3489</ele>
        <time>2012-05-06T08:18:20Z</time>
      </trkpt>
      <trkpt lat="43.06348" lon="2.37558">
        <ele>504.3489</ele>
        <time>2012-05-06T08:18:37Z</time>
      </trkpt>
      <trkpt lat="43.06349" lon="2.37554">
        <ele>503.3875</ele>
        <time>2012-05-06T08:18:39Z</time>
      </trkpt>
      <trkpt lat="43.06361" lon="2.37541">
        <ele>500.0229</ele>
        <time>2012-05-06T08:18:49Z</time>
      </trkpt>
      <trkpt lat="43.06368" lon="2.37544">
        <ele>498.5809</ele>
        <time>2012-05-06T08:19:00Z</time>
      </trkpt>
      <trkpt lat="43.06364" lon="2.37555">
        <ele>494.7356</ele>
        <time>2012-05-06T08:19:06Z</time>
      </trkpt>
      <trkpt lat="43.06364" lon="2.37554">
        <ele>494.7356</ele>
        <time>2012-05-06T08:19:07Z</time>
      </trkpt>
      <trkpt lat="43.06363" lon="2.37555">
        <ele>494.7356</ele>
        <time>2012-05-06T08:19:08Z</time>
      </trkpt>
      <trkpt lat="43.06361" lon="2.37558">
        <ele>494.7356</ele>
        <time>2012-05-06T08:19:10Z</time>
      </trkpt>
      <trkpt lat="43.0636" lon="2.37564">
        <ele>494.255</ele>
        <time>2012-05-06T08:19:13Z</time>
      </trkpt>
      <trkpt lat="43.06362" lon="2.37575">
        <ele>491.8517</ele>
        <time>2012-05-06T08:19:26Z</time>
      </trkpt>
      <trkpt lat="43.06367" lon="2.37575">
        <ele>489.9291</ele>
        <time>2012-05-06T08:19:29Z</time>
      </trkpt>
      <trkpt lat="43.06371" lon="2.37575">
        <ele>487.5256</ele>
        <time>2012-05-06T08:19:42Z</time>
      </trkpt>
      <trkpt lat="43.06372" lon="2.37576">
        <ele>486.0837</ele>
        <time>2012-05-06T08:19:48Z</time>
      </trkpt>
      <trkpt lat="43.06373" lon="2.37579">
        <ele>484.1611</ele>
        <time>2012-05-06T08:19:51Z</time>
      </trkpt>
      <trkpt lat="43.06374" lon="2.37581">
        <ele>480.7966</ele>
        <time>2012-05-06T08:19:59Z</time>
      </trkpt>
      <trkpt lat="43.06375" lon="2.37581">
        <ele>480.7966</ele>
        <time>2012-05-06T08:20:00Z</time>
      </trkpt>
      <trkpt lat="43.06373" lon="2.37585">
        <ele>479.8351</ele>
        <time>2012-05-06T08:20:03Z</time>
      </trkpt>
      <trkpt lat="43.06374" lon="2.3759">
        <ele>478.8739</ele>
        <time>2012-05-06T08:20:06Z</time>
      </trkpt>
      <trkpt lat="43.06375" lon="2.3759">
        <ele>478.8739</ele>
        <time>2012-05-06T08:20:07Z</time>
      </trkpt>
      <trkpt lat="43.06374" lon="2.37595">
        <ele>477.4319</ele>
        <time>2012-05-06T08:20:09Z</time>
      </trkpt>
      <trkpt lat="43.06373" lon="2.376">
        <ele>475.9899</ele>
        <time>2012-05-06T08:20:13Z</time>
      </trkpt>
      <trkpt lat="43.06375" lon="2.37602">
        <ele>474.0673</ele>
        <time>2012-05-06T08:20:17Z</time>
      </trkpt>
      <trkpt lat="43.06378" lon="2.37591">
        <ele>472.1447</ele>
        <time>2012-05-06T08:20:32Z</time>
      </trkpt>
      <trkpt lat="43.06386" lon="2.37592">
        <ele>469.2607</ele>
        <time>2012-05-06T08:20:42Z</time>
      </trkpt>
      <trkpt lat="43.06389" lon="2.376">
        <ele>466.8574</ele>
        <time>2012-05-06T08:20:51Z</time>
      </trkpt>
      <trkpt lat="43.06389" lon="2.37604">
        <ele>463.4928</ele>
        <time>2012-05-06T08:20:59Z</time>
      </trkpt>
      <trkpt lat="43.06389" lon="2.37604">
        <ele>463.4928</ele>
        <time>2012-05-06T08:21:00Z</time>
      </trkpt>
      <trkpt lat="43.06392" lon="2.37602">
        <ele>463.4928</ele>
        <time>2012-05-06T08:21:13Z</time>
      </trkpt>
      <trkpt lat="43.06399" lon="2.37601">
        <ele>461.5702</ele>
        <time>2012-05-06T08:21:17Z</time>
      </trkpt>
      <trkpt lat="43.06404" lon="2.37601">
        <ele>460.1282</ele>
        <time>2012-05-06T08:21:19Z</time>
      </trkpt>
      <trkpt lat="43.06407" lon="2.37598">
        <ele>459.1669</ele>
        <time>2012-05-06T08:21:20Z</time>
      </trkpt>
      <trkpt lat="43.06413" lon="2.37593">
        <ele>458.2056</ele>
        <time>2012-05-06T08:21:23Z</time>
      </trkpt>
      <trkpt lat="43.06421" lon="2.3759">
        <ele>453.8796</ele>
        <time>2012-05-06T08:21:27Z</time>
      </trkpt>
      <trkpt lat="43.06422" lon="2.3759">
        <ele>453.8796</ele>
        <time>2012-05-06T08:21:28Z</time>
      </trkpt>
      <trkpt lat="43.06424" lon="2.37589">
        <ele>452.9182</ele>
        <time>2012-05-06T08:21:29Z</time>
      </trkpt>
      <trkpt lat="43.06435" lon="2.37585">
        <ele>450.9956</ele>
        <time>2012-05-06T08:21:35Z</time>
      </trkpt>
      <trkpt lat="43.06444" lon="2.37575">
        <ele>447.1503</ele>
        <time>2012-05-06T08:21:40Z</time>
      </trkpt>
      <trkpt lat="43.0645" lon="2.37567">
        <ele>445.7084</ele>
        <time>2012-05-06T08:21:42Z</time>
      </trkpt>
      <trkpt lat="43.06452" lon="2.37568">
        <ele>444.2665</ele>
        <time>2012-05-06T08:21:43Z</time>
      </trkpt>
      <trkpt lat="43.06453" lon="2.37581">
        <ele>442.3439</ele>
        <time>2012-05-06T08:21:47Z</time>
      </trkpt>
      <trkpt lat="43.06451" lon="2.37591">
        <ele>441.3824</ele>
        <time>2012-05-06T08:21:49Z</time>
      </trkpt>
      <trkpt lat="43.06452" lon="2.37597">
        <ele>439.9404</ele>
        <time>2012-05-06T08:21:51Z</time>
      </trkpt>
      <trkpt lat="43.0645" lon="2.37604">
        <ele>438.4985</ele>
        <time>2012-05-06T08:21:53Z</time>
      </trkpt>
      <trkpt lat="43.06448" lon="2.3761">
        <ele>435.1339</ele>
        <time>2012-05-06T08:21:56Z</time>
      </trkpt>
      <trkpt lat="43.06444" lon="2.37625">
        <ele>431.7692</ele>
        <time>2012-05-06T08:22:02Z</time>
      </trkpt>
      <trkpt lat="43.06443" lon="2.37626">
        <ele>431.7692</ele>
        <time>2012-05-06T08:22:03Z</time>
      </trkpt>
      <trkpt lat="43.06437" lon="2.3764">
        <ele>429.8466</ele>
        <time>2012-05-06T08:22:09Z</time>
      </trkpt>
      <trkpt lat="43.0643" lon="2.37648">
        <ele>427.924</ele>
        <time>2012-05-06T08:22:12Z</time>
      </trkpt>
      <trkpt lat="43.06433" lon="2.37656">
        <ele>426.9628</ele>
        <time>2012-05-06T08:22:15Z</time>
      </trkpt>
      <trkpt lat="43.06424" lon="2.37669">
        <ele>424.5594</ele>
        <time>2012-05-06T08:22:19Z</time>
      </trkpt>
      <trkpt lat="43.06409" lon="2.37681">
        <ele>423.1174</ele>
        <time>2012-05-06T08:22:23Z</time>
      </trkpt>
      <trkpt lat="43.06407" lon="2.37683">
        <ele>422.6367</ele>
        <time>2012-05-06T08:22:24Z</time>
      </trkpt>
      <trkpt lat="43.06398" lon="2.37693">
        <ele>423.598</ele>
        <time>2012-05-06T08:22:34Z</time>
      </trkpt>
      <trkpt lat="43.06392" lon="2.37705">
        <ele>422.156</ele>
        <time>2012-05-06T08:22:39Z</time>
      </trkpt>
      <trkpt lat="43.0639" lon="2.37709">
        <ele>422.156</ele>
        <time>2012-05-06T08:22:44Z</time>
      </trkpt>
      <trkpt lat="43.06387" lon="2.37714">
        <ele>420.7141</ele>
        <time>2012-05-06T08:22:47Z</time>
      </trkpt>
      <trkpt lat="43.06386" lon="2.37725">
        <ele>419.7528</ele>
        <time>2012-05-06T08:22:55Z</time>
      </trkpt>
      <trkpt lat="43.06384" lon="2.37733">
        <ele>419.7528</ele>
        <time>2012-05-06T08:22:59Z</time>
      </trkpt>
      <trkpt lat="43.06382" lon="2.37742">
        <ele>417.8302</ele>
        <time>2012-05-06T08:23:03Z</time>
      </trkpt>
      <trkpt lat="43.06369" lon="2.37752">
        <ele>414.9462</ele>
        <time>2012-05-06T08:23:10Z</time>
      </trkpt>
      <trkpt lat="43.06366" lon="2.37754">
        <ele>413.9849</ele>
        <time>2012-05-06T08:23:11Z</time>
      </trkpt>
      <trkpt lat="43.06354" lon="2.37762">
        <ele>413.0236</ele>
        <time>2012-05-06T08:23:16Z</time>
      </trkpt>
      <trkpt lat="43.06351" lon="2.37772">
        <ele>410.1396</ele>
        <time>2012-05-06T08:23:24Z</time>
      </trkpt>
      <trkpt lat="43.06341" lon="2.3778">
        <ele>413.0236</ele>
        <time>2012-05-06T08:23:52Z</time>
      </trkpt>
      <trkpt lat="43.06339" lon="2.37782">
        <ele>414.4655</ele>
        <time>2012-05-06T08:23:55Z</time>
      </trkpt>
      <trkpt lat="43.06335" lon="2.37788">
        <ele>414.9462</ele>
        <time>2012-05-06T08:23:59Z</time>
      </trkpt>
      <trkpt lat="43.06325" lon="2.37795">
        <ele>417.3496</ele>
        <time>2012-05-06T08:24:16Z</time>
      </trkpt>
      <trkpt lat="43.06318" lon="2.37807">
        <ele>416.3882</ele>
        <time>2012-05-06T08:24:23Z</time>
      </trkpt>
      <trkpt lat="43.06309" lon="2.37828">
        <ele>416.8689</ele>
        <time>2012-05-06T08:24:36Z</time>
      </trkpt>
      <trkpt lat="43.06305" lon="2.37849">
        <ele>417.3496</ele>
        <time>2012-05-06T08:24:51Z</time>
      </trkpt>
      <trkpt lat="43.06304" lon="2.37856">
        <ele>418.7915</ele>
        <time>2012-05-06T08:25:09Z</time>
      </trkpt>
      <trkpt lat="43.06307" lon="2.37874">
        <ele>418.7915</ele>
        <time>2012-05-06T08:25:27Z</time>
      </trkpt>
      <trkpt lat="43.06305" lon="2.37882">
        <ele>419.7528</ele>
        <time>2012-05-06T08:25:46Z</time>
      </trkpt>
      <trkpt lat="43.06302" lon="2.37889">
        <ele>419.7528</ele>
        <time>2012-05-06T08:25:49Z</time>
      </trkpt>
      <trkpt lat="43.063" lon="2.37897">
        <ele>420.2334</ele>
        <time>2012-05-06T08:25:55Z</time>
      </trkpt>
      <trkpt lat="43.06294" lon="2.37914">
        <ele>420.7141</ele>
        <time>2012-05-06T08:26:09Z</time>
      </trkpt>
      <trkpt lat="43.06287" lon="2.37924">
        <ele>421.1948</ele>
        <time>2012-05-06T08:26:24Z</time>
      </trkpt>
      <trkpt lat="43.06279" lon="2.3794">
        <ele>421.6754</ele>
        <time>2012-05-06T08:26:36Z</time>
      </trkpt>
      <trkpt lat="43.06273" lon="2.37949">
        <ele>421.1948</ele>
        <time>2012-05-06T08:26:50Z</time>
      </trkpt>
      <trkpt lat="43.06269" lon="2.3796">
        <ele>420.2334</ele>
        <time>2012-05-06T08:27:00Z</time>
      </trkpt>
      <trkpt lat="43.06266" lon="2.37966">
        <ele>419.7528</ele>
        <time>2012-05-06T08:27:03Z</time>
      </trkpt>
      <trkpt lat="43.06257" lon="2.37975">
        <ele>419.7528</ele>
        <time>2012-05-06T08:27:06Z</time>
      </trkpt>
      <trkpt lat="43.06251" lon="2.37982">
        <ele>419.7528</ele>
        <time>2012-05-06T08:27:11Z</time>
      </trkpt>
      <trkpt lat="43.06248" lon="2.37989">
        <ele>420.2334</ele>
        <time>2012-05-06T08:27:18Z</time>
      </trkpt>
      <trkpt lat="43.06243" lon="2.38013">
        <ele>420.2334</ele>
        <time>2012-05-06T08:27:38Z</time>
      </trkpt>
      <trkpt lat="43.06224" lon="2.38023">
        <ele>418.7915</ele>
        <time>2012-05-06T08:27:55Z</time>
      </trkpt>
      <trkpt lat="43.06216" lon="2.38034">
        <ele>416.3882</ele>
        <time>2012-05-06T08:28:09Z</time>
      </trkpt>
      <trkpt lat="43.06213" lon="2.3804">
        <ele>416.8689</ele>
        <time>2012-05-06T08:28:20Z</time>
      </trkpt>
      <trkpt lat="43.062" lon="2.3805">
        <ele>419.2722</ele>
        <time>2012-05-06T08:28:36Z</time>
      </trkpt>
      <trkpt lat="43.06193" lon="2.38063">
        <ele>419.2722</ele>
        <time>2012-05-06T08:28:52Z</time>
      </trkpt>
      <trkpt lat="43.06192" lon="2.38066">
        <ele>417.8302</ele>
        <time>2012-05-06T08:28:54Z</time>
      </trkpt>
      <trkpt lat="43.06196" lon="2.38076">
        <ele>415.4269</ele>
        <time>2012-05-06T08:28:58Z</time>
      </trkpt>
      <trkpt lat="43.06201" lon="2.38098">
        <ele>411.5817</ele>
        <time>2012-05-06T08:29:08Z</time>
      </trkpt>
      <trkpt lat="43.06199" lon="2.381">
        <ele>411.5817</ele>
        <time>2012-05-06T08:29:09Z</time>
      </trkpt>
      <trkpt lat="43.06198" lon="2.38104">
        <ele>409.1783</ele>
        <time>2012-05-06T08:29:12Z</time>
      </trkpt>
      <trkpt lat="43.06204" lon="2.38109">
        <ele>408.6976</ele>
        <time>2012-05-06T08:29:16Z</time>
      </trkpt>
      <trkpt lat="43.06211" lon="2.38113">
        <ele>404.3717</ele>
        <time>2012-05-06T08:29:24Z</time>
      </trkpt>
      <trkpt lat="43.06206" lon="2.38125">
        <ele>402.9297</ele>
        <time>2012-05-06T08:29:31Z</time>
      </trkpt>
      <trkpt lat="43.06204" lon="2.38139">
        <ele>400.0459</ele>
        <time>2012-05-06T08:29:36Z</time>
      </trkpt>
      <trkpt lat="43.06204" lon="2.38142">
        <ele>397.6425</ele>
        <time>2012-05-06T08:29:37Z</time>
      </trkpt>
      <trkpt lat="43.06201" lon="2.38153">
        <ele>395.7198</ele>
        <time>2012-05-06T08:29:39Z</time>
      </trkpt>
      <trkpt lat="43.06201" lon="2.38156">
        <ele>394.7585</ele>
        <time>2012-05-06T08:29:41Z</time>
      </trkpt>
      <trkpt lat="43.06198" lon="2.3816">
        <ele>393.3165</ele>
        <time>2012-05-06T08:29:43Z</time>
      </trkpt>
      <trkpt lat="43.06196" lon="2.38166">
        <ele>392.8359</ele>
        <time>2012-05-06T08:29:46Z</time>
      </trkpt>
      <trkpt lat="43.06195" lon="2.38179">
        <ele>389.9519</ele>
        <time>2012-05-06T08:29:53Z</time>
      </trkpt>
      <trkpt lat="43.0619" lon="2.38189">
        <ele>388.9906</ele>
        <time>2012-05-06T08:30:06Z</time>
      </trkpt>
      <trkpt lat="43.06191" lon="2.38201">
        <ele>386.1067</ele>
        <time>2012-05-06T08:30:11Z</time>
      </trkpt>
      <trkpt lat="43.06194" lon="2.38218">
        <ele>384.1841</ele>
        <time>2012-05-06T08:30:21Z</time>
      </trkpt>
      <trkpt lat="43.062" lon="2.38237">
        <ele>382.2614</ele>
        <time>2012-05-06T08:30:30Z</time>
      </trkpt>
      <trkpt lat="43.06202" lon="2.38247">
        <ele>379.858</ele>
        <time>2012-05-06T08:30:37Z</time>
      </trkpt>
      <trkpt lat="43.06205" lon="2.38256">
        <ele>377.4548</ele>
        <time>2012-05-06T08:30:42Z</time>
      </trkpt>
      <trkpt lat="43.06207" lon="2.3826">
        <ele>376.4935</ele>
        <time>2012-05-06T08:30:44Z</time>
      </trkpt>
      <trkpt lat="43.06211" lon="2.38271">
        <ele>374.5708</ele>
        <time>2012-05-06T08:30:48Z</time>
      </trkpt>
      <trkpt lat="43.0621" lon="2.38302">
        <ele>371.6869</ele>
        <time>2012-05-06T08:30:56Z</time>
      </trkpt>
      <trkpt lat="43.06209" lon="2.38323">
        <ele>369.7643</ele>
        <time>2012-05-06T08:31:00Z</time>
      </trkpt>
      <trkpt lat="43.0621" lon="2.38333">
        <ele>368.803</ele>
        <time>2012-05-06T08:31:02Z</time>
      </trkpt>
      <trkpt lat="43.0621" lon="2.38338">
        <ele>366.8802</ele>
        <time>2012-05-06T08:31:04Z</time>
      </trkpt>
      <trkpt lat="43.06209" lon="2.38348">
        <ele>364.4769</ele>
        <time>2012-05-06T08:31:07Z</time>
      </trkpt>
      <trkpt lat="43.0621" lon="2.38353">
        <ele>363.035</ele>
        <time>2012-05-06T08:31:09Z</time>
      </trkpt>
      <trkpt lat="43.0621" lon="2.38356">
        <ele>362.5543</ele>
        <time>2012-05-06T08:31:10Z</time>
      </trkpt>
      <trkpt lat="43.06212" lon="2.38367">
        <ele>359.1897</ele>
        <time>2012-05-06T08:31:13Z</time>
      </trkpt>
      <trkpt lat="43.06212" lon="2.3837">
        <ele>359.1897</ele>
        <time>2012-05-06T08:31:14Z</time>
      </trkpt>
      <trkpt lat="43.06212" lon="2.38374">
        <ele>358.709</ele>
        <time>2012-05-06T08:31:15Z</time>
      </trkpt>
      <trkpt lat="43.06214" lon="2.38386">
        <ele>356.3058</ele>
        <time>2012-05-06T08:31:18Z</time>
      </trkpt>
      <trkpt lat="43.06214" lon="2.38399">
        <ele>353.9026</ele>
        <time>2012-05-06T08:31:21Z</time>
      </trkpt>
      <trkpt lat="43.06214" lon="2.38408">
        <ele>352.4606</ele>
        <time>2012-05-06T08:31:23Z</time>
      </trkpt>
      <trkpt lat="43.06221" lon="2.3843">
        <ele>350.0573</ele>
        <time>2012-05-06T08:31:28Z</time>
      </trkpt>
      <trkpt lat="43.06219" lon="2.38442">
        <ele>347.6539</ele>
        <time>2012-05-06T08:31:32Z</time>
      </trkpt>
      <trkpt lat="43.06222" lon="2.38442">
        <ele>346.212</ele>
        <time>2012-05-06T08:31:35Z</time>
      </trkpt>
      <trkpt lat="43.06224" lon="2.38446">
        <ele>345.2506</ele>
        <time>2012-05-06T08:31:37Z</time>
      </trkpt>
      <trkpt lat="43.06227" lon="2.38452">
        <ele>343.3279</ele>
        <time>2012-05-06T08:31:39Z</time>
      </trkpt>
      <trkpt lat="43.06233" lon="2.38463">
        <ele>340.4441</ele>
        <time>2012-05-06T08:31:43Z</time>
      </trkpt>
      <trkpt lat="43.06233" lon="2.38465">
        <ele>340.4441</ele>
        <time>2012-05-06T08:31:44Z</time>
      </trkpt>
      <trkpt lat="43.0624" lon="2.38485">
        <ele>337.0795</ele>
        <time>2012-05-06T08:31:54Z</time>
      </trkpt>
      <trkpt lat="43.0624" lon="2.385">
        <ele>334.6761</ele>
        <time>2012-05-06T08:32:00Z</time>
      </trkpt>
      <trkpt lat="43.06241" lon="2.38507">
        <ele>333.2341</ele>
        <time>2012-05-06T08:32:02Z</time>
      </trkpt>
      <trkpt lat="43.06239" lon="2.38519">
        <ele>331.7921</ele>
        <time>2012-05-06T08:32:05Z</time>
      </trkpt>
      <trkpt lat="43.06234" lon="2.38556">
        <ele>328.4276</ele>
        <time>2012-05-06T08:32:13Z</time>
      </trkpt>
      <trkpt lat="43.06236" lon="2.38576">
        <ele>326.9856</ele>
        <time>2012-05-06T08:32:24Z</time>
      </trkpt>
      <trkpt lat="43.06238" lon="2.38573">
        <ele>325.063</ele>
        <time>2012-05-06T08:32:28Z</time>
      </trkpt>
      <trkpt lat="43.06243" lon="2.38572">
        <ele>322.179</ele>
        <time>2012-05-06T08:32:42Z</time>
      </trkpt>
      <trkpt lat="43.06244" lon="2.38568">
        <ele>321.6984</ele>
        <time>2012-05-06T08:32:56Z</time>
      </trkpt>
      <trkpt lat="43.0625" lon="2.38555">
        <ele>319.7756</ele>
        <time>2012-05-06T08:33:00Z</time>
      </trkpt>
      <trkpt lat="43.06257" lon="2.38541">
        <ele>319.7756</ele>
        <time>2012-05-06T08:33:02Z</time>
      </trkpt>
      <trkpt lat="43.06268" lon="2.38521">
        <ele>318.8143</ele>
        <time>2012-05-06T08:33:05Z</time>
      </trkpt>
      <trkpt lat="43.06303" lon="2.38511">
        <ele>320.2563</ele>
        <time>2012-05-06T08:33:12Z</time>
      </trkpt>
      <trkpt lat="43.06306" lon="2.38513">
        <ele>321.2178</ele>
        <time>2012-05-06T08:33:13Z</time>
      </trkpt>
      <trkpt lat="43.06318" lon="2.38521">
        <ele>322.6597</ele>
        <time>2012-05-06T08:33:18Z</time>
      </trkpt>
      <trkpt lat="43.06322" lon="2.38522">
        <ele>323.1404</ele>
        <time>2012-05-06T08:33:28Z</time>
      </trkpt>
      <trkpt lat="43.06323" lon="2.38521">
        <ele>322.6597</ele>
        <time>2012-05-06T08:34:07Z</time>
      </trkpt>
      <trkpt lat="43.06323" lon="2.38525">
        <ele>323.621</ele>
        <time>2012-05-06T08:34:33Z</time>
      </trkpt>
      <trkpt lat="43.06323" lon="2.38544">
        <ele>324.1016</ele>
        <time>2012-05-06T08:34:42Z</time>
      </trkpt>
      <trkpt lat="43.06325" lon="2.38536">
        <ele>324.1016</ele>
        <time>2012-05-06T08:34:48Z</time>
      </trkpt>
      <trkpt lat="43.06323" lon="2.38519">
        <ele>323.621</ele>
        <time>2012-05-06T08:34:55Z</time>
      </trkpt>
      <trkpt lat="43.06322" lon="2.38528">
        <ele>323.1404</ele>
        <time>2012-05-06T08:35:03Z</time>
      </trkpt>
      <trkpt lat="43.06324" lon="2.38533">
        <ele>324.1016</ele>
        <time>2012-05-06T08:35:07Z</time>
      </trkpt>
      <trkpt lat="43.06326" lon="2.38529">
        <ele>324.1016</ele>
        <time>2012-05-06T08:35:26Z</time>
      </trkpt>
      <trkpt lat="43.06325" lon="2.38529">
        <ele>324.1016</ele>
        <time>2012-05-06T08:36:29Z</time>
      </trkpt>
      <trkpt lat="43.06325" lon="2.38532">
        <ele>323.621</ele>
        <time>2012-05-06T08:36:44Z</time>
      </trkpt>
      <trkpt lat="43.06325" lon="2.38538">
        <ele>324.1016</ele>
        <time>2012-05-06T08:36:52Z</time>
      </trkpt>
      <trkpt lat="43.06322" lon="2.38541">
        <ele>323.621</ele>
        <time>2012-05-06T08:37:15Z</time>
      </trkpt>
      <trkpt lat="43.06323" lon="2.3854">
        <ele>324.1016</ele>
        <time>2012-05-06T08:37:40Z</time>
      </trkpt>
      <trkpt lat="43.06326" lon="2.38527">
        <ele>323.621</ele>
        <time>2012-05-06T08:38:00Z</time>
      </trkpt>
      <trkpt lat="43.06326" lon="2.38529">
        <ele>324.5823</ele>
        <time>2012-05-06T08:38:20Z</time>
      </trkpt>
      <trkpt lat="43.06325" lon="2.38528">
        <ele>324.1016</ele>
        <time>2012-05-06T08:38:52Z</time>
      </trkpt>
      <trkpt lat="43.06325" lon="2.38527">
        <ele>324.1016</ele>
        <time>2012-05-06T08:39:23Z</time>
      </trkpt>
      <trkpt lat="43.06325" lon="2.38527">
        <ele>322.6597</ele>
        <time>2012-05-06T08:40:13Z</time>
      </trkpt>
      <trkpt lat="43.06326" lon="2.38526">
        <ele>323.621</ele>
        <time>2012-05-06T08:41:01Z</time>
      </trkpt>
      <trkpt lat="43.06324" lon="2.38524">
        <ele>323.1404</ele>
        <time>2012-05-06T08:41:32Z</time>
      </trkpt>
      <trkpt lat="43.06325" lon="2.38522">
        <ele>322.6597</ele>
        <time>2012-05-06T08:42:03Z</time>
      </trkpt>
      <trkpt lat="43.06325" lon="2.38516">
        <ele>323.1404</ele>
        <time>2012-05-06T08:44:23Z</time>
      </trkpt>
      <trkpt lat="43.06319" lon="2.385">
        <ele>321.6984</ele>
        <time>2012-05-06T08:44:43Z</time>
      </trkpt>
      <trkpt lat="43.06318" lon="2.38498">
        <ele>321.6984</ele>
        <time>2012-05-06T08:44:51Z</time>
      </trkpt>
      <trkpt lat="43.06306" lon="2.38474">
        <ele>321.6984</ele>
        <time>2012-05-06T08:44:58Z</time>
      </trkpt>
      <trkpt lat="43.06299" lon="2.38418">
        <ele>320.7371</ele>
        <time>2012-05-06T08:45:05Z</time>
      </trkpt>
      <trkpt lat="43.06304" lon="2.38382">
        <ele>319.7756</ele>
        <time>2012-05-06T08:45:10Z</time>
      </trkpt>
      <trkpt lat="43.06305" lon="2.38361">
        <ele>319.295</ele>
        <time>2012-05-06T08:45:13Z</time>
      </trkpt>
      <trkpt lat="43.06318" lon="2.38311">
        <ele>317.3724</ele>
        <time>2012-05-06T08:45:20Z</time>
      </trkpt>
      <trkpt lat="43.06346" lon="2.38266">
        <ele>319.7756</ele>
        <time>2012-05-06T08:45:31Z</time>
      </trkpt>
      <trkpt lat="43.06362" lon="2.38258">
        <ele>322.6597</ele>
        <time>2012-05-06T08:45:38Z</time>
      </trkpt>
      <trkpt lat="43.06388" lon="2.38286">
        <ele>325.063</ele>
        <time>2012-05-06T08:45:54Z</time>
      </trkpt>
      <trkpt lat="43.06409" lon="2.38317">
        <ele>328.4276</ele>
        <time>2012-05-06T08:46:09Z</time>
      </trkpt>
      <trkpt lat="43.06439" lon="2.38365">
        <ele>331.7921</ele>
        <time>2012-05-06T08:46:32Z</time>
      </trkpt>
      <trkpt lat="43.06462" lon="2.38361">
        <ele>334.6761</ele>
        <time>2012-05-06T08:46:48Z</time>
      </trkpt>
      <trkpt lat="43.06478" lon="2.38341">
        <ele>337.5601</ele>
        <time>2012-05-06T08:47:02Z</time>
      </trkpt>
      <trkpt lat="43.06498" lon="2.38315">
        <ele>340.9247</ele>
        <time>2012-05-06T08:47:20Z</time>
      </trkpt>
      <trkpt lat="43.06501" lon="2.38314">
        <ele>341.886</ele>
        <time>2012-05-06T08:47:22Z</time>
      </trkpt>
      <trkpt lat="43.06507" lon="2.3831">
        <ele>342.3667</ele>
        <time>2012-05-06T08:47:28Z</time>
      </trkpt>
      <trkpt lat="43.06536" lon="2.38321">
        <ele>344.77</ele>
        <time>2012-05-06T08:47:48Z</time>
      </trkpt>
      <trkpt lat="43.06564" lon="2.38338">
        <ele>347.1732</ele>
        <time>2012-05-06T08:48:05Z</time>
      </trkpt>
      <trkpt lat="43.06583" lon="2.38352">
        <ele>348.1346</ele>
        <time>2012-05-06T08:48:16Z</time>
      </trkpt>
      <trkpt lat="43.06619" lon="2.38334">
        <ele>349.5765</ele>
        <time>2012-05-06T08:48:32Z</time>
      </trkpt>
      <trkpt lat="43.06646" lon="2.38302">
        <ele>350.0573</ele>
        <time>2012-05-06T08:48:46Z</time>
      </trkpt>
      <trkpt lat="43.06666" lon="2.38256">
        <ele>350.5378</ele>
        <time>2012-05-06T08:48:57Z</time>
      </trkpt>
      <trkpt lat="43.06667" lon="2.38253">
        <ele>351.0184</ele>
        <time>2012-05-06T08:48:58Z</time>
      </trkpt>
      <trkpt lat="43.06695" lon="2.38226">
        <ele>350.5378</ele>
        <time>2012-05-06T08:49:09Z</time>
      </trkpt>
      <trkpt lat="43.06732" lon="2.38195">
        <ele>349.0958</ele>
        <time>2012-05-06T08:49:19Z</time>
      </trkpt>
      <trkpt lat="43.0675" lon="2.38188">
        <ele>348.1346</ele>
        <time>2012-05-06T08:49:22Z</time>
      </trkpt>
      <trkpt lat="43.06778" lon="2.38173">
        <ele>348.6152</ele>
        <time>2012-05-06T08:49:29Z</time>
      </trkpt>
      <trkpt lat="43.06816" lon="2.3814">
        <ele>348.6152</ele>
        <time>2012-05-06T08:49:39Z</time>
      </trkpt>
      <trkpt lat="43.06833" lon="2.38125">
        <ele>347.1732</ele>
        <time>2012-05-06T08:49:43Z</time>
      </trkpt>
      <trkpt lat="43.06867" lon="2.38099">
        <ele>349.0958</ele>
        <time>2012-05-06T08:49:49Z</time>
      </trkpt>
      <trkpt lat="43.0689" lon="2.38079">
        <ele>349.5765</ele>
        <time>2012-05-06T08:49:54Z</time>
      </trkpt>
      <trkpt lat="43.06948" lon="2.38065">
        <ele>347.6539</ele>
        <time>2012-05-06T08:50:04Z</time>
      </trkpt>
      <trkpt lat="43.06968" lon="2.38057">
        <ele>347.6539</ele>
        <time>2012-05-06T08:50:08Z</time>
      </trkpt>
      <trkpt lat="43.07038" lon="2.38008">
        <ele>344.77</ele>
        <time>2012-05-06T08:50:25Z</time>
      </trkpt>
      <trkpt lat="43.07042" lon="2.38005">
        <ele>344.2894</ele>
        <time>2012-05-06T08:50:26Z</time>
      </trkpt>
      <trkpt lat="43.07053" lon="2.37991">
        <ele>343.8086</ele>
        <time>2012-05-06T08:50:29Z</time>
      </trkpt>
      <trkpt lat="43.07082" lon="2.37953">
        <ele>343.8086</ele>
        <time>2012-05-06T08:50:34Z</time>
      </trkpt>
      <trkpt lat="43.071" lon="2.37939">
        <ele>342.8473</ele>
        <time>2012-05-06T08:50:37Z</time>
      </trkpt>
      <trkpt lat="43.07124" lon="2.37937">
        <ele>339.9634</ele>
        <time>2012-05-06T08:50:41Z</time>
      </trkpt>
      <trkpt lat="43.07131" lon="2.37937">
        <ele>339.9634</ele>
        <time>2012-05-06T08:50:42Z</time>
      </trkpt>
      <trkpt lat="43.07142" lon="2.37932">
        <ele>338.0408</ele>
        <time>2012-05-06T08:50:45Z</time>
      </trkpt>
      <trkpt lat="43.07147" lon="2.37929">
        <ele>336.5989</ele>
        <time>2012-05-06T08:50:47Z</time>
      </trkpt>
      <trkpt lat="43.07184" lon="2.37903">
        <ele>336.5989</ele>
        <time>2012-05-06T08:50:57Z</time>
      </trkpt>
      <trkpt lat="43.07202" lon="2.37899">
        <ele>335.6373</ele>
        <time>2012-05-06T08:51:01Z</time>
      </trkpt>
      <trkpt lat="43.07234" lon="2.37915">
        <ele>334.6761</ele>
        <time>2012-05-06T08:51:08Z</time>
      </trkpt>
      <trkpt lat="43.07253" lon="2.37917">
        <ele>331.3115</ele>
        <time>2012-05-06T08:51:11Z</time>
      </trkpt>
      <trkpt lat="43.07261" lon="2.37917">
        <ele>328.9083</ele>
        <time>2012-05-06T08:51:13Z</time>
      </trkpt>
      <trkpt lat="43.07269" lon="2.37917">
        <ele>326.9856</ele>
        <time>2012-05-06T08:51:15Z</time>
      </trkpt>
      <trkpt lat="43.07277" lon="2.37914">
        <ele>324.1016</ele>
        <time>2012-05-06T08:51:18Z</time>
      </trkpt>
      <trkpt lat="43.07283" lon="2.37914">
        <ele>323.621</ele>
        <time>2012-05-06T08:51:20Z</time>
      </trkpt>
      <trkpt lat="43.07296" lon="2.37898">
        <ele>321.2178</ele>
        <time>2012-05-06T08:51:25Z</time>
      </trkpt>
      <trkpt lat="43.07325" lon="2.37897">
        <ele>316.411</ele>
        <time>2012-05-06T08:51:31Z</time>
      </trkpt>
      <trkpt lat="43.07329" lon="2.379">
        <ele>316.411</ele>
        <time>2012-05-06T08:51:32Z</time>
      </trkpt>
      <trkpt lat="43.07349" lon="2.37906">
        <ele>312.5658</ele>
        <time>2012-05-06T08:51:37Z</time>
      </trkpt>
      <trkpt lat="43.07359" lon="2.37905">
        <ele>310.1625</ele>
        <time>2012-05-06T08:51:39Z</time>
      </trkpt>
      <trkpt lat="43.07367" lon="2.37904">
        <ele>308.7205</ele>
        <time>2012-05-06T08:51:41Z</time>
      </trkpt>
      <trkpt lat="43.07382" lon="2.37903">
        <ele>305.356</ele>
        <time>2012-05-06T08:51:45Z</time>
      </trkpt>
      <trkpt lat="43.07385" lon="2.37902">
        <ele>305.356</ele>
        <time>2012-05-06T08:51:46Z</time>
      </trkpt>
      <trkpt lat="43.0739" lon="2.379">
        <ele>303.9139</ele>
        <time>2012-05-06T08:51:48Z</time>
      </trkpt>
      <trkpt lat="43.074" lon="2.37895">
        <ele>302.4719</ele>
        <time>2012-05-06T08:51:51Z</time>
      </trkpt>
      <trkpt lat="43.07421" lon="2.37898">
        <ele>300.5493</ele>
        <time>2012-05-06T08:51:55Z</time>
      </trkpt>
      <trkpt lat="43.07459" lon="2.37905">
        <ele>297.6654</ele>
        <time>2012-05-06T08:52:01Z</time>
      </trkpt>
      <trkpt lat="43.07495" lon="2.37917">
        <ele>295.7427</ele>
        <time>2012-05-06T08:52:08Z</time>
      </trkpt>
      <trkpt lat="43.07509" lon="2.3792">
        <ele>296.2235</ele>
        <time>2012-05-06T08:52:11Z</time>
      </trkpt>
      <trkpt lat="43.07524" lon="2.37927">
        <ele>295.262</ele>
        <time>2012-05-06T08:52:14Z</time>
      </trkpt>
      <trkpt lat="43.07536" lon="2.37937">
        <ele>293.8201</ele>
        <time>2012-05-06T08:52:16Z</time>
      </trkpt>
      <trkpt lat="43.07542" lon="2.37943">
        <ele>292.8588</ele>
        <time>2012-05-06T08:52:17Z</time>
      </trkpt>
      <trkpt lat="43.07565" lon="2.37955">
        <ele>289.4941</ele>
        <time>2012-05-06T08:52:21Z</time>
      </trkpt>
      <trkpt lat="43.0757" lon="2.37955">
        <ele>289.4941</ele>
        <time>2012-05-06T08:52:22Z</time>
      </trkpt>
      <trkpt lat="43.07586" lon="2.37957">
        <ele>289.0135</ele>
        <time>2012-05-06T08:52:25Z</time>
      </trkpt>
      <trkpt lat="43.076" lon="2.37956">
        <ele>287.5714</ele>
        <time>2012-05-06T08:52:28Z</time>
      </trkpt>
      <trkpt lat="43.07618" lon="2.37955">
        <ele>286.6102</ele>
        <time>2012-05-06T08:52:31Z</time>
      </trkpt>
      <trkpt lat="43.07629" lon="2.37958">
        <ele>285.1682</ele>
        <time>2012-05-06T08:52:33Z</time>
      </trkpt>
      <trkpt lat="43.07642" lon="2.37963">
        <ele>284.2069</ele>
        <time>2012-05-06T08:52:36Z</time>
      </trkpt>
      <trkpt lat="43.0765" lon="2.37961">
        <ele>280.8424</ele>
        <time>2012-05-06T08:52:39Z</time>
      </trkpt>
      <trkpt lat="43.07661" lon="2.37953">
        <ele>278.9197</ele>
        <time>2012-05-06T08:52:43Z</time>
      </trkpt>
      <trkpt lat="43.07664" lon="2.37952">
        <ele>277.9583</ele>
        <time>2012-05-06T08:52:44Z</time>
      </trkpt>
      <trkpt lat="43.0767" lon="2.37956">
        <ele>276.9971</ele>
        <time>2012-05-06T08:52:46Z</time>
      </trkpt>
      <trkpt lat="43.07678" lon="2.37963">
        <ele>276.5164</ele>
        <time>2012-05-06T08:52:48Z</time>
      </trkpt>
      <trkpt lat="43.07687" lon="2.37968">
        <ele>275.0745</ele>
        <time>2012-05-06T08:52:50Z</time>
      </trkpt>
      <trkpt lat="43.07701" lon="2.37948">
        <ele>271.2291</ele>
        <time>2012-05-06T08:52:56Z</time>
      </trkpt>
      <trkpt lat="43.07703" lon="2.37931">
        <ele>270.7484</ele>
        <time>2012-05-06T08:52:58Z</time>
      </trkpt>
      <trkpt lat="43.07705" lon="2.37913">
        <ele>269.3065</ele>
        <time>2012-05-06T08:53:00Z</time>
      </trkpt>
      <trkpt lat="43.07707" lon="2.37898">
        <ele>268.3451</ele>
        <time>2012-05-06T08:53:02Z</time>
      </trkpt>
      <trkpt lat="43.0771" lon="2.37891">
        <ele>267.3839</ele>
        <time>2012-05-06T08:53:04Z</time>
      </trkpt>
      <trkpt lat="43.07739" lon="2.37862">
        <ele>268.3451</ele>
        <time>2012-05-06T08:53:13Z</time>
      </trkpt>
      <trkpt lat="43.0774" lon="2.37858">
        <ele>268.3451</ele>
        <time>2012-05-06T08:53:14Z</time>
      </trkpt>
      <trkpt lat="43.07781" lon="2.37774">
        <ele>269.3065</ele>
        <time>2012-05-06T08:53:33Z</time>
      </trkpt>
      <trkpt lat="43.07792" lon="2.37665">
        <ele>259.8</ele>
      </trkpt>
      <trkpt lat="43.07801" lon="2.37744">
        <ele>271.2291</ele>
        <time>2012-05-06T08:53:46Z</time>
      </trkpt>
    </trkseg>
  </trk>
</gpx>